PWSweather.com
Personal Weather Stations
Station Observations
1A3COP
Copperhill Airport Community, Copperhill, TN 37317

Copperhill Airport CommunityCopperhill, TN 37317

Lat: 35.015465, Lon: -84.340598

Elevation: 1830

Station Type: Acurite Pro 5 in 1

High Low Average
Temperature 59.5°F15.3°C 22.5°F-5.3°C 47.9°F8.8°C
Dew Point 57.3°F14.1°C 20.8°F-6.2°C 46.7°F8.2°C
Winds 15.0 mph 24.1 kmh Calm Calm 5.0 mph SSW8.0 kmh SSW
Wind Gusts 21.9 mph35.2 kmh -- 7.0 mph11.3 kmh
Humidity 98% 88% 95%
Pressure 28.07 in950.6 mb 27.74 in939.4 mb -
Precipitation 0.57 in14.5 mm - -
Hour Temp Dew Point Humidity Winds Wind Gusts Pressure Precip Precip Rate Daily Precip Total
12:00 AM 57.6°F14.2°C 57.0°F13.9°C 98% 3.5 mph S5.6 kmh S 4.6 mph7.4 kmh 28.03 in949.2 mb - 0.00 in0.0 mm 0.00 in0.0 mm
12:01 AM 57.6°F14.2°C 57.0°F13.9°C 98% 4.6 mph SSE7.4 kmh SSE 8.1 mph13.0 kmh 28.03 in949.2 mb - 0.00 in0.0 mm 0.00 in0.0 mm
12:02 AM 57.6°F14.2°C 57.0°F13.9°C 98% 4.6 mph SE7.4 kmh SE 4.6 mph7.4 kmh 28.02 in948.9 mb - 0.00 in0.0 mm 0.00 in0.0 mm
12:03 AM 57.6°F14.2°C 57.0°F13.9°C 98% 4.6 mph SE7.4 kmh SE 4.6 mph7.4 kmh 28.02 in948.9 mb - 0.00 in0.0 mm 0.00 in0.0 mm
12:04 AM 57.6°F14.2°C 57.0°F13.9°C 98% 3.5 mph SE5.6 kmh SE 3.5 mph5.6 kmh 28.02 in948.9 mb - 0.00 in0.0 mm 0.00 in0.0 mm
12:05 AM 57.6°F14.2°C 57.0°F13.9°C 98% 2.3 mph E3.7 kmh E 3.5 mph5.6 kmh 28.02 in948.9 mb - 0.00 in0.0 mm 0.00 in0.0 mm
12:06 AM 57.6°F14.2°C 57.0°F13.9°C 98% 2.3 mph SSE3.7 kmh SSE 2.3 mph3.7 kmh 28.02 in948.9 mb - 0.00 in0.0 mm 0.00 in0.0 mm
12:07 AM 57.6°F14.2°C 57.0°F13.9°C 98% 2.3 mph SE3.7 kmh SE 2.3 mph3.7 kmh 28.02 in948.9 mb - 0.00 in0.0 mm 0.00 in0.0 mm
12:08 AM 57.6°F14.2°C 57.0°F13.9°C 98% 2.3 mph SE3.7 kmh SE 4.6 mph7.4 kmh 28.02 in948.9 mb - 0.00 in0.0 mm 0.00 in0.0 mm
12:09 AM 57.6°F14.2°C 57.0°F13.9°C 98% 4.6 mph SSE7.4 kmh SSE 5.8 mph9.3 kmh 28.02 in948.9 mb - 0.00 in0.0 mm 0.00 in0.0 mm
12:10 AM 57.6°F14.2°C 57.0°F13.9°C 98% 3.5 mph SSE5.6 kmh SSE 3.5 mph5.6 kmh 28.02 in948.9 mb - 0.00 in0.0 mm 0.00 in0.0 mm
12:11 AM 57.6°F14.2°C 57.0°F13.9°C 98% 2.3 mph S3.7 kmh S 2.3 mph3.7 kmh 28.02 in948.9 mb - 0.00 in0.0 mm 0.00 in0.0 mm
12:12 AM 57.6°F14.2°C 57.0°F13.9°C 98% 2.3 mph SE3.7 kmh SE 3.5 mph5.6 kmh 28.02 in948.9 mb - 0.00 in0.0 mm 0.00 in0.0 mm
12:13 AM 57.6°F14.2°C 57.0°F13.9°C 98% 2.3 mph E3.7 kmh E 2.3 mph3.7 kmh 28.02 in948.9 mb - 0.00 in0.0 mm 0.00 in0.0 mm
12:14 AM 57.6°F14.2°C 57.0°F13.9°C 98% 2.3 mph SSE3.7 kmh SSE 3.5 mph5.6 kmh 28.01 in948.5 mb - 0.00 in0.0 mm 0.00 in0.0 mm
12:15 AM 57.6°F14.2°C 57.0°F13.9°C 98% 3.5 mph SE5.6 kmh SE 3.5 mph5.6 kmh 28.01 in948.5 mb - 0.00 in0.0 mm 0.00 in0.0 mm
12:16 AM 57.6°F14.2°C 57.0°F13.9°C 98% 2.3 mph ESE3.7 kmh ESE 3.5 mph5.6 kmh 28.01 in948.5 mb - 0.00 in0.0 mm 0.00 in0.0 mm
12:17 AM 57.6°F14.2°C 57.0°F13.9°C 98% 2.3 mph SE3.7 kmh SE 2.3 mph3.7 kmh 28.01 in948.5 mb - 0.00 in0.0 mm 0.00 in0.0 mm
12:18 AM 57.6°F14.2°C 57.0°F13.9°C 98% 3.5 mph SSE5.6 kmh SSE 5.8 mph9.3 kmh 28.01 in948.5 mb - 0.00 in0.0 mm 0.00 in0.0 mm
12:19 AM 57.6°F14.2°C 57.0°F13.9°C 98% 3.5 mph SE5.6 kmh SE 4.6 mph7.4 kmh 28.01 in948.5 mb - 0.00 in0.0 mm 0.00 in0.0 mm
12:20 AM 57.6°F14.2°C 57.0°F13.9°C 98% 3.5 mph SE5.6 kmh SE 3.5 mph5.6 kmh 28.01 in948.5 mb - 0.00 in0.0 mm 0.00 in0.0 mm
12:21 AM 57.6°F14.2°C 57.0°F13.9°C 98% 2.3 mph SE3.7 kmh SE 2.3 mph3.7 kmh 28.01 in948.5 mb - 0.00 in0.0 mm 0.00 in0.0 mm
12:22 AM 57.6°F14.2°C 57.0°F13.9°C 98% 3.5 mph SE5.6 kmh SE 4.6 mph7.4 kmh 28.01 in948.5 mb - 0.00 in0.0 mm 0.00 in0.0 mm
12:23 AM 57.6°F14.2°C 57.0°F13.9°C 98% 3.5 mph SE5.6 kmh SE 5.8 mph9.3 kmh 28.01 in948.5 mb - 0.00 in0.0 mm 0.00 in0.0 mm
12:24 AM 57.6°F14.2°C 57.0°F13.9°C 98% 3.5 mph SE5.6 kmh SE 3.5 mph5.6 kmh 28.01 in948.5 mb - 0.00 in0.0 mm 0.00 in0.0 mm
12:25 AM 57.6°F14.2°C 57.0°F13.9°C 98% 3.5 mph SE5.6 kmh SE 9.2 mph14.8 kmh 28.01 in948.5 mb - 0.00 in0.0 mm 0.00 in0.0 mm
12:26 AM 57.6°F14.2°C 57.0°F13.9°C 98% 4.6 mph SE7.4 kmh SE 9.2 mph14.8 kmh 28.01 in948.5 mb - 0.00 in0.0 mm 0.00 in0.0 mm
12:27 AM 57.6°F14.2°C 57.0°F13.9°C 98% 4.6 mph SSE7.4 kmh SSE 8.1 mph13.0 kmh 28.01 in948.5 mb - 0.00 in0.0 mm 0.00 in0.0 mm
12:28 AM 57.7°F14.3°C 57.1°F13.9°C 98% 4.6 mph SE7.4 kmh SE 6.9 mph11.1 kmh 28.01 in948.5 mb - 0.00 in0.0 mm 0.00 in0.0 mm
12:29 AM 57.7°F14.3°C 57.1°F13.9°C 98% 4.6 mph SE7.4 kmh SE 5.8 mph9.3 kmh 28.01 in948.5 mb - 0.00 in0.0 mm 0.00 in0.0 mm
12:30 AM 57.7°F14.3°C 57.1°F13.9°C 98% 2.3 mph SE3.7 kmh SE 4.6 mph7.4 kmh 28.01 in948.5 mb - 0.00 in0.0 mm 0.00 in0.0 mm
12:31 AM 57.7°F14.3°C 57.1°F13.9°C 98% 3.5 mph SE5.6 kmh SE 2.3 mph3.7 kmh 28.01 in948.5 mb - 0.00 in0.0 mm 0.00 in0.0 mm
12:32 AM 57.7°F14.3°C 57.1°F13.9°C 98% 3.5 mph SE5.6 kmh SE 4.6 mph7.4 kmh 28.01 in948.5 mb - 0.00 in0.0 mm 0.00 in0.0 mm
12:33 AM 57.7°F14.3°C 57.1°F13.9°C 98% 3.5 mph SE5.6 kmh SE 6.9 mph11.1 kmh 28.01 in948.5 mb - 0.00 in0.0 mm 0.00 in0.0 mm
12:34 AM 57.7°F14.3°C 56.9°F13.8°C 97% 4.6 mph SSE7.4 kmh SSE 4.6 mph7.4 kmh 28.01 in948.5 mb - 0.00 in0.0 mm 0.00 in0.0 mm
12:35 AM 57.7°F14.3°C 56.9°F13.8°C 97% 2.3 mph S3.7 kmh S 4.6 mph7.4 kmh 28.01 in948.5 mb - 0.00 in0.0 mm 0.00 in0.0 mm
12:36 AM 57.7°F14.3°C 56.9°F13.8°C 97% 3.5 mph SE5.6 kmh SE 4.6 mph7.4 kmh 28.01 in948.5 mb - 0.00 in0.0 mm 0.00 in0.0 mm
12:37 AM 57.9°F14.4°C 57.0°F13.9°C 97% 3.5 mph SE5.6 kmh SE 4.6 mph7.4 kmh 28.01 in948.5 mb - 0.00 in0.0 mm 0.00 in0.0 mm
12:38 AM 57.9°F14.4°C 57.1°F13.9°C 97% 4.6 mph SE7.4 kmh SE 8.1 mph13.0 kmh 28.00 in948.2 mb - 0.00 in0.0 mm 0.00 in0.0 mm
12:39 AM 57.9°F14.4°C 57.1°F13.9°C 97% 4.6 mph SSE7.4 kmh SSE 3.5 mph5.6 kmh 28.00 in948.2 mb - 0.00 in0.0 mm 0.00 in0.0 mm
12:40 AM 57.9°F14.4°C 57.1°F13.9°C 97% 2.3 mph SE3.7 kmh SE 4.6 mph7.4 kmh 28.00 in948.2 mb - 0.00 in0.0 mm 0.00 in0.0 mm
12:41 AM 57.9°F14.4°C 57.1°F13.9°C 97% 3.5 mph SE5.6 kmh SE 4.6 mph7.4 kmh 28.00 in948.2 mb - 0.00 in0.0 mm 0.00 in0.0 mm
12:42 AM 57.9°F14.4°C 57.1°F13.9°C 97% 2.3 mph S3.7 kmh S 3.5 mph5.6 kmh 28.00 in948.2 mb - 0.00 in0.0 mm 0.00 in0.0 mm
12:43 AM 57.9°F14.4°C 57.1°F13.9°C 97% 3.5 mph SE5.6 kmh SE 5.8 mph9.3 kmh 28.00 in948.2 mb - 0.00 in0.0 mm 0.00 in0.0 mm
12:44 AM 57.9°F14.4°C 57.1°F13.9°C 97% 4.6 mph SE7.4 kmh SE 5.8 mph9.3 kmh 28.00 in948.2 mb - 0.00 in0.0 mm 0.00 in0.0 mm
12:45 AM 57.9°F14.4°C 57.1°F13.9°C 97% 3.5 mph S5.6 kmh S 4.6 mph7.4 kmh 28.00 in948.2 mb - 0.00 in0.0 mm 0.00 in0.0 mm
12:46 AM 57.9°F14.4°C 57.1°F13.9°C 97% 3.5 mph ESE5.6 kmh ESE 4.6 mph7.4 kmh 28.00 in948.2 mb - 0.00 in0.0 mm 0.00 in0.0 mm
12:47 AM 57.9°F14.4°C 57.1°F13.9°C 97% 3.5 mph SSE5.6 kmh SSE 4.6 mph7.4 kmh 28.00 in948.2 mb - 0.00 in0.0 mm 0.00 in0.0 mm
12:48 AM 57.9°F14.4°C 57.1°F13.9°C 97% 3.5 mph SE5.6 kmh SE 5.8 mph9.3 kmh 28.00 in948.2 mb - 0.00 in0.0 mm 0.00 in0.0 mm
12:49 AM 57.9°F14.4°C 57.1°F13.9°C 97% 3.5 mph SW5.6 kmh SW 5.8 mph9.3 kmh 28.00 in948.2 mb - 0.00 in0.0 mm 0.00 in0.0 mm
12:50 AM 57.9°F14.4°C 57.1°F13.9°C 97% 3.5 mph ESE5.6 kmh ESE 4.6 mph7.4 kmh 27.99 in947.9 mb - 0.00 in0.0 mm 0.00 in0.0 mm
12:51 AM 57.9°F14.4°C 57.1°F13.9°C 97% 4.6 mph SSE7.4 kmh SSE 5.8 mph9.3 kmh 27.99 in947.9 mb - 0.00 in0.0 mm 0.00 in0.0 mm
12:52 AM 58.1°F14.5°C 57.3°F14.1°C 97% 4.6 mph SSE7.4 kmh SSE 4.6 mph7.4 kmh 27.99 in947.9 mb - 0.00 in0.0 mm 0.00 in0.0 mm
12:53 AM 58.1°F14.5°C 57.0°F13.9°C 96% 4.6 mph SSE7.4 kmh SSE 10.4 mph16.7 kmh 27.99 in947.9 mb - 0.00 in0.0 mm 0.00 in0.0 mm
12:54 AM 58.1°F14.5°C 57.0°F13.9°C 96% 5.8 mph ESE9.3 kmh ESE 10.4 mph16.7 kmh 27.99 in947.9 mb - 0.00 in0.0 mm 0.00 in0.0 mm
12:55 AM 58.1°F14.5°C 57.0°F13.9°C 96% 3.5 mph S5.6 kmh S 5.8 mph9.3 kmh 27.99 in947.9 mb - 0.00 in0.0 mm 0.00 in0.0 mm
12:56 AM 58.1°F14.5°C 57.0°F13.9°C 96% 3.5 mph SE5.6 kmh SE 5.8 mph9.3 kmh 27.99 in947.9 mb - 0.00 in0.0 mm 0.00 in0.0 mm
12:57 AM 58.1°F14.5°C 57.0°F13.9°C 96% 4.6 mph ESE7.4 kmh ESE 5.8 mph9.3 kmh 27.99 in947.9 mb - 0.00 in0.0 mm 0.00 in0.0 mm
12:58 AM 58.1°F14.5°C 57.0°F13.9°C 96% 4.6 mph NE7.4 kmh NE 6.9 mph11.1 kmh 27.99 in947.9 mb - 0.00 in0.0 mm 0.00 in0.0 mm
12:59 AM 58.3°F14.6°C 57.2°F14.0°C 96% 4.6 mph S7.4 kmh S 6.9 mph11.1 kmh 27.99 in947.9 mb - 0.00 in0.0 mm 0.00 in0.0 mm
01:00 AM 58.3°F14.6°C 57.2°F14.0°C 96% 4.6 mph ESE7.4 kmh ESE 8.1 mph13.0 kmh 27.99 in947.9 mb - 0.00 in0.0 mm 0.00 in0.0 mm
01:01 AM 58.3°F14.6°C 57.2°F14.0°C 96% 6.9 mph SE11.1 kmh SE 8.1 mph13.0 kmh 27.99 in947.9 mb - 0.00 in0.0 mm 0.00 in0.0 mm
01:02 AM 58.3°F14.6°C 57.2°F14.0°C 96% 5.8 mph S9.3 kmh S 6.9 mph11.1 kmh 27.99 in947.9 mb - 0.00 in0.0 mm 0.00 in0.0 mm
01:03 AM 58.5°F14.7°C 57.0°F13.9°C 95% 4.6 mph S7.4 kmh S 4.6 mph7.4 kmh 27.99 in947.9 mb - 0.00 in0.0 mm 0.00 in0.0 mm
01:04 AM 58.5°F14.7°C 57.1°F13.9°C 95% 4.6 mph SE7.4 kmh SE 4.6 mph7.4 kmh 27.99 in947.9 mb - 0.00 in0.0 mm 0.00 in0.0 mm
01:05 AM 58.5°F14.7°C 57.1°F13.9°C 95% 3.5 mph ESE5.6 kmh ESE 5.8 mph9.3 kmh 27.99 in947.9 mb - 0.00 in0.0 mm 0.00 in0.0 mm
01:06 AM 58.5°F14.7°C 57.1°F13.9°C 95% 4.6 mph SSE7.4 kmh SSE 4.6 mph7.4 kmh 27.99 in947.9 mb - 0.00 in0.0 mm 0.00 in0.0 mm
01:07 AM 58.5°F14.7°C 57.1°F13.9°C 95% 3.5 mph SE5.6 kmh SE 5.8 mph9.3 kmh 27.99 in947.9 mb - 0.00 in0.0 mm 0.00 in0.0 mm
01:08 AM 58.5°F14.7°C 57.1°F13.9°C 95% 4.6 mph SE7.4 kmh SE 6.9 mph11.1 kmh 27.99 in947.9 mb - 0.00 in0.0 mm 0.00 in0.0 mm
01:09 AM 58.5°F14.7°C 57.1°F13.9°C 95% 4.6 mph S7.4 kmh S 10.4 mph16.7 kmh 27.99 in947.9 mb - 0.00 in0.0 mm 0.00 in0.0 mm
01:10 AM 58.5°F14.7°C 57.1°F13.9°C 95% 5.8 mph S9.3 kmh S 9.2 mph14.8 kmh 27.99 in947.9 mb - 0.00 in0.0 mm 0.00 in0.0 mm
01:11 AM 58.5°F14.7°C 57.1°F13.9°C 95% 4.6 mph SSE7.4 kmh SSE 9.2 mph14.8 kmh 27.99 in947.9 mb - 0.00 in0.0 mm 0.00 in0.0 mm
01:12 AM 58.5°F14.7°C 57.1°F13.9°C 95% 6.9 mph SSE11.1 kmh SSE 6.9 mph11.1 kmh 27.99 in947.9 mb - 0.00 in0.0 mm 0.00 in0.0 mm
01:13 AM 58.6°F14.8°C 57.1°F13.9°C 95% 5.8 mph SSE9.3 kmh SSE 6.9 mph11.1 kmh 27.99 in947.9 mb - 0.00 in0.0 mm 0.00 in0.0 mm
01:14 AM 58.6°F14.8°C 57.2°F14.0°C 95% 4.6 mph SSE7.4 kmh SSE 5.8 mph9.3 kmh 27.98 in947.5 mb - 0.00 in0.0 mm 0.00 in0.0 mm
01:15 AM 58.6°F14.8°C 57.2°F14.0°C 95% 4.6 mph S7.4 kmh S 4.6 mph7.4 kmh 27.98 in947.5 mb - 0.00 in0.0 mm 0.00 in0.0 mm
01:16 AM 58.6°F14.8°C 56.9°F13.8°C 94% 4.6 mph S7.4 kmh S 6.9 mph11.1 kmh 27.98 in947.5 mb - 0.00 in0.0 mm 0.00 in0.0 mm
01:17 AM 58.6°F14.8°C 56.9°F13.8°C 94% 4.6 mph SE7.4 kmh SE 5.8 mph9.3 kmh 27.98 in947.5 mb - 0.00 in0.0 mm 0.00 in0.0 mm
01:18 AM 58.6°F14.8°C 56.9°F13.8°C 94% 2.3 mph S3.7 kmh S 3.5 mph5.6 kmh 27.98 in947.5 mb - 0.00 in0.0 mm 0.00 in0.0 mm
01:19 AM 58.5°F14.7°C 56.8°F13.8°C 94% 3.5 mph SSE5.6 kmh SSE 4.6 mph7.4 kmh 27.98 in947.5 mb - 0.00 in0.0 mm 0.00 in0.0 mm
01:20 AM 58.5°F14.7°C 56.8°F13.8°C 94% 4.6 mph SE7.4 kmh SE 5.8 mph9.3 kmh 27.98 in947.5 mb - 0.00 in0.0 mm 0.00 in0.0 mm
01:21 AM 58.5°F14.7°C 56.8°F13.8°C 94% 3.5 mph SSE5.6 kmh SSE 3.5 mph5.6 kmh 27.98 in947.5 mb - 0.00 in0.0 mm 0.00 in0.0 mm
01:22 AM 58.5°F14.7°C 56.8°F13.8°C 94% 2.3 mph S3.7 kmh S 5.8 mph9.3 kmh 27.98 in947.5 mb - 0.00 in0.0 mm 0.00 in0.0 mm
01:23 AM 58.5°F14.7°C 56.8°F13.8°C 94% 4.6 mph SE7.4 kmh SE 5.8 mph9.3 kmh 27.98 in947.5 mb - 0.00 in0.0 mm 0.00 in0.0 mm
01:24 AM 58.5°F14.7°C 56.8°F13.8°C 94% 4.6 mph SE7.4 kmh SE 5.8 mph9.3 kmh 27.98 in947.5 mb - 0.00 in0.0 mm 0.00 in0.0 mm
01:25 AM 58.5°F14.7°C 56.8°F13.8°C 94% 3.5 mph S5.6 kmh S 4.6 mph7.4 kmh 27.98 in947.5 mb - 0.00 in0.0 mm 0.00 in0.0 mm
01:26 AM 58.5°F14.7°C 56.8°F13.8°C 94% 2.3 mph SSE3.7 kmh SSE 2.3 mph3.7 kmh 27.98 in947.5 mb - 0.00 in0.0 mm 0.00 in0.0 mm
01:27 AM 58.5°F14.7°C 56.8°F13.8°C 94% 2.3 mph SSE3.7 kmh SSE 2.3 mph3.7 kmh 27.98 in947.5 mb - 0.00 in0.0 mm 0.00 in0.0 mm
01:28 AM 58.5°F14.7°C 56.8°F13.8°C 94% 2.3 mph S3.7 kmh S 3.5 mph5.6 kmh 27.98 in947.5 mb - 0.00 in0.0 mm 0.00 in0.0 mm
01:29 AM 58.3°F14.6°C 56.6°F13.7°C 94% 3.5 mph SE5.6 kmh SE 4.6 mph7.4 kmh 27.98 in947.5 mb - 0.00 in0.0 mm 0.00 in0.0 mm
01:30 AM 58.3°F14.6°C 56.6°F13.7°C 94% 3.5 mph SSE5.6 kmh SSE 4.6 mph7.4 kmh 27.98 in947.5 mb - 0.00 in0.0 mm 0.00 in0.0 mm
01:31 AM 58.3°F14.6°C 56.6°F13.7°C 94% 3.5 mph SE5.6 kmh SE 4.6 mph7.4 kmh 27.98 in947.5 mb - 0.00 in0.0 mm 0.00 in0.0 mm
01:32 AM 58.3°F14.6°C 56.6°F13.7°C 94% 3.5 mph ESE5.6 kmh ESE 5.8 mph9.3 kmh 27.98 in947.5 mb - 0.00 in0.0 mm 0.00 in0.0 mm
01:33 AM 58.3°F14.6°C 56.6°F13.7°C 94% 3.5 mph SSE5.6 kmh SSE 5.8 mph9.3 kmh 27.98 in947.5 mb - 0.00 in0.0 mm 0.00 in0.0 mm
01:34 AM 58.3°F14.6°C 56.6°F13.7°C 94% 4.6 mph S7.4 kmh S 5.8 mph9.3 kmh 27.98 in947.5 mb - 0.00 in0.0 mm 0.00 in0.0 mm
01:35 AM 58.1°F14.5°C 56.4°F13.6°C 94% 4.6 mph SSE7.4 kmh SSE 6.9 mph11.1 kmh 27.98 in947.5 mb - 0.00 in0.0 mm 0.00 in0.0 mm
01:36 AM 58.1°F14.5°C 56.4°F13.6°C 94% 4.6 mph SE7.4 kmh SE 4.6 mph7.4 kmh 27.98 in947.5 mb - 0.00 in0.0 mm 0.00 in0.0 mm
01:37 AM 58.1°F14.5°C 56.4°F13.6°C 94% 4.6 mph SSE7.4 kmh SSE 5.8 mph9.3 kmh 27.98 in947.5 mb - 0.00 in0.0 mm 0.00 in0.0 mm
01:38 AM 58.1°F14.5°C 56.4°F13.6°C 94% 5.8 mph SE9.3 kmh SE 5.8 mph9.3 kmh 27.98 in947.5 mb - 0.00 in0.0 mm 0.00 in0.0 mm
01:39 AM 58.1°F14.5°C 56.4°F13.6°C 94% 4.6 mph SE7.4 kmh SE 5.8 mph9.3 kmh 27.98 in947.5 mb - 0.00 in0.0 mm 0.00 in0.0 mm
01:40 AM 58.1°F14.5°C 56.4°F13.6°C 94% 3.5 mph SSE5.6 kmh SSE 5.8 mph9.3 kmh 27.98 in947.5 mb - 0.00 in0.0 mm 0.00 in0.0 mm
01:41 AM 58.1°F14.5°C 56.4°F13.6°C 94% 2.3 mph SSE3.7 kmh SSE 4.6 mph7.4 kmh 27.98 in947.5 mb - 0.00 in0.0 mm 0.00 in0.0 mm
01:42 AM 58.0°F14.4°C 56.3°F13.5°C 94% 4.6 mph S7.4 kmh S 10.4 mph16.7 kmh 27.98 in947.5 mb - 0.00 in0.0 mm 0.00 in0.0 mm
01:43 AM 58.1°F14.5°C 56.4°F13.6°C 94% 5.8 mph SE9.3 kmh SE 4.6 mph7.4 kmh 27.98 in947.5 mb - 0.00 in0.0 mm 0.00 in0.0 mm
01:44 AM 58.1°F14.5°C 56.4°F13.6°C 94% 4.6 mph SE7.4 kmh SE 4.6 mph7.4 kmh 27.98 in947.5 mb - 0.00 in0.0 mm 0.00 in0.0 mm
01:45 AM 58.1°F14.5°C 56.4°F13.6°C 94% 3.5 mph SE5.6 kmh SE 3.5 mph5.6 kmh 27.98 in947.5 mb - 0.00 in0.0 mm 0.00 in0.0 mm
01:46 AM 58.1°F14.5°C 56.4°F13.6°C 94% 3.5 mph SE5.6 kmh SE 8.1 mph13.0 kmh 27.98 in947.5 mb - 0.00 in0.0 mm 0.00 in0.0 mm
01:47 AM 58.1°F14.5°C 56.4°F13.6°C 94% 5.8 mph ESE9.3 kmh ESE 8.1 mph13.0 kmh 27.98 in947.5 mb - 0.00 in0.0 mm 0.00 in0.0 mm
01:48 AM 58.1°F14.5°C 56.4°F13.6°C 94% 4.6 mph SE7.4 kmh SE 8.1 mph13.0 kmh 27.98 in947.5 mb - 0.00 in0.0 mm 0.00 in0.0 mm
01:49 AM 58.1°F14.5°C 56.4°F13.6°C 94% 4.6 mph SSE7.4 kmh SSE 8.1 mph13.0 kmh 27.97 in947.2 mb - 0.00 in0.0 mm 0.00 in0.0 mm
01:50 AM 58.0°F14.4°C 56.2°F13.4°C 94% 3.5 mph SE5.6 kmh SE 4.6 mph7.4 kmh 27.97 in947.2 mb - 0.00 in0.0 mm 0.00 in0.0 mm
01:51 AM 57.9°F14.4°C 56.2°F13.4°C 94% 4.6 mph SE7.4 kmh SE 4.6 mph7.4 kmh 27.97 in947.2 mb - 0.00 in0.0 mm 0.00 in0.0 mm
01:52 AM 57.9°F14.4°C 56.2°F13.4°C 94% 4.6 mph ESE7.4 kmh ESE 4.6 mph7.4 kmh 27.97 in947.2 mb - 0.00 in0.0 mm 0.00 in0.0 mm
01:53 AM 57.9°F14.4°C 56.2°F13.4°C 94% 4.6 mph SE7.4 kmh SE 4.6 mph7.4 kmh 27.97 in947.2 mb - 0.00 in0.0 mm 0.00 in0.0 mm
01:54 AM 57.9°F14.4°C 56.2°F13.4°C 94% 4.6 mph ESE7.4 kmh ESE 4.6 mph7.4 kmh 27.97 in947.2 mb - 0.00 in0.0 mm 0.00 in0.0 mm
01:55 AM 57.9°F14.4°C 56.2°F13.4°C 94% 3.5 mph SE5.6 kmh SE 4.6 mph7.4 kmh 27.97 in947.2 mb - 0.00 in0.0 mm 0.00 in0.0 mm
01:56 AM 57.9°F14.4°C 56.2°F13.4°C 94% 3.5 mph SE5.6 kmh SE 5.8 mph9.3 kmh 27.97 in947.2 mb - 0.00 in0.0 mm 0.00 in0.0 mm
01:57 AM 57.9°F14.4°C 56.2°F13.4°C 94% 4.6 mph ESE7.4 kmh ESE 4.6 mph7.4 kmh 27.97 in947.2 mb - 0.00 in0.0 mm 0.00 in0.0 mm
01:58 AM 57.9°F14.4°C 56.2°F13.4°C 94% 3.5 mph SE5.6 kmh SE 5.8 mph9.3 kmh 27.97 in947.2 mb - 0.00 in0.0 mm 0.00 in0.0 mm
01:59 AM 57.7°F14.3°C 56.0°F13.3°C 94% 4.6 mph SE7.4 kmh SE 8.1 mph13.0 kmh 27.97 in947.2 mb - 0.00 in0.0 mm 0.00 in0.0 mm
02:00 AM 57.7°F14.3°C 56.0°F13.3°C 94% 5.8 mph SE9.3 kmh SE 8.1 mph13.0 kmh 27.97 in947.2 mb - 0.00 in0.0 mm 0.00 in0.0 mm
02:01 AM 57.7°F14.3°C 56.0°F13.3°C 94% 5.8 mph ESE9.3 kmh ESE 5.8 mph9.3 kmh 27.96 in946.8 mb - 0.00 in0.0 mm 0.00 in0.0 mm
02:02 AM 57.7°F14.3°C 56.0°F13.3°C 94% 4.6 mph S7.4 kmh S 8.1 mph13.0 kmh 27.96 in946.8 mb - 0.00 in0.0 mm 0.00 in0.0 mm
02:03 AM 57.7°F14.3°C 56.0°F13.3°C 94% 4.6 mph SSE7.4 kmh SSE 6.9 mph11.1 kmh 27.96 in946.8 mb - 0.00 in0.0 mm 0.00 in0.0 mm
02:04 AM 57.9°F14.4°C 56.2°F13.4°C 94% 5.8 mph SE9.3 kmh SE 6.9 mph11.1 kmh 27.96 in946.8 mb - 0.00 in0.0 mm 0.00 in0.0 mm
02:05 AM 57.9°F14.4°C 56.2°F13.4°C 94% 3.5 mph SSE5.6 kmh SSE 5.8 mph9.3 kmh 27.96 in946.8 mb - 0.00 in0.0 mm 0.00 in0.0 mm
02:06 AM 57.9°F14.4°C 56.2°F13.4°C 94% 4.6 mph SE7.4 kmh SE 5.8 mph9.3 kmh 27.96 in946.8 mb - 0.00 in0.0 mm 0.00 in0.0 mm
02:07 AM 57.9°F14.4°C 56.2°F13.4°C 94% 4.6 mph SE7.4 kmh SE 5.8 mph9.3 kmh 27.96 in946.8 mb - 0.00 in0.0 mm 0.00 in0.0 mm
02:08 AM 57.9°F14.4°C 56.2°F13.4°C 94% 3.5 mph SSE5.6 kmh SSE 5.8 mph9.3 kmh 27.96 in946.8 mb - 0.00 in0.0 mm 0.00 in0.0 mm
02:09 AM 57.9°F14.4°C 56.2°F13.4°C 94% 3.5 mph SSE5.6 kmh SSE 5.8 mph9.3 kmh 27.96 in946.8 mb - 0.00 in0.0 mm 0.00 in0.0 mm
02:10 AM 57.9°F14.4°C 56.2°F13.4°C 94% 3.5 mph S5.6 kmh S 4.6 mph7.4 kmh 27.96 in946.8 mb - 0.00 in0.0 mm 0.00 in0.0 mm
02:11 AM 57.9°F14.4°C 56.2°F13.4°C 94% 2.3 mph SSE3.7 kmh SSE 5.8 mph9.3 kmh 27.96 in946.8 mb - 0.00 in0.0 mm 0.00 in0.0 mm
02:12 AM 57.7°F14.3°C 56.0°F13.3°C 94% 4.6 mph SE7.4 kmh SE 5.8 mph9.3 kmh 27.96 in946.8 mb - 0.00 in0.0 mm 0.00 in0.0 mm
02:13 AM 57.7°F14.3°C 56.0°F13.3°C 94% 3.5 mph S5.6 kmh S 4.6 mph7.4 kmh 27.96 in946.8 mb - 0.00 in0.0 mm 0.00 in0.0 mm
02:14 AM 57.7°F14.3°C 56.0°F13.3°C 94% 3.5 mph S5.6 kmh S 3.5 mph5.6 kmh 27.96 in946.8 mb - 0.00 in0.0 mm 0.00 in0.0 mm
02:15 AM 57.7°F14.3°C 56.0°F13.3°C 94% 2.3 mph S3.7 kmh S 3.5 mph5.6 kmh 27.96 in946.8 mb - 0.00 in0.0 mm 0.00 in0.0 mm
02:16 AM 57.6°F14.2°C 55.9°F13.3°C 94% 2.3 mph E3.7 kmh E 2.3 mph3.7 kmh 27.96 in946.8 mb - 0.00 in0.0 mm 0.00 in0.0 mm
02:17 AM 57.6°F14.2°C 55.9°F13.3°C 94% 1.2 mph S1.9 kmh S 2.3 mph3.7 kmh 27.96 in946.8 mb - 0.00 in0.0 mm 0.00 in0.0 mm
02:18 AM 57.6°F14.2°C 55.9°F13.3°C 94% 3.5 mph S5.6 kmh S 5.8 mph9.3 kmh 27.96 in946.8 mb - 0.00 in0.0 mm 0.00 in0.0 mm
02:19 AM 57.6°F14.2°C 55.9°F13.3°C 94% 4.6 mph WSW7.4 kmh WSW 5.8 mph9.3 kmh 27.96 in946.8 mb - 0.00 in0.0 mm 0.00 in0.0 mm
02:20 AM 57.4°F14.1°C 55.7°F13.2°C 94% 1.2 mph SE1.9 kmh SE 3.5 mph5.6 kmh 27.96 in946.8 mb - 0.00 in0.0 mm 0.00 in0.0 mm
02:21 AM 57.3°F14.1°C 55.6°F13.1°C 94% 2.3 mph SSW3.7 kmh SSW 3.5 mph5.6 kmh 27.96 in946.8 mb - 0.00 in0.0 mm 0.00 in0.0 mm
02:22 AM 57.2°F14.0°C 55.5°F13.1°C 94% 2.3 mph S3.7 kmh S 3.5 mph5.6 kmh 27.96 in946.8 mb - 0.00 in0.0 mm 0.00 in0.0 mm
02:23 AM 57.2°F14.0°C 55.8°F13.2°C 95% 2.3 mph ESE3.7 kmh ESE 3.5 mph5.6 kmh 27.96 in946.8 mb - 0.00 in0.0 mm 0.00 in0.0 mm
02:24 AM 57.2°F14.0°C 55.8°F13.2°C 95% 2.3 mph SE3.7 kmh SE 2.3 mph3.7 kmh 27.96 in946.8 mb - 0.00 in0.0 mm 0.00 in0.0 mm
02:25 AM 57.0°F13.9°C 55.6°F13.1°C 95% 2.3 mph S3.7 kmh S 2.3 mph3.7 kmh 27.96 in946.8 mb - 0.00 in0.0 mm 0.00 in0.0 mm
02:26 AM 57.0°F13.9°C 55.6°F13.1°C 95% 1.2 mph S1.9 kmh S 1.2 mph1.9 kmh 27.97 in947.2 mb - 0.00 in0.0 mm 0.00 in0.0 mm
02:27 AM 56.9°F13.8°C 55.5°F13.1°C 95% 1.2 mph SSE1.9 kmh SSE 3.5 mph5.6 kmh 27.97 in947.2 mb - 0.00 in0.0 mm 0.00 in0.0 mm
02:28 AM 56.8°F13.8°C 55.4°F13.0°C 95% 2.3 mph SE3.7 kmh SE 3.5 mph5.6 kmh 27.97 in947.2 mb - 0.00 in0.0 mm 0.00 in0.0 mm
02:29 AM 56.8°F13.8°C 55.4°F13.0°C 95% 2.3 mph ESE3.7 kmh ESE 3.5 mph5.6 kmh 27.97 in947.2 mb - 0.00 in0.0 mm 0.00 in0.0 mm
02:30 AM 56.8°F13.8°C 55.4°F13.0°C 95% 2.3 mph SE3.7 kmh SE 3.5 mph5.6 kmh 27.97 in947.2 mb - 0.00 in0.0 mm 0.00 in0.0 mm
02:31 AM 56.8°F13.8°C 55.4°F13.0°C 95% 2.3 mph SSE3.7 kmh SSE 3.5 mph5.6 kmh 27.97 in947.2 mb - 0.00 in0.0 mm 0.00 in0.0 mm
02:32 AM 56.8°F13.8°C 55.4°F13.0°C 95% 2.3 mph SE3.7 kmh SE 4.6 mph7.4 kmh 27.97 in947.2 mb - 0.00 in0.0 mm 0.00 in0.0 mm
02:33 AM 56.8°F13.8°C 55.4°F13.0°C 95% 3.5 mph SE5.6 kmh SE 4.6 mph7.4 kmh 27.97 in947.2 mb - 0.00 in0.0 mm 0.00 in0.0 mm
02:34 AM 56.7°F13.7°C 55.3°F12.9°C 95% 2.3 mph SSE3.7 kmh SSE 3.5 mph5.6 kmh 27.97 in947.2 mb - 0.00 in0.0 mm 0.00 in0.0 mm
02:35 AM 56.7°F13.7°C 55.6°F13.1°C 96% 2.3 mph SSW3.7 kmh SSW 3.5 mph5.6 kmh 27.97 in947.2 mb - 0.00 in0.0 mm 0.00 in0.0 mm
02:36 AM 56.7°F13.7°C 55.6°F13.1°C 96% 3.5 mph WSW5.6 kmh WSW 3.5 mph5.6 kmh 27.97 in947.2 mb - 0.00 in0.0 mm 0.00 in0.0 mm
02:37 AM 56.7°F13.7°C 55.6°F13.1°C 96% 2.3 mph SE3.7 kmh SE 2.3 mph3.7 kmh 27.97 in947.2 mb - 0.00 in0.0 mm 0.00 in0.0 mm
02:38 AM 56.7°F13.7°C 55.6°F13.1°C 96% 2.3 mph SE3.7 kmh SE 3.5 mph5.6 kmh 27.96 in946.8 mb - 0.00 in0.0 mm 0.00 in0.0 mm
02:39 AM 56.6°F13.7°C 55.4°F13.0°C 96% 2.3 mph SE3.7 kmh SE 2.3 mph3.7 kmh 27.96 in946.8 mb - 0.00 in0.0 mm 0.00 in0.0 mm
02:40 AM 56.5°F13.6°C 55.4°F13.0°C 96% 2.3 mph SSE3.7 kmh SSE 2.3 mph3.7 kmh 27.96 in946.8 mb - 0.00 in0.0 mm 0.00 in0.0 mm
02:41 AM 56.5°F13.6°C 55.4°F13.0°C 96% 2.3 mph SW3.7 kmh SW 2.3 mph3.7 kmh 27.96 in946.8 mb - 0.00 in0.0 mm 0.00 in0.0 mm
02:42 AM 56.5°F13.6°C 55.4°F13.0°C 96% 2.3 mph WSW3.7 kmh WSW 2.3 mph3.7 kmh 27.96 in946.8 mb - 0.00 in0.0 mm 0.00 in0.0 mm
02:43 AM 56.3°F13.5°C 55.2°F12.9°C 96% 1.2 mph WSW1.9 kmh WSW 1.2 mph1.9 kmh 27.96 in946.8 mb - 0.00 in0.0 mm 0.00 in0.0 mm
02:44 AM 56.3°F13.5°C 55.2°F12.9°C 96% 1.2 mph WSW1.9 kmh WSW 1.2 mph1.9 kmh 27.96 in946.8 mb - 0.00 in0.0 mm 0.00 in0.0 mm
02:45 AM 56.3°F13.5°C 55.2°F12.9°C 96% Calm Calm -- 27.96 in946.8 mb - 0.00 in0.0 mm 0.00 in0.0 mm
02:46 AM 56.3°F13.5°C 55.2°F12.9°C 96% Calm Calm 1.2 mph1.9 kmh 27.96 in946.8 mb - 0.00 in0.0 mm 0.00 in0.0 mm
02:47 AM 56.2°F13.4°C 55.0°F12.8°C 96% 1.2 mph SE1.9 kmh SE 2.3 mph3.7 kmh 27.96 in946.8 mb - 0.00 in0.0 mm 0.00 in0.0 mm
02:48 AM 56.1°F13.4°C 55.0°F12.8°C 96% 1.2 mph SSE1.9 kmh SSE 2.3 mph3.7 kmh 27.96 in946.8 mb - 0.00 in0.0 mm 0.00 in0.0 mm
02:49 AM 56.1°F13.4°C 55.0°F12.8°C 96% 2.3 mph SE3.7 kmh SE 2.3 mph3.7 kmh 27.96 in946.8 mb - 0.00 in0.0 mm 0.00 in0.0 mm
02:50 AM 56.1°F13.4°C 55.0°F12.8°C 96% 1.2 mph ESE1.9 kmh ESE 1.2 mph1.9 kmh 27.97 in947.2 mb - 0.00 in0.0 mm 0.00 in0.0 mm
02:51 AM 56.1°F13.4°C 55.0°F12.8°C 96% Calm Calm 2.3 mph3.7 kmh 27.97 in947.2 mb - 0.00 in0.0 mm 0.00 in0.0 mm
02:52 AM 56.1°F13.4°C 55.0°F12.8°C 96% 1.2 mph SE1.9 kmh SE 2.3 mph3.7 kmh 27.97 in947.2 mb - 0.00 in0.0 mm 0.00 in0.0 mm
02:53 AM 56.1°F13.4°C 55.0°F12.8°C 96% 2.3 mph S3.7 kmh S 3.5 mph5.6 kmh 27.97 in947.2 mb - 0.00 in0.0 mm 0.00 in0.0 mm
02:54 AM 56.1°F13.4°C 55.0°F12.8°C 96% 2.3 mph S3.7 kmh S 3.5 mph5.6 kmh 27.97 in947.2 mb - 0.00 in0.0 mm 0.00 in0.0 mm
02:55 AM 56.1°F13.4°C 55.0°F12.8°C 96% 2.3 mph S3.7 kmh S 3.5 mph5.6 kmh 27.97 in947.2 mb - 0.00 in0.0 mm 0.00 in0.0 mm
02:56 AM 56.1°F13.4°C 55.0°F12.8°C 96% 2.3 mph SSE3.7 kmh SSE 2.3 mph3.7 kmh 27.97 in947.2 mb - 0.00 in0.0 mm 0.00 in0.0 mm
02:57 AM 56.1°F13.4°C 55.3°F12.9°C 97% 2.3 mph SE3.7 kmh SE 2.3 mph3.7 kmh 27.97 in947.2 mb - 0.00 in0.0 mm 0.00 in0.0 mm
02:58 AM 56.1°F13.4°C 55.3°F12.9°C 97% 2.3 mph ESE3.7 kmh ESE 2.3 mph3.7 kmh 27.97 in947.2 mb - 0.00 in0.0 mm 0.00 in0.0 mm
02:59 AM 56.1°F13.4°C 55.3°F12.9°C 97% 2.3 mph SSE3.7 kmh SSE 4.6 mph7.4 kmh 27.97 in947.2 mb - 0.00 in0.0 mm 0.00 in0.0 mm
03:00 AM 56.1°F13.4°C 55.3°F12.9°C 97% 3.5 mph SSE5.6 kmh SSE 3.5 mph5.6 kmh 27.97 in947.2 mb - 0.00 in0.0 mm 0.00 in0.0 mm
03:01 AM 56.1°F13.4°C 55.3°F12.9°C 97% 3.5 mph SE5.6 kmh SE 4.6 mph7.4 kmh 27.97 in947.2 mb - 0.00 in0.0 mm 0.00 in0.0 mm
03:02 AM 56.1°F13.4°C 55.3°F12.9°C 97% 3.5 mph SE5.6 kmh SE 3.5 mph5.6 kmh 27.97 in947.2 mb - 0.00 in0.0 mm 0.00 in0.0 mm
03:03 AM 56.1°F13.4°C 55.3°F12.9°C 97% 2.3 mph SE3.7 kmh SE 3.5 mph5.6 kmh 27.96 in946.8 mb - 0.00 in0.0 mm 0.00 in0.0 mm
03:04 AM 56.1°F13.4°C 55.3°F12.9°C 97% 2.3 mph SE3.7 kmh SE 3.5 mph5.6 kmh 27.96 in946.8 mb - 0.00 in0.0 mm 0.00 in0.0 mm
03:05 AM 56.1°F13.4°C 55.3°F12.9°C 97% 2.3 mph S3.7 kmh S 3.5 mph5.6 kmh 27.96 in946.8 mb - 0.00 in0.0 mm 0.00 in0.0 mm
03:06 AM 56.1°F13.4°C 55.3°F12.9°C 97% 2.3 mph SE3.7 kmh SE 5.8 mph9.3 kmh 27.96 in946.8 mb - 0.00 in0.0 mm 0.00 in0.0 mm
03:07 AM 56.3°F13.5°C 55.5°F13.1°C 97% 3.5 mph ESE5.6 kmh ESE 5.8 mph9.3 kmh 27.96 in946.8 mb - 0.00 in0.0 mm 0.00 in0.0 mm
03:08 AM 56.3°F13.5°C 55.5°F13.1°C 97% 3.5 mph SE5.6 kmh SE 5.8 mph9.3 kmh 27.96 in946.8 mb - 0.00 in0.0 mm 0.00 in0.0 mm
03:09 AM 56.3°F13.5°C 55.5°F13.1°C 97% 3.5 mph ESE5.6 kmh ESE 5.8 mph9.3 kmh 27.96 in946.8 mb - 0.00 in0.0 mm 0.00 in0.0 mm
03:10 AM 56.3°F13.5°C 55.5°F13.1°C 97% 4.6 mph SSE7.4 kmh SSE 4.6 mph7.4 kmh 27.96 in946.8 mb - 0.00 in0.0 mm 0.00 in0.0 mm
03:11 AM 56.5°F13.6°C 55.6°F13.1°C 97% 3.5 mph SE5.6 kmh SE 4.6 mph7.4 kmh 27.96 in946.8 mb - 0.00 in0.0 mm 0.00 in0.0 mm
03:12 AM 56.5°F13.6°C 55.7°F13.2°C 97% 2.3 mph SE3.7 kmh SE 3.5 mph5.6 kmh 27.96 in946.8 mb - 0.00 in0.0 mm 0.00 in0.0 mm
03:13 AM 56.5°F13.6°C 55.7°F13.2°C 97% 2.3 mph SE3.7 kmh SE 3.5 mph5.6 kmh 27.96 in946.8 mb - 0.00 in0.0 mm 0.00 in0.0 mm
03:14 AM 56.5°F13.6°C 55.7°F13.2°C 97% 3.5 mph SE5.6 kmh SE 4.6 mph7.4 kmh 27.96 in946.8 mb - 0.00 in0.0 mm 0.00 in0.0 mm
03:15 AM 56.5°F13.6°C 55.7°F13.2°C 97% 3.5 mph ESE5.6 kmh ESE 5.8 mph9.3 kmh 27.96 in946.8 mb - 0.00 in0.0 mm 0.00 in0.0 mm
03:16 AM 56.7°F13.7°C 55.8°F13.2°C 97% 3.5 mph SE5.6 kmh SE 5.8 mph9.3 kmh 27.96 in946.8 mb - 0.00 in0.0 mm 0.00 in0.0 mm
03:17 AM 56.7°F13.7°C 55.9°F13.3°C 97% 3.5 mph SE5.6 kmh SE 3.5 mph5.6 kmh 27.96 in946.8 mb - 0.00 in0.0 mm 0.00 in0.0 mm
03:18 AM 56.7°F13.7°C 55.9°F13.3°C 97% 2.3 mph ESE3.7 kmh ESE 2.3 mph3.7 kmh 27.96 in946.8 mb - 0.00 in0.0 mm 0.00 in0.0 mm
03:19 AM 56.7°F13.7°C 55.9°F13.3°C 97% 2.3 mph SE3.7 kmh SE 4.6 mph7.4 kmh 27.96 in946.8 mb - 0.00 in0.0 mm 0.00 in0.0 mm
03:20 AM 56.7°F13.7°C 55.9°F13.3°C 97% 3.5 mph SSE5.6 kmh SSE 5.8 mph9.3 kmh 27.96 in946.8 mb - 0.00 in0.0 mm 0.00 in0.0 mm
03:21 AM 56.8°F13.8°C 55.9°F13.3°C 97% 4.6 mph S7.4 kmh S 5.8 mph9.3 kmh 27.96 in946.8 mb - 0.00 in0.0 mm 0.00 in0.0 mm
03:22 AM 56.8°F13.8°C 56.0°F13.3°C 97% 3.5 mph S5.6 kmh S 3.5 mph5.6 kmh 27.96 in946.8 mb - 0.00 in0.0 mm 0.00 in0.0 mm
03:23 AM 56.8°F13.8°C 56.0°F13.3°C 97% 2.3 mph SE3.7 kmh SE 3.5 mph5.6 kmh 27.96 in946.8 mb - 0.00 in0.0 mm 0.00 in0.0 mm
03:24 AM 56.8°F13.8°C 56.0°F13.3°C 97% 2.3 mph S3.7 kmh S 6.9 mph11.1 kmh 27.96 in946.8 mb - 0.00 in0.0 mm 0.00 in0.0 mm
03:25 AM 56.9°F13.8°C 56.1°F13.4°C 97% 4.6 mph SE7.4 kmh SE 6.9 mph11.1 kmh 27.96 in946.8 mb - 0.00 in0.0 mm 0.00 in0.0 mm
03:26 AM 57.0°F13.9°C 56.2°F13.4°C 97% 3.5 mph SSE5.6 kmh SSE 4.6 mph7.4 kmh 27.96 in946.8 mb - 0.00 in0.0 mm 0.00 in0.0 mm
03:27 AM 57.2°F14.0°C 56.3°F13.5°C 97% 4.6 mph SSE7.4 kmh SSE 5.8 mph9.3 kmh 27.96 in946.8 mb - 0.00 in0.0 mm 0.00 in0.0 mm
03:28 AM 57.2°F14.0°C 56.4°F13.6°C 97% 4.6 mph ESE7.4 kmh ESE 5.8 mph9.3 kmh 27.96 in946.8 mb - 0.00 in0.0 mm 0.00 in0.0 mm
03:29 AM 57.2°F14.0°C 56.4°F13.6°C 97% 2.3 mph SE3.7 kmh SE 5.8 mph9.3 kmh 27.96 in946.8 mb - 0.00 in0.0 mm 0.00 in0.0 mm
03:30 AM 57.2°F14.0°C 56.4°F13.6°C 97% 4.6 mph SSE7.4 kmh SSE 8.1 mph13.0 kmh 27.96 in946.8 mb - 0.00 in0.0 mm 0.00 in0.0 mm
03:31 AM 57.5°F14.2°C 56.7°F13.7°C 97% 4.6 mph SSE7.4 kmh SSE 4.6 mph7.4 kmh 27.96 in946.8 mb - 0.00 in0.0 mm 0.00 in0.0 mm
03:32 AM 57.6°F14.2°C 56.8°F13.8°C 97% 3.5 mph SE5.6 kmh SE 4.6 mph7.4 kmh 27.96 in946.8 mb - 0.00 in0.0 mm 0.00 in0.0 mm
03:33 AM 57.6°F14.2°C 56.5°F13.6°C 96% 3.5 mph SE5.6 kmh SE 4.6 mph7.4 kmh 27.96 in946.8 mb - 0.00 in0.0 mm 0.00 in0.0 mm
03:34 AM 57.6°F14.2°C 56.5°F13.6°C 96% 3.5 mph SE5.6 kmh SE 6.9 mph11.1 kmh 27.96 in946.8 mb - 0.00 in0.0 mm 0.00 in0.0 mm
03:35 AM 57.6°F14.2°C 56.5°F13.6°C 96% 4.6 mph S7.4 kmh S 6.9 mph11.1 kmh 27.96 in946.8 mb - 0.00 in0.0 mm 0.00 in0.0 mm
03:36 AM 57.6°F14.2°C 56.5°F13.6°C 96% 3.5 mph SSE5.6 kmh SSE 3.5 mph5.6 kmh 27.96 in946.8 mb - 0.00 in0.0 mm 0.00 in0.0 mm
03:37 AM 57.6°F14.2°C 56.5°F13.6°C 96% 3.5 mph SE5.6 kmh SE 8.1 mph13.0 kmh 27.95 in946.5 mb - 0.00 in0.0 mm 0.00 in0.0 mm
03:38 AM 57.7°F14.3°C 56.5°F13.6°C 96% 5.8 mph S9.3 kmh S 8.1 mph13.0 kmh 27.95 in946.5 mb - 0.00 in0.0 mm 0.00 in0.0 mm
03:39 AM 57.7°F14.3°C 56.6°F13.7°C 96% 4.6 mph SE7.4 kmh SE 4.6 mph7.4 kmh 27.95 in946.5 mb - 0.00 in0.0 mm 0.00 in0.0 mm
03:40 AM 57.9°F14.4°C 56.8°F13.8°C 96% 4.6 mph SSE7.4 kmh SSE 5.8 mph9.3 kmh 27.95 in946.5 mb - 0.00 in0.0 mm 0.00 in0.0 mm
03:41 AM 57.9°F14.4°C 56.8°F13.8°C 96% 3.5 mph ESE5.6 kmh ESE 6.9 mph11.1 kmh 27.95 in946.5 mb - 0.00 in0.0 mm 0.00 in0.0 mm
03:42 AM 58.0°F14.4°C 56.5°F13.6°C 95% 5.8 mph S9.3 kmh S 5.8 mph9.3 kmh 27.95 in946.5 mb - 0.00 in0.0 mm 0.00 in0.0 mm
03:43 AM 58.1°F14.5°C 56.7°F13.7°C 95% 4.6 mph ESE7.4 kmh ESE 5.8 mph9.3 kmh 27.95 in946.5 mb - 0.00 in0.0 mm 0.00 in0.0 mm
03:44 AM 58.1°F14.5°C 56.7°F13.7°C 95% 4.6 mph S7.4 kmh S 5.8 mph9.3 kmh 27.95 in946.5 mb - 0.00 in0.0 mm 0.00 in0.0 mm
03:45 AM 58.1°F14.5°C 56.7°F13.7°C 95% 4.6 mph S7.4 kmh S 5.8 mph9.3 kmh 27.95 in946.5 mb - 0.00 in0.0 mm 0.00 in0.0 mm
03:46 AM 58.1°F14.5°C 56.7°F13.7°C 95% 5.8 mph SE9.3 kmh SE 5.8 mph9.3 kmh 27.95 in946.5 mb - 0.00 in0.0 mm 0.00 in0.0 mm
03:47 AM 58.1°F14.5°C 56.7°F13.7°C 95% 4.6 mph SE7.4 kmh SE 4.6 mph7.4 kmh 27.95 in946.5 mb - 0.00 in0.0 mm 0.00 in0.0 mm
03:48 AM 58.1°F14.5°C 56.7°F13.7°C 95% 4.6 mph SSE7.4 kmh SSE 8.1 mph13.0 kmh 27.95 in946.5 mb - 0.00 in0.0 mm 0.00 in0.0 mm
03:49 AM 58.2°F14.6°C 56.8°F13.8°C 95% 5.8 mph S9.3 kmh S 8.1 mph13.0 kmh 27.94 in946.2 mb - 0.00 in0.0 mm 0.00 in0.0 mm
03:50 AM 58.3°F14.6°C 56.9°F13.8°C 95% 6.9 mph S11.1 kmh S 6.9 mph11.1 kmh 27.94 in946.2 mb - 0.00 in0.0 mm 0.00 in0.0 mm
03:51 AM 58.3°F14.6°C 56.9°F13.8°C 95% 5.8 mph SSE9.3 kmh SSE 5.8 mph9.3 kmh 27.94 in946.2 mb - 0.00 in0.0 mm 0.00 in0.0 mm
03:52 AM 58.3°F14.6°C 56.9°F13.8°C 95% 4.6 mph SE7.4 kmh SE 5.8 mph9.3 kmh 27.94 in946.2 mb - 0.00 in0.0 mm 0.00 in0.0 mm
03:53 AM 58.3°F14.6°C 56.9°F13.8°C 95% 5.8 mph S9.3 kmh S 6.9 mph11.1 kmh 27.94 in946.2 mb - 0.00 in0.0 mm 0.00 in0.0 mm
03:54 AM 58.3°F14.6°C 56.9°F13.8°C 95% 5.8 mph S9.3 kmh S 4.6 mph7.4 kmh 27.94 in946.2 mb - 0.00 in0.0 mm 0.00 in0.0 mm
03:55 AM 58.3°F14.6°C 56.9°F13.8°C 95% 3.5 mph SE5.6 kmh SE 5.8 mph9.3 kmh 27.94 in946.2 mb - 0.00 in0.0 mm 0.00 in0.0 mm
03:56 AM 58.3°F14.6°C 56.9°F13.8°C 95% 3.5 mph SSE5.6 kmh SSE 5.8 mph9.3 kmh 27.94 in946.2 mb - 0.00 in0.0 mm 0.00 in0.0 mm
03:57 AM 58.3°F14.6°C 56.9°F13.8°C 95% 3.5 mph SE5.6 kmh SE 8.1 mph13.0 kmh 27.94 in946.2 mb - 0.00 in0.0 mm 0.00 in0.0 mm
03:58 AM 58.3°F14.6°C 56.9°F13.8°C 95% 5.8 mph S9.3 kmh S 5.8 mph9.3 kmh 27.94 in946.2 mb - 0.00 in0.0 mm 0.00 in0.0 mm
03:59 AM 58.3°F14.6°C 56.9°F13.8°C 95% 4.6 mph SE7.4 kmh SE 10.4 mph16.7 kmh 27.94 in946.2 mb - 0.00 in0.0 mm 0.00 in0.0 mm
04:00 AM 58.3°F14.6°C 56.9°F13.8°C 95% 6.9 mph SSE11.1 kmh SSE 8.1 mph13.0 kmh 27.94 in946.2 mb - 0.00 in0.0 mm 0.00 in0.0 mm
04:01 AM 58.3°F14.6°C 56.9°F13.8°C 95% 4.6 mph S7.4 kmh S 6.9 mph11.1 kmh 27.94 in946.2 mb - 0.00 in0.0 mm 0.00 in0.0 mm
04:02 AM 58.3°F14.6°C 56.9°F13.8°C 95% 4.6 mph SSE7.4 kmh SSE 6.9 mph11.1 kmh 27.93 in945.8 mb - 0.00 in0.0 mm 0.00 in0.0 mm
04:03 AM 58.3°F14.6°C 56.9°F13.8°C 95% 5.8 mph SE9.3 kmh SE 6.9 mph11.1 kmh 27.93 in945.8 mb - 0.00 in0.0 mm 0.00 in0.0 mm
04:04 AM 58.5°F14.7°C 56.8°F13.8°C 94% 5.8 mph SSE9.3 kmh SSE 11.5 mph18.5 kmh 27.93 in945.8 mb - 0.00 in0.0 mm 0.00 in0.0 mm
04:05 AM 58.5°F14.7°C 56.8°F13.8°C 94% 4.6 mph SE7.4 kmh SE 4.6 mph7.4 kmh 27.93 in945.8 mb - 0.00 in0.0 mm 0.00 in0.0 mm
04:06 AM 58.5°F14.7°C 56.8°F13.8°C 94% 3.5 mph SE5.6 kmh SE 4.6 mph7.4 kmh 27.93 in945.8 mb - 0.00 in0.0 mm 0.00 in0.0 mm
04:07 AM 58.5°F14.7°C 56.8°F13.8°C 94% 4.6 mph S7.4 kmh S 8.1 mph13.0 kmh 27.93 in945.8 mb - 0.00 in0.0 mm 0.00 in0.0 mm
04:08 AM 58.6°F14.8°C 56.9°F13.8°C 94% 6.9 mph SE11.1 kmh SE 8.1 mph13.0 kmh 27.93 in945.8 mb - 0.00 in0.0 mm 0.00 in0.0 mm
04:09 AM 58.6°F14.8°C 56.9°F13.8°C 94% 5.8 mph ESE9.3 kmh ESE 8.1 mph13.0 kmh 27.93 in945.8 mb - 0.00 in0.0 mm 0.00 in0.0 mm
04:10 AM 58.6°F14.8°C 56.9°F13.8°C 94% 5.8 mph ESE9.3 kmh ESE 5.8 mph9.3 kmh 27.93 in945.8 mb - 0.00 in0.0 mm 0.00 in0.0 mm
04:11 AM 58.6°F14.8°C 56.9°F13.8°C 94% 4.6 mph SSE7.4 kmh SSE 5.8 mph9.3 kmh 27.93 in945.8 mb - 0.00 in0.0 mm 0.00 in0.0 mm
04:12 AM 58.6°F14.8°C 56.9°F13.8°C 94% 4.6 mph SE7.4 kmh SE 5.8 mph9.3 kmh 27.93 in945.8 mb - 0.00 in0.0 mm 0.00 in0.0 mm
04:13 AM 58.6°F14.8°C 56.9°F13.8°C 94% 6.9 mph SE11.1 kmh SE 8.1 mph13.0 kmh 27.93 in945.8 mb - 0.00 in0.0 mm 0.00 in0.0 mm
04:14 AM 58.6°F14.8°C 56.9°F13.8°C 94% 6.9 mph SE11.1 kmh SE 6.9 mph11.1 kmh 27.93 in945.8 mb - 0.00 in0.0 mm 0.00 in0.0 mm
04:15 AM 58.6°F14.8°C 56.9°F13.8°C 94% 5.8 mph SE9.3 kmh SE 5.8 mph9.3 kmh 27.93 in945.8 mb - 0.00 in0.0 mm 0.00 in0.0 mm
04:16 AM 58.6°F14.8°C 56.9°F13.8°C 94% 4.6 mph SSE7.4 kmh SSE 5.8 mph9.3 kmh 27.93 in945.8 mb - 0.00 in0.0 mm 0.00 in0.0 mm
04:17 AM 58.6°F14.8°C 56.9°F13.8°C 94% 5.8 mph S9.3 kmh S 10.4 mph16.7 kmh 27.93 in945.8 mb - 0.00 in0.0 mm 0.00 in0.0 mm
04:18 AM 58.6°F14.8°C 56.9°F13.8°C 94% 6.9 mph SE11.1 kmh SE 5.8 mph9.3 kmh 27.93 in945.8 mb - 0.00 in0.0 mm 0.00 in0.0 mm
04:19 AM 58.6°F14.8°C 56.9°F13.8°C 94% 5.8 mph SE9.3 kmh SE 10.4 mph16.7 kmh 27.93 in945.8 mb - 0.00 in0.0 mm 0.00 in0.0 mm
04:20 AM 58.6°F14.8°C 56.9°F13.8°C 94% 6.9 mph S11.1 kmh S 10.4 mph16.7 kmh 27.93 in945.8 mb - 0.00 in0.0 mm 0.00 in0.0 mm
04:21 AM 58.6°F14.8°C 56.9°F13.8°C 94% 5.8 mph SE9.3 kmh SE 4.6 mph7.4 kmh 27.93 in945.8 mb - 0.00 in0.0 mm 0.00 in0.0 mm
04:22 AM 58.6°F14.8°C 56.9°F13.8°C 94% 4.6 mph S7.4 kmh S 8.1 mph13.0 kmh 27.93 in945.8 mb - 0.00 in0.0 mm 0.00 in0.0 mm
04:23 AM 58.6°F14.8°C 56.9°F13.8°C 94% 6.9 mph SSE11.1 kmh SSE 12.7 mph20.4 kmh 27.93 in945.8 mb - 0.00 in0.0 mm 0.00 in0.0 mm
04:24 AM 58.8°F14.9°C 56.8°F13.8°C 93% 6.9 mph SE11.1 kmh SE 12.7 mph20.4 kmh 27.93 in945.8 mb - 0.00 in0.0 mm 0.00 in0.0 mm
04:25 AM 58.9°F14.9°C 56.8°F13.8°C 93% 6.9 mph S11.1 kmh S 10.4 mph16.7 kmh 27.93 in945.8 mb - 0.00 in0.0 mm 0.00 in0.0 mm
04:26 AM 59.0°F15.0°C 57.0°F13.9°C 93% 8.1 mph SSE13.0 kmh SSE 9.2 mph14.8 kmh 27.93 in945.8 mb - 0.00 in0.0 mm 0.00 in0.0 mm
04:27 AM 59.0°F15.0°C 57.0°F13.9°C 93% 5.8 mph S9.3 kmh S 6.9 mph11.1 kmh 27.93 in945.8 mb - 0.00 in0.0 mm 0.00 in0.0 mm
04:28 AM 59.1°F15.1°C 57.1°F13.9°C 93% 5.8 mph ESE9.3 kmh ESE 8.1 mph13.0 kmh 27.93 in945.8 mb - 0.00 in0.0 mm 0.00 in0.0 mm
04:29 AM 59.2°F15.1°C 57.2°F14.0°C 93% 6.9 mph SE11.1 kmh SE 6.9 mph11.1 kmh 27.93 in945.8 mb - 0.00 in0.0 mm 0.00 in0.0 mm
04:30 AM 59.2°F15.1°C 57.2°F14.0°C 93% 4.6 mph SE7.4 kmh SE 6.9 mph11.1 kmh 27.93 in945.8 mb - 0.00 in0.0 mm 0.00 in0.0 mm
04:31 AM 59.2°F15.1°C 57.2°F14.0°C 93% 4.6 mph ESE7.4 kmh ESE 8.1 mph13.0 kmh 27.93 in945.8 mb - 0.00 in0.0 mm 0.00 in0.0 mm
04:32 AM 59.2°F15.1°C 57.2°F14.0°C 93% 6.9 mph S11.1 kmh S 8.1 mph13.0 kmh 27.93 in945.8 mb - 0.00 in0.0 mm 0.00 in0.0 mm
04:33 AM 59.2°F15.1°C 57.2°F14.0°C 93% 5.8 mph SSE9.3 kmh SSE 8.1 mph13.0 kmh 27.93 in945.8 mb - 0.00 in0.0 mm 0.00 in0.0 mm
04:34 AM 59.2°F15.1°C 56.9°F13.8°C 92% 5.8 mph SSE9.3 kmh SSE 6.9 mph11.1 kmh 27.93 in945.8 mb - 0.00 in0.0 mm 0.00 in0.0 mm
04:35 AM 59.2°F15.1°C 56.9°F13.8°C 92% 4.6 mph SE7.4 kmh SE 6.9 mph11.1 kmh 27.93 in945.8 mb - 0.00 in0.0 mm 0.00 in0.0 mm
04:36 AM 59.2°F15.1°C 56.9°F13.8°C 92% 4.6 mph SE7.4 kmh SE 6.9 mph11.1 kmh 27.93 in945.8 mb - 0.00 in0.0 mm 0.00 in0.0 mm
04:37 AM 59.2°F15.1°C 56.9°F13.8°C 92% 5.8 mph SE9.3 kmh SE 10.4 mph16.7 kmh 27.93 in945.8 mb - 0.00 in0.0 mm 0.00 in0.0 mm
04:38 AM 59.3°F15.2°C 57.0°F13.9°C 92% 9.2 mph ESE14.8 kmh ESE 10.4 mph16.7 kmh 27.93 in945.8 mb - 0.00 in0.0 mm 0.00 in0.0 mm
04:39 AM 59.4°F15.2°C 57.1°F13.9°C 92% 5.8 mph SE9.3 kmh SE 6.9 mph11.1 kmh 27.93 in945.8 mb - 0.00 in0.0 mm 0.00 in0.0 mm
04:40 AM 59.4°F15.2°C 57.1°F13.9°C 92% 5.8 mph SSE9.3 kmh SSE 6.9 mph11.1 kmh 27.93 in945.8 mb - 0.00 in0.0 mm 0.00 in0.0 mm
04:41 AM 59.4°F15.2°C 57.1°F13.9°C 92% 6.9 mph SSE11.1 kmh SSE 9.2 mph14.8 kmh 27.93 in945.8 mb - 0.00 in0.0 mm 0.00 in0.0 mm
04:42 AM 59.5°F15.3°C 57.2°F14.0°C 92% 5.8 mph SSE9.3 kmh SSE 9.2 mph14.8 kmh 27.93 in945.8 mb - 0.00 in0.0 mm 0.00 in0.0 mm
04:43 AM 59.5°F15.3°C 57.2°F14.0°C 92% 4.6 mph SSE7.4 kmh SSE 5.8 mph9.3 kmh 27.93 in945.8 mb - 0.00 in0.0 mm 0.00 in0.0 mm
04:44 AM 59.5°F15.3°C 57.2°F14.0°C 92% 5.8 mph SE9.3 kmh SE 5.8 mph9.3 kmh 27.93 in945.8 mb - 0.00 in0.0 mm 0.00 in0.0 mm
04:45 AM 59.5°F15.3°C 57.2°F14.0°C 92% 4.6 mph SE7.4 kmh SE 6.9 mph11.1 kmh 27.93 in945.8 mb - 0.00 in0.0 mm 0.00 in0.0 mm
04:46 AM 59.5°F15.3°C 57.2°F14.0°C 92% 5.8 mph S9.3 kmh S 6.9 mph11.1 kmh 27.93 in945.8 mb - 0.00 in0.0 mm 0.00 in0.0 mm
04:47 AM 59.5°F15.3°C 57.2°F14.0°C 92% 5.8 mph SSE9.3 kmh SSE 9.2 mph14.8 kmh 27.93 in945.8 mb - 0.00 in0.0 mm 0.00 in0.0 mm
04:48 AM 59.5°F15.3°C 57.2°F14.0°C 92% 5.8 mph SE9.3 kmh SE 6.9 mph11.1 kmh 27.93 in945.8 mb - 0.00 in0.0 mm 0.00 in0.0 mm
04:49 AM 59.5°F15.3°C 57.2°F14.0°C 92% 5.8 mph SE9.3 kmh SE 10.4 mph16.7 kmh 27.93 in945.8 mb - 0.00 in0.0 mm 0.00 in0.0 mm
04:50 AM 59.5°F15.3°C 57.2°F14.0°C 92% 9.2 mph SE14.8 kmh SE 10.4 mph16.7 kmh 27.93 in945.8 mb - 0.00 in0.0 mm 0.00 in0.0 mm
04:51 AM 59.5°F15.3°C 57.2°F14.0°C 92% 6.9 mph SSE11.1 kmh SSE 6.9 mph11.1 kmh 27.93 in945.8 mb - 0.00 in0.0 mm 0.00 in0.0 mm
04:52 AM 59.5°F15.3°C 57.2°F14.0°C 92% 4.6 mph SSE7.4 kmh SSE 5.8 mph9.3 kmh 27.93 in945.8 mb - 0.00 in0.0 mm 0.00 in0.0 mm
04:53 AM 59.4°F15.2°C 57.1°F13.9°C 92% 4.6 mph SE7.4 kmh SE 5.8 mph9.3 kmh 27.93 in945.8 mb - 0.00 in0.0 mm 0.00 in0.0 mm
04:54 AM 59.3°F15.2°C 57.0°F13.9°C 92% 4.6 mph S7.4 kmh S 6.9 mph11.1 kmh 27.93 in945.8 mb - 0.00 in0.0 mm 0.00 in0.0 mm
04:55 AM 59.2°F15.1°C 56.9°F13.8°C 92% 5.8 mph SSE9.3 kmh SSE 6.9 mph11.1 kmh 27.93 in945.8 mb - 0.00 in0.0 mm 0.00 in0.0 mm
04:56 AM 59.2°F15.1°C 57.2°F14.0°C 93% 3.5 mph SSE5.6 kmh SSE 4.6 mph7.4 kmh 27.93 in945.8 mb - 0.00 in0.0 mm 0.00 in0.0 mm
04:57 AM 59.2°F15.1°C 57.2°F14.0°C 93% 4.6 mph SE7.4 kmh SE 8.1 mph13.0 kmh 27.93 in945.8 mb - 0.00 in0.0 mm 0.00 in0.0 mm
04:58 AM 59.0°F15.0°C 57.0°F13.9°C 93% 6.9 mph SE11.1 kmh SE 6.9 mph11.1 kmh 27.93 in945.8 mb - 0.00 in0.0 mm 0.00 in0.0 mm
04:59 AM 59.0°F15.0°C 57.0°F13.9°C 93% 6.9 mph S11.1 kmh S 9.2 mph14.8 kmh 27.93 in945.8 mb - 0.00 in0.0 mm 0.00 in0.0 mm
05:00 AM 59.0°F15.0°C 57.0°F13.9°C 93% 6.9 mph SSE11.1 kmh SSE 10.4 mph16.7 kmh 27.93 in945.8 mb - 0.00 in0.0 mm 0.00 in0.0 mm
05:01 AM 59.2°F15.1°C 57.1°F13.9°C 93% 8.1 mph SSE13.0 kmh SSE 10.4 mph16.7 kmh 27.93 in945.8 mb - 0.00 in0.0 mm 0.00 in0.0 mm
05:02 AM 59.2°F15.1°C 57.2°F14.0°C 93% 6.9 mph S11.1 kmh S 9.2 mph14.8 kmh 27.93 in945.8 mb - 0.00 in0.0 mm 0.00 in0.0 mm
05:03 AM 59.2°F15.1°C 57.2°F14.0°C 93% 5.8 mph SSE9.3 kmh SSE 6.9 mph11.1 kmh 27.93 in945.8 mb - 0.00 in0.0 mm 0.00 in0.0 mm
05:04 AM 59.2°F15.1°C 57.2°F14.0°C 93% 4.6 mph ESE7.4 kmh ESE 5.8 mph9.3 kmh 27.93 in945.8 mb - 0.00 in0.0 mm 0.00 in0.0 mm
05:05 AM 59.2°F15.1°C 57.2°F14.0°C 93% 4.6 mph SE7.4 kmh SE 9.2 mph14.8 kmh 27.93 in945.8 mb - 0.00 in0.0 mm 0.00 in0.0 mm
05:06 AM 59.2°F15.1°C 57.2°F14.0°C 93% 6.9 mph S11.1 kmh S 9.2 mph14.8 kmh 27.93 in945.8 mb - 0.00 in0.0 mm 0.00 in0.0 mm
05:07 AM 59.2°F15.1°C 57.2°F14.0°C 93% 5.8 mph SE9.3 kmh SE 6.9 mph11.1 kmh 27.93 in945.8 mb - 0.01 in0.3 mm 0.01 in0.3 mm
05:08 AM 59.2°F15.1°C 57.2°F14.0°C 93% 5.8 mph SSE9.3 kmh SSE 10.4 mph16.7 kmh 27.93 in945.8 mb - 0.01 in0.3 mm 0.01 in0.3 mm
05:09 AM 59.2°F15.1°C 57.2°F14.0°C 93% 5.8 mph SSE9.3 kmh SSE 4.6 mph7.4 kmh 27.93 in945.8 mb - 0.00 in0.0 mm 0.01 in0.3 mm
05:10 AM 59.2°F15.1°C 57.2°F14.0°C 93% 5.8 mph SSE9.3 kmh SSE 10.4 mph16.7 kmh 27.93 in945.8 mb - 0.00 in0.0 mm 0.01 in0.3 mm
05:11 AM 59.0°F15.0°C 57.0°F13.9°C 93% 4.6 mph S7.4 kmh S 5.8 mph9.3 kmh 27.93 in945.8 mb - 0.00 in0.0 mm 0.01 in0.3 mm
05:12 AM 59.0°F15.0°C 57.0°F13.9°C 93% 5.8 mph SE9.3 kmh SE 8.1 mph13.0 kmh 27.93 in945.8 mb - 0.00 in0.0 mm 0.01 in0.3 mm
05:13 AM 59.0°F15.0°C 57.0°F13.9°C 93% 6.9 mph SE11.1 kmh SE 9.2 mph14.8 kmh 27.93 in945.8 mb - 0.00 in0.0 mm 0.01 in0.3 mm
05:14 AM 59.0°F15.0°C 56.9°F13.8°C 93% 5.8 mph E9.3 kmh E 5.8 mph9.3 kmh 27.93 in945.8 mb - 0.00 in0.0 mm 0.01 in0.3 mm
05:15 AM 58.8°F14.9°C 56.8°F13.8°C 93% 5.8 mph SE9.3 kmh SE 8.1 mph13.0 kmh 27.93 in945.8 mb - 0.00 in0.0 mm 0.01 in0.3 mm
05:16 AM 58.8°F14.9°C 57.1°F13.9°C 94% 5.8 mph SE9.3 kmh SE 8.1 mph13.0 kmh 27.93 in945.8 mb - 0.00 in0.0 mm 0.01 in0.3 mm
05:17 AM 58.6°F14.8°C 56.9°F13.8°C 94% 5.8 mph SE9.3 kmh SE 9.2 mph14.8 kmh 27.93 in945.8 mb - 0.00 in0.0 mm 0.01 in0.3 mm
05:18 AM 58.6°F14.8°C 56.9°F13.8°C 94% 5.8 mph SSE9.3 kmh SSE 5.8 mph9.3 kmh 27.93 in945.8 mb - 0.00 in0.0 mm 0.01 in0.3 mm
05:19 AM 58.6°F14.8°C 56.9°F13.8°C 94% 5.8 mph SSE9.3 kmh SSE 8.1 mph13.0 kmh 27.93 in945.8 mb - 0.00 in0.0 mm 0.01 in0.3 mm
05:20 AM 58.6°F14.8°C 56.9°F13.8°C 94% 4.6 mph SE7.4 kmh SE 4.6 mph7.4 kmh 27.93 in945.8 mb - 0.01 in0.3 mm 0.02 in0.5 mm
05:21 AM 58.6°F14.8°C 56.9°F13.8°C 94% 4.6 mph SSE7.4 kmh SSE 8.1 mph13.0 kmh 27.93 in945.8 mb - 0.01 in0.3 mm 0.02 in0.5 mm
05:22 AM 58.5°F14.7°C 56.8°F13.8°C 94% 6.9 mph SSE11.1 kmh SSE 9.2 mph14.8 kmh 27.93 in945.8 mb - 0.00 in0.0 mm 0.02 in0.5 mm
05:23 AM 58.5°F14.7°C 56.8°F13.8°C 94% 6.9 mph E11.1 kmh E 8.1 mph13.0 kmh 27.93 in945.8 mb - 0.00 in0.0 mm 0.02 in0.5 mm
05:24 AM 58.5°F14.7°C 57.1°F13.9°C 95% 6.9 mph SE11.1 kmh SE 8.1 mph13.0 kmh 27.93 in945.8 mb - 0.00 in0.0 mm 0.02 in0.5 mm
05:25 AM 58.5°F14.7°C 57.1°F13.9°C 95% 5.8 mph SSE9.3 kmh SSE 9.2 mph14.8 kmh 27.93 in945.8 mb - 0.00 in0.0 mm 0.02 in0.5 mm
05:26 AM 58.4°F14.7°C 56.9°F13.8°C 95% 6.9 mph SSE11.1 kmh SSE 9.2 mph14.8 kmh 27.92 in945.5 mb - 0.00 in0.0 mm 0.02 in0.5 mm
05:27 AM 58.3°F14.6°C 56.9°F13.8°C 95% 5.8 mph SSE9.3 kmh SSE 8.1 mph13.0 kmh 27.92 in945.5 mb - 0.00 in0.0 mm 0.02 in0.5 mm
05:28 AM 58.3°F14.6°C 56.9°F13.8°C 95% 6.9 mph S11.1 kmh S 8.1 mph13.0 kmh 27.92 in945.5 mb - 0.00 in0.0 mm 0.02 in0.5 mm
05:29 AM 58.3°F14.6°C 56.9°F13.8°C 95% 5.8 mph S9.3 kmh S 6.9 mph11.1 kmh 27.92 in945.5 mb - 0.00 in0.0 mm 0.02 in0.5 mm
05:30 AM 58.3°F14.6°C 56.9°F13.8°C 95% 5.8 mph SSE9.3 kmh SSE 10.4 mph16.7 kmh 27.92 in945.5 mb - 0.00 in0.0 mm 0.02 in0.5 mm
05:31 AM 58.3°F14.6°C 56.9°F13.8°C 95% 5.8 mph SSE9.3 kmh SSE 5.8 mph9.3 kmh 27.92 in945.5 mb - 0.00 in0.0 mm 0.02 in0.5 mm
05:32 AM 58.3°F14.6°C 56.9°F13.8°C 95% 3.5 mph SE5.6 kmh SE 5.8 mph9.3 kmh 27.92 in945.5 mb - 0.00 in0.0 mm 0.02 in0.5 mm
05:33 AM 58.3°F14.6°C 56.9°F13.8°C 95% 5.8 mph S9.3 kmh S 8.1 mph13.0 kmh 27.92 in945.5 mb - 0.00 in0.0 mm 0.02 in0.5 mm
05:34 AM 58.3°F14.6°C 56.9°F13.8°C 95% 4.6 mph SE7.4 kmh SE 10.4 mph16.7 kmh 27.92 in945.5 mb - 0.00 in0.0 mm 0.02 in0.5 mm
05:35 AM 58.3°F14.6°C 56.9°F13.8°C 95% 5.8 mph SE9.3 kmh SE 6.9 mph11.1 kmh 27.92 in945.5 mb - 0.00 in0.0 mm 0.02 in0.5 mm
05:36 AM 58.3°F14.6°C 56.9°F13.8°C 95% 4.6 mph SE7.4 kmh SE 6.9 mph11.1 kmh 27.92 in945.5 mb - 0.00 in0.0 mm 0.02 in0.5 mm
05:37 AM 58.3°F14.6°C 56.9°F13.8°C 95% 4.6 mph SSE7.4 kmh SSE 4.6 mph7.4 kmh 27.92 in945.5 mb - 0.00 in0.0 mm 0.02 in0.5 mm
05:38 AM 58.3°F14.6°C 56.9°F13.8°C 95% 4.6 mph SE7.4 kmh SE 6.9 mph11.1 kmh 27.92 in945.5 mb - 0.00 in0.0 mm 0.02 in0.5 mm
05:39 AM 58.2°F14.6°C 56.8°F13.8°C 95% 5.8 mph SE9.3 kmh SE 6.9 mph11.1 kmh 27.92 in945.5 mb - 0.00 in0.0 mm 0.02 in0.5 mm
05:40 AM 58.1°F14.5°C 56.7°F13.7°C 95% 4.6 mph S7.4 kmh S 5.8 mph9.3 kmh 27.92 in945.5 mb - 0.00 in0.0 mm 0.02 in0.5 mm
05:41 AM 58.1°F14.5°C 56.7°F13.7°C 95% 5.8 mph S9.3 kmh S 9.2 mph14.8 kmh 27.92 in945.5 mb - 0.00 in0.0 mm 0.02 in0.5 mm
05:42 AM 58.1°F14.5°C 56.7°F13.7°C 95% 6.9 mph SSE11.1 kmh SSE 9.2 mph14.8 kmh 27.92 in945.5 mb - 0.00 in0.0 mm 0.02 in0.5 mm
05:43 AM 58.1°F14.5°C 56.7°F13.7°C 95% 4.6 mph S7.4 kmh S 5.8 mph9.3 kmh 27.92 in945.5 mb - 0.00 in0.0 mm 0.02 in0.5 mm
05:44 AM 58.1°F14.5°C 56.7°F13.7°C 95% 4.6 mph S7.4 kmh S 8.1 mph13.0 kmh 27.92 in945.5 mb - 0.00 in0.0 mm 0.02 in0.5 mm
05:45 AM 58.1°F14.5°C 56.7°F13.7°C 95% 6.9 mph SE11.1 kmh SE 6.9 mph11.1 kmh 27.92 in945.5 mb - 0.00 in0.0 mm 0.02 in0.5 mm
05:46 AM 58.1°F14.5°C 56.7°F13.7°C 95% 4.6 mph SE7.4 kmh SE 8.1 mph13.0 kmh 27.92 in945.5 mb - 0.00 in0.0 mm 0.02 in0.5 mm
05:47 AM 58.1°F14.5°C 56.7°F13.7°C 95% 5.8 mph ESE9.3 kmh ESE 5.8 mph9.3 kmh 27.92 in945.5 mb - 0.01 in0.3 mm 0.03 in0.8 mm
05:48 AM 58.1°F14.5°C 56.7°F13.7°C 95% 5.8 mph SE9.3 kmh SE 6.9 mph11.1 kmh 27.92 in945.5 mb - 0.01 in0.3 mm 0.03 in0.8 mm
05:49 AM 58.1°F14.5°C 56.7°F13.7°C 95% 4.6 mph SE7.4 kmh SE 5.8 mph9.3 kmh 27.92 in945.5 mb - 0.00 in0.0 mm 0.03 in0.8 mm
05:50 AM 58.0°F14.4°C 56.6°F13.7°C 95% 4.6 mph SE7.4 kmh SE 5.8 mph9.3 kmh 27.92 in945.5 mb - 0.00 in0.0 mm 0.03 in0.8 mm
05:51 AM 57.9°F14.4°C 56.5°F13.6°C 95% 5.8 mph SE9.3 kmh SE 9.2 mph14.8 kmh 27.92 in945.5 mb - 0.00 in0.0 mm 0.03 in0.8 mm
05:52 AM 57.9°F14.4°C 56.5°F13.6°C 95% 6.9 mph WSW11.1 kmh WSW 8.1 mph13.0 kmh 27.92 in945.5 mb - 0.00 in0.0 mm 0.03 in0.8 mm
05:53 AM 57.9°F14.4°C 56.5°F13.6°C 95% 5.8 mph SE9.3 kmh SE 5.8 mph9.3 kmh 27.92 in945.5 mb - 0.01 in0.3 mm 0.04 in1.0 mm
05:54 AM 57.9°F14.4°C 56.5°F13.6°C 95% 5.8 mph SSW9.3 kmh SSW 6.9 mph11.1 kmh 27.92 in945.5 mb - 0.01 in0.3 mm 0.04 in1.0 mm
05:55 AM 57.9°F14.4°C 56.5°F13.6°C 95% 5.8 mph S9.3 kmh S 6.9 mph11.1 kmh 27.92 in945.5 mb - 0.00 in0.0 mm 0.04 in1.0 mm
05:56 AM 57.9°F14.4°C 56.8°F13.8°C 96% 6.9 mph SE11.1 kmh SE 9.2 mph14.8 kmh 27.92 in945.5 mb - 0.00 in0.0 mm 0.04 in1.0 mm
05:57 AM 57.9°F14.4°C 56.8°F13.8°C 96% 6.9 mph SSE11.1 kmh SSE 9.2 mph14.8 kmh 27.92 in945.5 mb - 0.00 in0.0 mm 0.04 in1.0 mm
05:58 AM 57.8°F14.3°C 56.7°F13.7°C 96% 6.9 mph SE11.1 kmh SE 8.1 mph13.0 kmh 27.92 in945.5 mb - 0.01 in0.3 mm 0.05 in1.3 mm
05:59 AM 57.7°F14.3°C 56.6°F13.7°C 96% 5.8 mph S9.3 kmh S 8.1 mph13.0 kmh 27.92 in945.5 mb - 0.01 in0.3 mm 0.05 in1.3 mm
06:00 AM 57.7°F14.3°C 56.6°F13.7°C 96% 5.8 mph SE9.3 kmh SE 8.1 mph13.0 kmh 27.92 in945.5 mb - 0.01 in0.3 mm 0.06 in1.5 mm
06:01 AM 57.7°F14.3°C 56.6°F13.7°C 96% 6.9 mph NE11.1 kmh NE 9.2 mph14.8 kmh 27.92 in945.5 mb - 0.01 in0.3 mm 0.06 in1.5 mm
06:02 AM 57.7°F14.3°C 56.6°F13.7°C 96% 5.8 mph SSE9.3 kmh SSE 5.8 mph9.3 kmh 27.92 in945.5 mb - 0.00 in0.0 mm 0.06 in1.5 mm
06:03 AM 57.7°F14.3°C 56.6°F13.7°C 96% 4.6 mph S7.4 kmh S 9.2 mph14.8 kmh 27.92 in945.5 mb - 0.00 in0.0 mm 0.06 in1.5 mm
06:04 AM 57.7°F14.3°C 56.6°F13.7°C 96% 5.8 mph SSE9.3 kmh SSE 9.2 mph14.8 kmh 27.92 in945.5 mb - 0.00 in0.0 mm 0.06 in1.5 mm
06:05 AM 57.7°F14.3°C 56.6°F13.7°C 96% 4.6 mph ESE7.4 kmh ESE 8.1 mph13.0 kmh 27.92 in945.5 mb - 0.00 in0.0 mm 0.06 in1.5 mm
06:06 AM 57.7°F14.3°C 56.6°F13.7°C 96% 4.6 mph SSE7.4 kmh SSE 8.1 mph13.0 kmh 27.92 in945.5 mb - 0.01 in0.3 mm 0.07 in1.8 mm
06:07 AM 57.7°F14.3°C 56.6°F13.7°C 96% 3.5 mph SE5.6 kmh SE 4.6 mph7.4 kmh 27.92 in945.5 mb - 0.01 in0.3 mm 0.07 in1.8 mm
06:08 AM 57.7°F14.3°C 56.6°F13.7°C 96% 3.5 mph SE5.6 kmh SE 9.2 mph14.8 kmh 27.92 in945.5 mb - 0.00 in0.0 mm 0.07 in1.8 mm
06:09 AM 57.7°F14.3°C 56.6°F13.7°C 96% 5.8 mph SSE9.3 kmh SSE 9.2 mph14.8 kmh 27.92 in945.5 mb - 0.00 in0.0 mm 0.07 in1.8 mm
06:10 AM 57.7°F14.3°C 56.6°F13.7°C 96% 3.5 mph SSE5.6 kmh SSE 4.6 mph7.4 kmh 27.92 in945.5 mb - 0.00 in0.0 mm 0.07 in1.8 mm
06:11 AM 57.7°F14.3°C 56.6°F13.7°C 96% 3.5 mph SE5.6 kmh SE 5.8 mph9.3 kmh 27.92 in945.5 mb - 0.00 in0.0 mm 0.07 in1.8 mm
06:12 AM 57.7°F14.3°C 56.5°F13.6°C 96% 4.6 mph NE7.4 kmh NE 5.8 mph9.3 kmh 27.92 in945.5 mb - 0.01 in0.3 mm 0.08 in2.0 mm
06:13 AM 57.6°F14.2°C 56.5°F13.6°C 96% 3.5 mph SE5.6 kmh SE 3.5 mph5.6 kmh 27.91 in945.1 mb - 0.01 in0.3 mm 0.08 in2.0 mm
06:14 AM 57.6°F14.2°C 56.5°F13.6°C 96% 3.5 mph SE5.6 kmh SE 3.5 mph5.6 kmh 27.91 in945.1 mb - 0.00 in0.0 mm 0.08 in2.0 mm
06:15 AM 57.6°F14.2°C 56.5°F13.6°C 96% 3.5 mph SSW5.6 kmh SSW 4.6 mph7.4 kmh 27.91 in945.1 mb - 0.00 in0.0 mm 0.08 in2.0 mm
06:16 AM 57.6°F14.2°C 56.5°F13.6°C 96% 4.6 mph S7.4 kmh S 5.8 mph9.3 kmh 27.91 in945.1 mb - 0.00 in0.0 mm 0.08 in2.0 mm
06:17 AM 57.6°F14.2°C 56.5°F13.6°C 96% 4.6 mph SSE7.4 kmh SSE 5.8 mph9.3 kmh 27.91 in945.1 mb - 0.00 in0.0 mm 0.08 in2.0 mm
06:18 AM 57.6°F14.2°C 56.5°F13.6°C 96% 4.6 mph SSE7.4 kmh SSE 5.8 mph9.3 kmh 27.91 in945.1 mb - 0.01 in0.3 mm 0.09 in2.3 mm
06:19 AM 57.6°F14.2°C 56.5°F13.6°C 96% 2.3 mph S3.7 kmh S 5.8 mph9.3 kmh 27.91 in945.1 mb - 0.01 in0.3 mm 0.09 in2.3 mm
06:20 AM 57.6°F14.2°C 56.8°F13.8°C 97% 3.5 mph S5.6 kmh S 5.8 mph9.3 kmh 27.91 in945.1 mb - 0.00 in0.0 mm 0.09 in2.3 mm
06:21 AM 57.6°F14.2°C 56.8°F13.8°C 97% 4.6 mph SE7.4 kmh SE 5.8 mph9.3 kmh 27.91 in945.1 mb - 0.00 in0.0 mm 0.09 in2.3 mm
06:22 AM 57.6°F14.2°C 56.8°F13.8°C 97% 4.6 mph S7.4 kmh S 5.8 mph9.3 kmh 27.91 in945.1 mb - 0.00 in0.0 mm 0.09 in2.3 mm
06:23 AM 57.6°F14.2°C 56.8°F13.8°C 97% 3.5 mph SE5.6 kmh SE 5.8 mph9.3 kmh 27.91 in945.1 mb - 0.00 in0.0 mm 0.09 in2.3 mm
06:24 AM 57.6°F14.2°C 56.8°F13.8°C 97% 5.8 mph SE9.3 kmh SE 6.9 mph11.1 kmh 27.91 in945.1 mb - 0.00 in0.0 mm 0.09 in2.3 mm
06:25 AM 57.5°F14.2°C 56.7°F13.7°C 97% 4.6 mph SE7.4 kmh SE 5.8 mph9.3 kmh 27.92 in945.5 mb - 0.00 in0.0 mm 0.09 in2.3 mm
06:26 AM 57.4°F14.1°C 56.6°F13.7°C 97% 5.8 mph E9.3 kmh E 5.8 mph9.3 kmh 27.92 in945.5 mb - 0.00 in0.0 mm 0.09 in2.3 mm
06:27 AM 57.4°F14.1°C 56.6°F13.7°C 97% 4.6 mph S7.4 kmh S 5.8 mph9.3 kmh 27.92 in945.5 mb - 0.00 in0.0 mm 0.09 in2.3 mm
06:28 AM 57.4°F14.1°C 56.6°F13.7°C 97% 4.6 mph SE7.4 kmh SE 9.2 mph14.8 kmh 27.92 in945.5 mb - 0.01 in0.3 mm 0.10 in2.5 mm
06:29 AM 57.4°F14.1°C 56.6°F13.7°C 97% 6.9 mph SE11.1 kmh SE 9.2 mph14.8 kmh 27.92 in945.5 mb - 0.01 in0.3 mm 0.10 in2.5 mm
06:30 AM 57.4°F14.1°C 56.6°F13.7°C 97% 5.8 mph SE9.3 kmh SE 5.8 mph9.3 kmh 27.92 in945.5 mb - 0.00 in0.0 mm 0.10 in2.5 mm
06:31 AM 57.4°F14.1°C 56.6°F13.7°C 97% 3.5 mph S5.6 kmh S 5.8 mph9.3 kmh 27.92 in945.5 mb - 0.00 in0.0 mm 0.10 in2.5 mm
06:32 AM 57.4°F14.1°C 56.6°F13.7°C 97% 4.6 mph S7.4 kmh S 5.8 mph9.3 kmh 27.92 in945.5 mb - 0.00 in0.0 mm 0.10 in2.5 mm
06:33 AM 57.4°F14.1°C 56.6°F13.7°C 97% 4.6 mph SE7.4 kmh SE 8.1 mph13.0 kmh 27.92 in945.5 mb - 0.00 in0.0 mm 0.10 in2.5 mm
06:34 AM 57.4°F14.1°C 56.6°F13.7°C 97% 5.8 mph SSE9.3 kmh SSE 5.8 mph9.3 kmh 27.92 in945.5 mb - 0.00 in0.0 mm 0.10 in2.5 mm
06:35 AM 57.4°F14.1°C 56.6°F13.7°C 97% 4.6 mph S7.4 kmh S 5.8 mph9.3 kmh 27.92 in945.5 mb - 0.00 in0.0 mm 0.10 in2.5 mm
06:36 AM 57.4°F14.1°C 56.6°F13.7°C 97% 3.5 mph SE5.6 kmh SE 4.6 mph7.4 kmh 27.92 in945.5 mb - 0.00 in0.0 mm 0.10 in2.5 mm
06:37 AM 57.4°F14.1°C 56.6°F13.7°C 97% 3.5 mph S5.6 kmh S 6.9 mph11.1 kmh 27.91 in945.1 mb - 0.00 in0.0 mm 0.10 in2.5 mm
06:38 AM 57.4°F14.1°C 56.6°F13.7°C 97% 5.8 mph SE9.3 kmh SE 6.9 mph11.1 kmh 27.91 in945.1 mb - 0.00 in0.0 mm 0.10 in2.5 mm
06:39 AM 57.4°F14.1°C 56.6°F13.7°C 97% 3.5 mph SE5.6 kmh SE 6.9 mph11.1 kmh 27.91 in945.1 mb - 0.00 in0.0 mm 0.10 in2.5 mm
06:40 AM 57.4°F14.1°C 56.6°F13.7°C 97% 5.8 mph SE9.3 kmh SE 6.9 mph11.1 kmh 27.91 in945.1 mb - 0.00 in0.0 mm 0.10 in2.5 mm
06:41 AM 57.4°F14.1°C 56.6°F13.7°C 97% 4.6 mph SE7.4 kmh SE 4.6 mph7.4 kmh 27.91 in945.1 mb - 0.00 in0.0 mm 0.10 in2.5 mm
06:42 AM 57.2°F14.0°C 56.4°F13.6°C 97% 3.5 mph SE5.6 kmh SE 6.9 mph11.1 kmh 27.91 in945.1 mb - 0.00 in0.0 mm 0.10 in2.5 mm
06:43 AM 57.2°F14.0°C 56.4°F13.6°C 97% 5.8 mph SE9.3 kmh SE 10.4 mph16.7 kmh 27.91 in945.1 mb - 0.00 in0.0 mm 0.10 in2.5 mm
06:44 AM 57.2°F14.0°C 56.4°F13.6°C 97% 6.9 mph SSE11.1 kmh SSE 6.9 mph11.1 kmh 27.91 in945.1 mb - 0.00 in0.0 mm 0.10 in2.5 mm
06:45 AM 57.2°F14.0°C 56.4°F13.6°C 97% 5.8 mph S9.3 kmh S 6.9 mph11.1 kmh 27.91 in945.1 mb - 0.00 in0.0 mm 0.10 in2.5 mm
06:46 AM 57.2°F14.0°C 56.4°F13.6°C 97% 5.8 mph SE9.3 kmh SE 6.9 mph11.1 kmh 27.91 in945.1 mb - 0.00 in0.0 mm 0.10 in2.5 mm
06:47 AM 57.2°F14.0°C 56.4°F13.6°C 97% 5.8 mph SE9.3 kmh SE 6.9 mph11.1 kmh 27.91 in945.1 mb - 0.00 in0.0 mm 0.10 in2.5 mm
06:48 AM 57.2°F14.0°C 56.4°F13.6°C 97% 5.8 mph S9.3 kmh S 5.8 mph9.3 kmh 27.91 in945.1 mb - 0.00 in0.0 mm 0.10 in2.5 mm
06:49 AM 57.2°F14.0°C 56.4°F13.6°C 97% 5.8 mph SSE9.3 kmh SSE 6.9 mph11.1 kmh 27.91 in945.1 mb - 0.00 in0.0 mm 0.10 in2.5 mm
06:50 AM 57.2°F14.0°C 56.4°F13.6°C 97% 5.8 mph SSE9.3 kmh SSE 6.9 mph11.1 kmh 27.91 in945.1 mb - 0.00 in0.0 mm 0.10 in2.5 mm
06:51 AM 57.2°F14.0°C 56.4°F13.6°C 97% 5.8 mph SE9.3 kmh SE 11.5 mph18.5 kmh 27.91 in945.1 mb - 0.00 in0.0 mm 0.10 in2.5 mm
06:52 AM 57.2°F14.0°C 56.4°F13.6°C 97% 9.2 mph SE14.8 kmh SE 10.4 mph16.7 kmh 27.91 in945.1 mb - 0.00 in0.0 mm 0.10 in2.5 mm
06:53 AM 57.2°F14.0°C 56.4°F13.6°C 97% 6.9 mph SSE11.1 kmh SSE 8.1 mph13.0 kmh 27.91 in945.1 mb - 0.00 in0.0 mm 0.10 in2.5 mm
06:54 AM 57.2°F14.0°C 56.4°F13.6°C 97% 5.8 mph SE9.3 kmh SE 5.8 mph9.3 kmh 27.91 in945.1 mb - 0.00 in0.0 mm 0.10 in2.5 mm
06:55 AM 57.2°F14.0°C 56.4°F13.6°C 97% 5.8 mph SSE9.3 kmh SSE 6.9 mph11.1 kmh 27.91 in945.1 mb - 0.00 in0.0 mm 0.10 in2.5 mm
06:56 AM 57.2°F14.0°C 56.4°F13.6°C 97% 4.6 mph S7.4 kmh S 6.9 mph11.1 kmh 27.91 in945.1 mb - 0.00 in0.0 mm 0.10 in2.5 mm
06:57 AM 57.2°F14.0°C 56.4°F13.6°C 97% 5.8 mph S9.3 kmh S 5.8 mph9.3 kmh 27.91 in945.1 mb - 0.00 in0.0 mm 0.10 in2.5 mm
06:58 AM 57.2°F14.0°C 56.4°F13.6°C 97% 5.8 mph SE9.3 kmh SE 10.4 mph16.7 kmh 27.91 in945.1 mb - 0.00 in0.0 mm 0.10 in2.5 mm
06:59 AM 57.2°F14.0°C 56.4°F13.6°C 97% 6.9 mph SSW11.1 kmh SSW 8.1 mph13.0 kmh 27.91 in945.1 mb - 0.00 in0.0 mm 0.10 in2.5 mm
07:00 AM 57.2°F14.0°C 56.4°F13.6°C 97% 6.9 mph SE11.1 kmh SE 8.1 mph13.0 kmh 27.91 in945.1 mb - 0.00 in0.0 mm 0.10 in2.5 mm
07:01 AM 57.2°F14.0°C 56.3°F13.5°C 97% 5.8 mph S9.3 kmh S 5.8 mph9.3 kmh 27.91 in945.1 mb - 0.00 in0.0 mm 0.10 in2.5 mm
07:02 AM 57.0°F13.9°C 56.2°F13.4°C 97% 4.6 mph S7.4 kmh S 5.8 mph9.3 kmh 27.91 in945.1 mb - 0.00 in0.0 mm 0.10 in2.5 mm
07:03 AM 57.0°F13.9°C 56.2°F13.4°C 97% 5.8 mph S9.3 kmh S 6.9 mph11.1 kmh 27.91 in945.1 mb - 0.00 in0.0 mm 0.10 in2.5 mm
07:04 AM 57.0°F13.9°C 56.2°F13.4°C 97% 5.8 mph SE9.3 kmh SE 4.6 mph7.4 kmh 27.91 in945.1 mb - 0.00 in0.0 mm 0.10 in2.5 mm
07:05 AM 57.0°F13.9°C 56.2°F13.4°C 97% 4.6 mph S7.4 kmh S 5.8 mph9.3 kmh 27.91 in945.1 mb - 0.00 in0.0 mm 0.10 in2.5 mm
07:06 AM 57.0°F13.9°C 55.9°F13.3°C 96% 4.6 mph SE7.4 kmh SE 6.9 mph11.1 kmh 27.91 in945.1 mb - 0.00 in0.0 mm 0.10 in2.5 mm
07:07 AM 57.0°F13.9°C 55.9°F13.3°C 96% 5.8 mph SSE9.3 kmh SSE 6.9 mph11.1 kmh 27.91 in945.1 mb - 0.00 in0.0 mm 0.10 in2.5 mm
07:08 AM 57.0°F13.9°C 55.9°F13.3°C 96% 5.8 mph SE9.3 kmh SE 10.4 mph16.7 kmh 27.91 in945.1 mb - 0.00 in0.0 mm 0.10 in2.5 mm
07:09 AM 57.0°F13.9°C 55.9°F13.3°C 96% 6.9 mph SSE11.1 kmh SSE 8.1 mph13.0 kmh 27.91 in945.1 mb - 0.00 in0.0 mm 0.10 in2.5 mm
07:10 AM 57.0°F13.9°C 55.9°F13.3°C 96% 5.8 mph SSE9.3 kmh SSE 8.1 mph13.0 kmh 27.91 in945.1 mb - 0.00 in0.0 mm 0.10 in2.5 mm
07:11 AM 57.0°F13.9°C 55.6°F13.1°C 95% 6.9 mph SSE11.1 kmh SSE 8.1 mph13.0 kmh 27.91 in945.1 mb - 0.00 in0.0 mm 0.10 in2.5 mm
07:12 AM 57.0°F13.9°C 55.6°F13.1°C 95% 4.6 mph SE7.4 kmh SE 6.9 mph11.1 kmh 27.91 in945.1 mb - 0.00 in0.0 mm 0.10 in2.5 mm
07:13 AM 56.8°F13.8°C 55.4°F13.0°C 95% 5.8 mph SE9.3 kmh SE 9.2 mph14.8 kmh 27.91 in945.1 mb - 0.00 in0.0 mm 0.10 in2.5 mm
07:14 AM 56.8°F13.8°C 55.4°F13.0°C 95% 6.9 mph S11.1 kmh S 5.8 mph9.3 kmh 27.91 in945.1 mb - 0.00 in0.0 mm 0.10 in2.5 mm
07:15 AM 56.8°F13.8°C 55.4°F13.0°C 95% 4.6 mph SSE7.4 kmh SSE 4.6 mph7.4 kmh 27.91 in945.1 mb - 0.00 in0.0 mm 0.10 in2.5 mm
07:16 AM 56.7°F13.7°C 55.3°F12.9°C 95% 3.5 mph SSW5.6 kmh SSW 4.6 mph7.4 kmh 27.91 in945.1 mb - 0.00 in0.0 mm 0.10 in2.5 mm
07:17 AM 56.7°F13.7°C 55.3°F12.9°C 95% 3.5 mph S5.6 kmh S 4.6 mph7.4 kmh 27.91 in945.1 mb - 0.00 in0.0 mm 0.10 in2.5 mm
07:18 AM 56.7°F13.7°C 55.3°F12.9°C 95% 3.5 mph SE5.6 kmh SE 4.6 mph7.4 kmh 27.91 in945.1 mb - 0.00 in0.0 mm 0.10 in2.5 mm
07:19 AM 56.6°F13.7°C 55.2°F12.9°C 95% 3.5 mph SE5.6 kmh SE 5.8 mph9.3 kmh 27.91 in945.1 mb - 0.00 in0.0 mm 0.10 in2.5 mm
07:20 AM 56.5°F13.6°C 55.1°F12.8°C 95% 4.6 mph ESE7.4 kmh ESE 5.8 mph9.3 kmh 27.91 in945.1 mb - 0.00 in0.0 mm 0.10 in2.5 mm
07:21 AM 56.5°F13.6°C 55.1°F12.8°C 95% 4.6 mph S7.4 kmh S 5.8 mph9.3 kmh 27.91 in945.1 mb - 0.00 in0.0 mm 0.10 in2.5 mm
07:22 AM 56.5°F13.6°C 55.1°F12.8°C 95% 3.5 mph SE5.6 kmh SE 3.5 mph5.6 kmh 27.91 in945.1 mb - 0.00 in0.0 mm 0.10 in2.5 mm
07:23 AM 56.5°F13.6°C 55.1°F12.8°C 95% 2.3 mph SSE3.7 kmh SSE 4.6 mph7.4 kmh 27.91 in945.1 mb - 0.00 in0.0 mm 0.10 in2.5 mm
07:24 AM 56.5°F13.6°C 55.4°F13.0°C 96% 3.5 mph SE5.6 kmh SE 4.6 mph7.4 kmh 27.91 in945.1 mb - 0.00 in0.0 mm 0.10 in2.5 mm
07:25 AM 56.5°F13.6°C 55.4°F13.0°C 96% 3.5 mph S5.6 kmh S 5.8 mph9.3 kmh 27.91 in945.1 mb - 0.00 in0.0 mm 0.10 in2.5 mm
07:26 AM 56.5°F13.6°C 55.3°F12.9°C 96% 3.5 mph S5.6 kmh S 3.5 mph5.6 kmh 27.89 in944.5 mb - 0.00 in0.0 mm 0.10 in2.5 mm
07:27 AM 56.3°F13.5°C 55.2°F12.9°C 96% 3.5 mph SE5.6 kmh SE 4.6 mph7.4 kmh 27.89 in944.5 mb - 0.00 in0.0 mm 0.10 in2.5 mm
07:28 AM 56.3°F13.5°C 55.2°F12.9°C 96% 2.3 mph SSE3.7 kmh SSE 3.5 mph5.6 kmh 27.89 in944.5 mb - 0.00 in0.0 mm 0.10 in2.5 mm
07:29 AM 56.3°F13.5°C 55.2°F12.9°C 96% 3.5 mph ESE5.6 kmh ESE 3.5 mph5.6 kmh 27.89 in944.5 mb - 0.00 in0.0 mm 0.10 in2.5 mm
07:30 AM 56.3°F13.5°C 55.2°F12.9°C 96% 3.5 mph S5.6 kmh S 3.5 mph5.6 kmh 27.89 in944.5 mb - 0.00 in0.0 mm 0.10 in2.5 mm
07:31 AM 56.3°F13.5°C 55.1°F12.8°C 96% 3.5 mph SE5.6 kmh SE 3.5 mph5.6 kmh 27.89 in944.5 mb - 0.00 in0.0 mm 0.10 in2.5 mm
07:32 AM 56.1°F13.4°C 55.0°F12.8°C 96% 3.5 mph SE5.6 kmh SE 4.6 mph7.4 kmh 27.89 in944.5 mb - 0.00 in0.0 mm 0.10 in2.5 mm
07:33 AM 56.1°F13.4°C 55.0°F12.8°C 96% 3.5 mph SE5.6 kmh SE 4.6 mph7.4 kmh 27.89 in944.5 mb - 0.00 in0.0 mm 0.10 in2.5 mm
07:34 AM 56.1°F13.4°C 55.0°F12.8°C 96% 3.5 mph SE5.6 kmh SE 5.8 mph9.3 kmh 27.89 in944.5 mb - 0.00 in0.0 mm 0.10 in2.5 mm
07:35 AM 56.1°F13.4°C 55.0°F12.8°C 96% 3.5 mph SSE5.6 kmh SSE 4.6 mph7.4 kmh 27.89 in944.5 mb - 0.00 in0.0 mm 0.10 in2.5 mm
07:36 AM 56.1°F13.4°C 55.0°F12.8°C 96% 3.5 mph S5.6 kmh S 4.6 mph7.4 kmh 27.89 in944.5 mb - 0.00 in0.0 mm 0.10 in2.5 mm
07:37 AM 56.1°F13.4°C 55.0°F12.8°C 96% 2.3 mph SE3.7 kmh SE 3.5 mph5.6 kmh 27.89 in944.5 mb - 0.00 in0.0 mm 0.10 in2.5 mm
07:38 AM 56.1°F13.4°C 55.0°F12.8°C 96% 3.5 mph SE5.6 kmh SE 3.5 mph5.6 kmh 27.90 in944.8 mb - 0.00 in0.0 mm 0.10 in2.5 mm
07:39 AM 56.1°F13.4°C 55.0°F12.8°C 96% 3.5 mph SSE5.6 kmh SSE 3.5 mph5.6 kmh 27.90 in944.8 mb - 0.00 in0.0 mm 0.10 in2.5 mm
07:40 AM 56.1°F13.4°C 55.0°F12.8°C 96% 3.5 mph S5.6 kmh S 4.6 mph7.4 kmh 27.90 in944.8 mb - 0.00 in0.0 mm 0.10 in2.5 mm
07:41 AM 56.1°F13.4°C 55.0°F12.8°C 96% 3.5 mph SSE5.6 kmh SSE 3.5 mph5.6 kmh 27.90 in944.8 mb - 0.00 in0.0 mm 0.10 in2.5 mm
07:42 AM 56.1°F13.4°C 55.0°F12.8°C 96% 3.5 mph SSE5.6 kmh SSE 6.9 mph11.1 kmh 27.90 in944.8 mb - 0.00 in0.0 mm 0.10 in2.5 mm
07:43 AM 56.1°F13.4°C 55.0°F12.8°C 96% 4.6 mph S7.4 kmh S 6.9 mph11.1 kmh 27.90 in944.8 mb - 0.00 in0.0 mm 0.10 in2.5 mm
07:44 AM 56.1°F13.4°C 55.0°F12.8°C 96% 3.5 mph S5.6 kmh S 4.6 mph7.4 kmh 27.90 in944.8 mb - 0.00 in0.0 mm 0.10 in2.5 mm
07:45 AM 56.1°F13.4°C 55.0°F12.8°C 96% 4.6 mph SSE7.4 kmh SSE 4.6 mph7.4 kmh 27.90 in944.8 mb - 0.00 in0.0 mm 0.10 in2.5 mm
07:46 AM 56.1°F13.4°C 55.0°F12.8°C 96% 3.5 mph SE5.6 kmh SE 3.5 mph5.6 kmh 27.90 in944.8 mb - 0.00 in0.0 mm 0.10 in2.5 mm
07:47 AM 56.1°F13.4°C 55.0°F12.8°C 96% 3.5 mph SE5.6 kmh SE 4.6 mph7.4 kmh 27.90 in944.8 mb - 0.00 in0.0 mm 0.10 in2.5 mm
07:48 AM 56.1°F13.4°C 55.0°F12.8°C 96% 3.5 mph SSE5.6 kmh SSE 3.5 mph5.6 kmh 27.90 in944.8 mb - 0.00 in0.0 mm 0.10 in2.5 mm
07:49 AM 56.1°F13.4°C 55.0°F12.8°C 96% 3.5 mph SE5.6 kmh SE 4.6 mph7.4 kmh 27.90 in944.8 mb - 0.00 in0.0 mm 0.10 in2.5 mm
07:50 AM 56.1°F13.4°C 55.0°F12.8°C 96% 3.5 mph S5.6 kmh S 4.6 mph7.4 kmh 27.90 in944.8 mb - 0.00 in0.0 mm 0.10 in2.5 mm
07:51 AM 56.1°F13.4°C 55.0°F12.8°C 96% 4.6 mph SE7.4 kmh SE 5.8 mph9.3 kmh 27.90 in944.8 mb - 0.00 in0.0 mm 0.10 in2.5 mm
07:52 AM 56.1°F13.4°C 55.0°F12.8°C 96% 4.6 mph SE7.4 kmh SE 4.6 mph7.4 kmh 27.90 in944.8 mb - 0.00 in0.0 mm 0.10 in2.5 mm
07:53 AM 56.1°F13.4°C 55.0°F12.8°C 96% 3.5 mph SSE5.6 kmh SSE 4.6 mph7.4 kmh 27.90 in944.8 mb - 0.00 in0.0 mm 0.10 in2.5 mm
07:54 AM 56.1°F13.4°C 55.0°F12.8°C 96% 3.5 mph SSE5.6 kmh SSE 5.8 mph9.3 kmh 27.90 in944.8 mb - 0.00 in0.0 mm 0.10 in2.5 mm
07:55 AM 56.1°F13.4°C 55.0°F12.8°C 96% 4.6 mph SE7.4 kmh SE 4.6 mph7.4 kmh 27.90 in944.8 mb - 0.00 in0.0 mm 0.10 in2.5 mm
07:56 AM 56.1°F13.4°C 55.0°F12.8°C 96% 3.5 mph S5.6 kmh S 3.5 mph5.6 kmh 27.90 in944.8 mb - 0.00 in0.0 mm 0.10 in2.5 mm
07:57 AM 56.3°F13.5°C 55.2°F12.9°C 96% 2.3 mph SE3.7 kmh SE 3.5 mph5.6 kmh 27.90 in944.8 mb - 0.00 in0.0 mm 0.10 in2.5 mm
07:58 AM 56.3°F13.5°C 55.2°F12.9°C 96% 4.6 mph S7.4 kmh S 6.9 mph11.1 kmh 27.90 in944.8 mb - 0.00 in0.0 mm 0.10 in2.5 mm
07:59 AM 56.3°F13.5°C 55.2°F12.9°C 96% 5.8 mph SE9.3 kmh SE 5.8 mph9.3 kmh 27.90 in944.8 mb - 0.00 in0.0 mm 0.10 in2.5 mm
08:00 AM 56.3°F13.5°C 55.2°F12.9°C 96% 3.5 mph SSE5.6 kmh SSE 5.8 mph9.3 kmh 27.90 in944.8 mb - 0.00 in0.0 mm 0.10 in2.5 mm
08:01 AM 56.3°F13.5°C 55.2°F12.9°C 96% 3.5 mph S5.6 kmh S 4.6 mph7.4 kmh 27.90 in944.8 mb - 0.00 in0.0 mm 0.10 in2.5 mm
08:02 AM 56.3°F13.5°C 55.2°F12.9°C 96% 3.5 mph SE5.6 kmh SE 4.6 mph7.4 kmh 27.90 in944.8 mb - 0.00 in0.0 mm 0.10 in2.5 mm
08:03 AM 56.3°F13.5°C 55.2°F12.9°C 96% 3.5 mph S5.6 kmh S 3.5 mph5.6 kmh 27.90 in944.8 mb - 0.00 in0.0 mm 0.10 in2.5 mm
08:04 AM 56.3°F13.5°C 55.2°F12.9°C 96% 3.5 mph SSE5.6 kmh SSE 4.6 mph7.4 kmh 27.90 in944.8 mb - 0.00 in0.0 mm 0.10 in2.5 mm
08:05 AM 56.3°F13.5°C 55.2°F12.9°C 96% 3.5 mph SSE5.6 kmh SSE 3.5 mph5.6 kmh 27.90 in944.8 mb - 0.00 in0.0 mm 0.10 in2.5 mm
08:06 AM 56.3°F13.5°C 55.2°F12.9°C 96% 2.3 mph SE3.7 kmh SE 3.5 mph5.6 kmh 27.90 in944.8 mb - 0.00 in0.0 mm 0.10 in2.5 mm
08:07 AM 56.3°F13.5°C 55.2°F12.9°C 96% 3.5 mph ESE5.6 kmh ESE 4.6 mph7.4 kmh 27.90 in944.8 mb - 0.01 in0.3 mm 0.11 in2.8 mm
08:08 AM 56.3°F13.5°C 55.2°F12.9°C 96% 3.5 mph ESE5.6 kmh ESE 5.8 mph9.3 kmh 27.90 in944.8 mb - 0.01 in0.3 mm 0.11 in2.8 mm
08:09 AM 56.3°F13.5°C 55.2°F12.9°C 96% 3.5 mph SE5.6 kmh SE 3.5 mph5.6 kmh 27.90 in944.8 mb - 0.00 in0.0 mm 0.11 in2.8 mm
08:10 AM 56.3°F13.5°C 55.2°F12.9°C 96% 3.5 mph S5.6 kmh S 5.8 mph9.3 kmh 27.90 in944.8 mb - 0.00 in0.0 mm 0.11 in2.8 mm
08:11 AM 56.3°F13.5°C 55.2°F12.9°C 96% 4.6 mph SSE7.4 kmh SSE 5.8 mph9.3 kmh 27.90 in944.8 mb - 0.00 in0.0 mm 0.11 in2.8 mm
08:12 AM 56.3°F13.5°C 55.2°F12.9°C 96% 4.6 mph SE7.4 kmh SE 5.8 mph9.3 kmh 27.90 in944.8 mb - 0.00 in0.0 mm 0.11 in2.8 mm
08:13 AM 56.5°F13.6°C 55.4°F13.0°C 96% 3.5 mph SSE5.6 kmh SSE 5.8 mph9.3 kmh 27.89 in944.5 mb - 0.00 in0.0 mm 0.11 in2.8 mm
08:14 AM 56.5°F13.6°C 55.4°F13.0°C 96% 3.5 mph SSE5.6 kmh SSE 4.6 mph7.4 kmh 27.89 in944.5 mb - 0.00 in0.0 mm 0.11 in2.8 mm
08:15 AM 56.5°F13.6°C 55.4°F13.0°C 96% 3.5 mph SE5.6 kmh SE 4.6 mph7.4 kmh 27.89 in944.5 mb - 0.00 in0.0 mm 0.11 in2.8 mm
08:16 AM 56.5°F13.6°C 55.7°F13.2°C 97% 3.5 mph SE5.6 kmh SE 4.6 mph7.4 kmh 27.89 in944.5 mb - 0.00 in0.0 mm 0.11 in2.8 mm
08:17 AM 56.5°F13.6°C 55.7°F13.2°C 97% 4.6 mph SE7.4 kmh SE 5.8 mph9.3 kmh 27.89 in944.5 mb - 0.01 in0.3 mm 0.12 in3.0 mm
08:18 AM 56.5°F13.6°C 55.7°F13.2°C 97% 3.5 mph SE5.6 kmh SE 5.8 mph9.3 kmh 27.89 in944.5 mb - 0.01 in0.3 mm 0.12 in3.0 mm
08:19 AM 56.5°F13.6°C 55.7°F13.2°C 97% 4.6 mph SE7.4 kmh SE 4.6 mph7.4 kmh 27.89 in944.5 mb - 0.00 in0.0 mm 0.12 in3.0 mm
08:20 AM 56.5°F13.6°C 55.7°F13.2°C 97% 3.5 mph SE5.6 kmh SE 9.2 mph14.8 kmh 27.89 in944.5 mb - 0.00 in0.0 mm 0.12 in3.0 mm
08:21 AM 56.5°F13.6°C 55.7°F13.2°C 97% 5.8 mph S9.3 kmh S 9.2 mph14.8 kmh 27.89 in944.5 mb - 0.00 in0.0 mm 0.12 in3.0 mm
08:22 AM 56.5°F13.6°C 55.7°F13.2°C 97% 4.6 mph SE7.4 kmh SE 5.8 mph9.3 kmh 27.89 in944.5 mb - 0.00 in0.0 mm 0.12 in3.0 mm
08:23 AM 56.5°F13.6°C 55.7°F13.2°C 97% 4.6 mph SE7.4 kmh SE 8.1 mph13.0 kmh 27.89 in944.5 mb - 0.00 in0.0 mm 0.12 in3.0 mm
08:24 AM 56.5°F13.6°C 55.7°F13.2°C 97% 6.9 mph S11.1 kmh S 8.1 mph13.0 kmh 27.89 in944.5 mb - 0.00 in0.0 mm 0.12 in3.0 mm
08:25 AM 56.5°F13.6°C 55.7°F13.2°C 97% 4.6 mph ESE7.4 kmh ESE 5.8 mph9.3 kmh 27.89 in944.5 mb - 0.00 in0.0 mm 0.12 in3.0 mm
08:26 AM 56.5°F13.6°C 55.7°F13.2°C 97% 4.6 mph SE7.4 kmh SE 8.1 mph13.0 kmh 27.89 in944.5 mb - 0.01 in0.3 mm 0.13 in3.3 mm
08:27 AM 56.5°F13.6°C 55.7°F13.2°C 97% 5.8 mph SSE9.3 kmh SSE 10.4 mph16.7 kmh 27.89 in944.5 mb - 0.01 in0.3 mm 0.13 in3.3 mm
08:28 AM 56.7°F13.7°C 55.9°F13.3°C 97% 5.8 mph SE9.3 kmh SE 6.9 mph11.1 kmh 27.89 in944.5 mb - 0.00 in0.0 mm 0.13 in3.3 mm
08:29 AM 56.7°F13.7°C 55.9°F13.3°C 97% 5.8 mph SE9.3 kmh SE 5.8 mph9.3 kmh 27.89 in944.5 mb - 0.00 in0.0 mm 0.13 in3.3 mm
08:30 AM 56.7°F13.7°C 55.9°F13.3°C 97% 5.8 mph E9.3 kmh E 5.8 mph9.3 kmh 27.89 in944.5 mb - 0.00 in0.0 mm 0.13 in3.3 mm
08:31 AM 56.7°F13.7°C 55.9°F13.3°C 97% 4.6 mph SE7.4 kmh SE 5.8 mph9.3 kmh 27.89 in944.5 mb - 0.00 in0.0 mm 0.13 in3.3 mm
08:32 AM 56.7°F13.7°C 55.9°F13.3°C 97% 4.6 mph SSE7.4 kmh SSE 6.9 mph11.1 kmh 27.89 in944.5 mb - 0.00 in0.0 mm 0.13 in3.3 mm
08:33 AM 56.7°F13.7°C 55.9°F13.3°C 97% 5.8 mph SSE9.3 kmh SSE 5.8 mph9.3 kmh 27.89 in944.5 mb - 0.00 in0.0 mm 0.13 in3.3 mm
08:34 AM 56.7°F13.7°C 55.9°F13.3°C 97% 4.6 mph SE7.4 kmh SE 9.2 mph14.8 kmh 27.89 in944.5 mb - 0.01 in0.3 mm 0.14 in3.6 mm
08:35 AM 56.7°F13.7°C 55.9°F13.3°C 97% 5.8 mph SE9.3 kmh SE 5.8 mph9.3 kmh 27.89 in944.5 mb - 0.01 in0.3 mm 0.14 in3.6 mm
08:36 AM 56.7°F13.7°C 55.9°F13.3°C 97% 3.5 mph SSE5.6 kmh SSE 4.6 mph7.4 kmh 27.89 in944.5 mb - 0.00 in0.0 mm 0.14 in3.6 mm
08:37 AM 56.7°F13.7°C 55.9°F13.3°C 97% 4.6 mph S7.4 kmh S 9.2 mph14.8 kmh 27.89 in944.5 mb - 0.00 in0.0 mm 0.14 in3.6 mm
08:38 AM 56.7°F13.7°C 55.9°F13.3°C 97% 5.8 mph S9.3 kmh S 6.9 mph11.1 kmh 27.88 in944.1 mb - 0.00 in0.0 mm 0.14 in3.6 mm
08:39 AM 56.7°F13.7°C 55.9°F13.3°C 97% 5.8 mph SE9.3 kmh SE 6.9 mph11.1 kmh 27.88 in944.1 mb - 0.00 in0.0 mm 0.14 in3.6 mm
08:40 AM 56.7°F13.7°C 55.9°F13.3°C 97% 5.8 mph SE9.3 kmh SE 8.1 mph13.0 kmh 27.88 in944.1 mb - 0.00 in0.0 mm 0.14 in3.6 mm
08:41 AM 56.7°F13.7°C 55.9°F13.3°C 97% 6.9 mph SSE11.1 kmh SSE 8.1 mph13.0 kmh 27.88 in944.1 mb - 0.01 in0.3 mm 0.15 in3.8 mm
08:42 AM 56.7°F13.7°C 55.9°F13.3°C 97% 4.6 mph S7.4 kmh S 4.6 mph7.4 kmh 27.88 in944.1 mb - 0.01 in0.3 mm 0.15 in3.8 mm
08:43 AM 56.7°F13.7°C 55.9°F13.3°C 97% 4.6 mph NW7.4 kmh NW 5.8 mph9.3 kmh 27.88 in944.1 mb - 0.00 in0.0 mm 0.15 in3.8 mm
08:44 AM 56.7°F13.7°C 55.9°F13.3°C 97% 4.6 mph S7.4 kmh S 6.9 mph11.1 kmh 27.88 in944.1 mb - 0.00 in0.0 mm 0.15 in3.8 mm
08:45 AM 56.7°F13.7°C 55.9°F13.3°C 97% 5.8 mph S9.3 kmh S 9.2 mph14.8 kmh 27.88 in944.1 mb - 0.00 in0.0 mm 0.15 in3.8 mm
08:46 AM 56.7°F13.7°C 55.9°F13.3°C 97% 5.8 mph SE9.3 kmh SE 9.2 mph14.8 kmh 27.88 in944.1 mb - 0.01 in0.3 mm 0.16 in4.1 mm
08:47 AM 56.7°F13.7°C 55.9°F13.3°C 97% 5.8 mph ESE9.3 kmh ESE 6.9 mph11.1 kmh 27.88 in944.1 mb - 0.01 in0.3 mm 0.16 in4.1 mm
08:48 AM 56.8°F13.8°C 56.0°F13.3°C 97% 5.8 mph E9.3 kmh E 9.2 mph14.8 kmh 27.88 in944.1 mb - 0.00 in0.0 mm 0.16 in4.1 mm
08:49 AM 56.8°F13.8°C 56.0°F13.3°C 97% 5.8 mph S9.3 kmh S 9.2 mph14.8 kmh 27.88 in944.1 mb - 0.00 in0.0 mm 0.16 in4.1 mm
08:50 AM 56.8°F13.8°C 56.0°F13.3°C 97% 4.6 mph SSE7.4 kmh SSE 8.1 mph13.0 kmh 27.88 in944.1 mb - 0.00 in0.0 mm 0.16 in4.1 mm
08:51 AM 56.8°F13.8°C 56.0°F13.3°C 97% 4.6 mph SE7.4 kmh SE 8.1 mph13.0 kmh 27.88 in944.1 mb - 0.00 in0.0 mm 0.16 in4.1 mm
08:52 AM 56.8°F13.8°C 56.0°F13.3°C 97% 4.6 mph SE7.4 kmh SE 8.1 mph13.0 kmh 27.88 in944.1 mb - 0.00 in0.0 mm 0.16 in4.1 mm
08:53 AM 56.8°F13.8°C 56.0°F13.3°C 97% 5.8 mph SE9.3 kmh SE 6.9 mph11.1 kmh 27.88 in944.1 mb - 0.00 in0.0 mm 0.16 in4.1 mm
08:54 AM 56.8°F13.8°C 56.0°F13.3°C 97% 4.6 mph SE7.4 kmh SE 5.8 mph9.3 kmh 27.88 in944.1 mb - 0.00 in0.0 mm 0.16 in4.1 mm
08:55 AM 56.8°F13.8°C 56.0°F13.3°C 97% 4.6 mph S7.4 kmh S 5.8 mph9.3 kmh 27.88 in944.1 mb - 0.01 in0.3 mm 0.17 in4.3 mm
08:56 AM 56.8°F13.8°C 56.0°F13.3°C 97% 3.5 mph E5.6 kmh E 5.8 mph9.3 kmh 27.88 in944.1 mb - 0.01 in0.3 mm 0.17 in4.3 mm
08:57 AM 56.8°F13.8°C 56.0°F13.3°C 97% 4.6 mph SE7.4 kmh SE 5.8 mph9.3 kmh 27.88 in944.1 mb - 0.00 in0.0 mm 0.17 in4.3 mm
08:58 AM 56.8°F13.8°C 56.0°F13.3°C 97% 4.6 mph SSE7.4 kmh SSE 5.8 mph9.3 kmh 27.88 in944.1 mb - 0.00 in0.0 mm 0.17 in4.3 mm
08:59 AM 56.8°F13.8°C 56.0°F13.3°C 97% 5.8 mph S9.3 kmh S 6.9 mph11.1 kmh 27.88 in944.1 mb - 0.00 in0.0 mm 0.17 in4.3 mm
09:00 AM 56.8°F13.8°C 56.0°F13.3°C 97% 6.9 mph S11.1 kmh S 6.9 mph11.1 kmh 27.88 in944.1 mb - 0.00 in0.0 mm 0.17 in4.3 mm
09:01 AM 56.8°F13.8°C 56.0°F13.3°C 97% 5.8 mph SE9.3 kmh SE 6.9 mph11.1 kmh 27.87 in943.8 mb - 0.00 in0.0 mm 0.17 in4.3 mm
09:02 AM 56.8°F13.8°C 56.0°F13.3°C 97% 5.8 mph SE9.3 kmh SE 6.9 mph11.1 kmh 27.87 in943.8 mb - 0.00 in0.0 mm 0.17 in4.3 mm
09:03 AM 56.9°F13.8°C 56.0°F13.3°C 97% 5.8 mph ESE9.3 kmh ESE 6.9 mph11.1 kmh 27.87 in943.8 mb - 0.00 in0.0 mm 0.17 in4.3 mm
09:04 AM 57.0°F13.9°C 56.2°F13.4°C 97% 5.8 mph ESE9.3 kmh ESE 5.8 mph9.3 kmh 27.87 in943.8 mb - 0.00 in0.0 mm 0.17 in4.3 mm
09:05 AM 57.0°F13.9°C 56.2°F13.4°C 97% 4.6 mph SE7.4 kmh SE 12.7 mph20.4 kmh 27.87 in943.8 mb - 0.00 in0.0 mm 0.17 in4.3 mm
09:06 AM 57.0°F13.9°C 56.2°F13.4°C 97% 8.1 mph SSE13.0 kmh SSE 12.7 mph20.4 kmh 27.87 in943.8 mb - 0.00 in0.0 mm 0.17 in4.3 mm
09:07 AM 57.0°F13.9°C 56.2°F13.4°C 97% 5.8 mph SE9.3 kmh SE 5.8 mph9.3 kmh 27.87 in943.8 mb - 0.00 in0.0 mm 0.17 in4.3 mm
09:08 AM 57.0°F13.9°C 56.2°F13.4°C 97% 5.8 mph SE9.3 kmh SE 5.8 mph9.3 kmh 27.87 in943.8 mb - 0.00 in0.0 mm 0.17 in4.3 mm
09:09 AM 57.0°F13.9°C 56.2°F13.4°C 97% 5.8 mph SSE9.3 kmh SSE 16.1 mph25.9 kmh 27.87 in943.8 mb - 0.01 in0.3 mm 0.18 in4.6 mm
09:10 AM 57.0°F13.9°C 56.2°F13.4°C 97% 8.1 mph ESE13.0 kmh ESE 8.1 mph13.0 kmh 27.87 in943.8 mb - 0.01 in0.3 mm 0.18 in4.6 mm
09:11 AM 57.1°F13.9°C 56.2°F13.4°C 97% 6.9 mph SE11.1 kmh SE 11.5 mph18.5 kmh 27.87 in943.8 mb - 0.00 in0.0 mm 0.18 in4.6 mm
09:12 AM 57.2°F14.0°C 56.4°F13.6°C 97% 5.8 mph S9.3 kmh S 6.9 mph11.1 kmh 27.87 in943.8 mb - 0.00 in0.0 mm 0.18 in4.6 mm
09:13 AM 57.2°F14.0°C 56.4°F13.6°C 97% 4.6 mph SE7.4 kmh SE 6.9 mph11.1 kmh 27.87 in943.8 mb - 0.00 in0.0 mm 0.18 in4.6 mm
09:14 AM 57.2°F14.0°C 56.4°F13.6°C 97% 5.8 mph ESE9.3 kmh ESE 6.9 mph11.1 kmh 27.87 in943.8 mb - 0.00 in0.0 mm 0.18 in4.6 mm
09:15 AM 57.2°F14.0°C 56.4°F13.6°C 97% 5.8 mph SSE9.3 kmh SSE 6.9 mph11.1 kmh 27.87 in943.8 mb - 0.00 in0.0 mm 0.18 in4.6 mm
09:16 AM 57.2°F14.0°C 56.4°F13.6°C 97% 5.8 mph SE9.3 kmh SE 6.9 mph11.1 kmh 27.87 in943.8 mb - 0.00 in0.0 mm 0.18 in4.6 mm
09:17 AM 57.2°F14.0°C 56.4°F13.6°C 97% 4.6 mph NE7.4 kmh NE 5.8 mph9.3 kmh 27.87 in943.8 mb - 0.00 in0.0 mm 0.18 in4.6 mm
09:18 AM 57.2°F14.0°C 56.4°F13.6°C 97% 4.6 mph SSE7.4 kmh SSE 5.8 mph9.3 kmh 27.87 in943.8 mb - 0.00 in0.0 mm 0.18 in4.6 mm
09:19 AM 57.2°F14.0°C 56.4°F13.6°C 97% 4.6 mph SSE7.4 kmh SSE 5.8 mph9.3 kmh 27.87 in943.8 mb - 0.00 in0.0 mm 0.18 in4.6 mm
09:20 AM 57.2°F14.0°C 56.4°F13.6°C 97% 5.8 mph SE9.3 kmh SE 10.4 mph16.7 kmh 27.87 in943.8 mb - 0.00 in0.0 mm 0.18 in4.6 mm
09:21 AM 57.2°F14.0°C 56.4°F13.6°C 97% 9.2 mph SSE14.8 kmh SSE 9.2 mph14.8 kmh 27.87 in943.8 mb - 0.00 in0.0 mm 0.18 in4.6 mm
09:22 AM 57.2°F14.0°C 56.4°F13.6°C 97% 5.8 mph S9.3 kmh S 6.9 mph11.1 kmh 27.87 in943.8 mb - 0.00 in0.0 mm 0.18 in4.6 mm
09:23 AM 57.2°F14.0°C 56.4°F13.6°C 97% 4.6 mph S7.4 kmh S 10.4 mph16.7 kmh 27.87 in943.8 mb - 0.00 in0.0 mm 0.18 in4.6 mm
09:24 AM 57.2°F14.0°C 56.4°F13.6°C 97% 5.8 mph S9.3 kmh S 10.4 mph16.7 kmh 27.87 in943.8 mb - 0.00 in0.0 mm 0.18 in4.6 mm
09:25 AM 57.2°F14.0°C 56.4°F13.6°C 97% 5.8 mph SSE9.3 kmh SSE 6.9 mph11.1 kmh 27.87 in943.8 mb - 0.00 in0.0 mm 0.18 in4.6 mm
09:26 AM 57.2°F14.0°C 56.4°F13.6°C 97% 4.6 mph S7.4 kmh S 6.9 mph11.1 kmh 27.88 in944.1 mb - 0.00 in0.0 mm 0.18 in4.6 mm
09:27 AM 57.2°F14.0°C 56.4°F13.6°C 97% 5.8 mph S9.3 kmh S 10.4 mph16.7 kmh 27.88 in944.1 mb - 0.01 in0.3 mm 0.19 in4.8 mm
09:28 AM 57.2°F14.0°C 56.4°F13.6°C 97% 5.8 mph SSE9.3 kmh SSE 5.8 mph9.3 kmh 27.88 in944.1 mb - 0.01 in0.3 mm 0.19 in4.8 mm
09:29 AM 57.2°F14.0°C 56.4°F13.6°C 97% 4.6 mph SSE7.4 kmh SSE 5.8 mph9.3 kmh 27.88 in944.1 mb - 0.00 in0.0 mm 0.19 in4.8 mm
09:30 AM 57.2°F14.0°C 56.4°F13.6°C 97% 4.6 mph S7.4 kmh S 8.1 mph13.0 kmh 27.88 in944.1 mb - 0.00 in0.0 mm 0.19 in4.8 mm
09:31 AM 57.2°F14.0°C 56.4°F13.6°C 97% 6.9 mph SSE11.1 kmh SSE 8.1 mph13.0 kmh 27.88 in944.1 mb - 0.00 in0.0 mm 0.19 in4.8 mm
09:32 AM 57.2°F14.0°C 56.4°F13.6°C 97% 4.6 mph SE7.4 kmh SE 5.8 mph9.3 kmh 27.88 in944.1 mb - 0.00 in0.0 mm 0.19 in4.8 mm
09:33 AM 57.2°F14.0°C 56.4°F13.6°C 97% 4.6 mph SSE7.4 kmh SSE 4.6 mph7.4 kmh 27.88 in944.1 mb - 0.00 in0.0 mm 0.19 in4.8 mm
09:34 AM 57.2°F14.0°C 56.4°F13.6°C 97% 3.5 mph SE5.6 kmh SE 4.6 mph7.4 kmh 27.88 in944.1 mb - 0.00 in0.0 mm 0.19 in4.8 mm
09:35 AM 57.2°F14.0°C 56.4°F13.6°C 97% 3.5 mph SE5.6 kmh SE 4.6 mph7.4 kmh 27.88 in944.1 mb - 0.00 in0.0 mm 0.19 in4.8 mm
09:36 AM 57.2°F14.0°C 56.4°F13.6°C 97% 3.5 mph SSE5.6 kmh SSE 6.9 mph11.1 kmh 27.88 in944.1 mb - 0.00 in0.0 mm 0.19 in4.8 mm
09:37 AM 57.2°F14.0°C 56.4°F13.6°C 97% 4.6 mph SE7.4 kmh SE 6.9 mph11.1 kmh 27.88 in944.1 mb - 0.00 in0.0 mm 0.19 in4.8 mm
09:38 AM 57.2°F14.0°C 56.4°F13.6°C 97% 4.6 mph SE7.4 kmh SE 8.1 mph13.0 kmh 27.88 in944.1 mb - 0.01 in0.3 mm 0.20 in5.1 mm
09:39 AM 57.2°F14.0°C 56.4°F13.6°C 97% 5.8 mph SSE9.3 kmh SSE 6.9 mph11.1 kmh 27.88 in944.1 mb - 0.01 in0.3 mm 0.20 in5.1 mm
09:40 AM 57.2°F14.0°C 56.4°F13.6°C 97% 4.6 mph S7.4 kmh S 6.9 mph11.1 kmh 27.88 in944.1 mb - 0.00 in0.0 mm 0.20 in5.1 mm
09:41 AM 57.2°F14.0°C 56.4°F13.6°C 97% 4.6 mph SE7.4 kmh SE 8.1 mph13.0 kmh 27.88 in944.1 mb - 0.01 in0.3 mm 0.21 in5.3 mm
09:42 AM 57.2°F14.0°C 56.4°F13.6°C 97% 6.9 mph SE11.1 kmh SE 6.9 mph11.1 kmh 27.88 in944.1 mb - 0.01 in0.3 mm 0.21 in5.3 mm
09:43 AM 57.2°F14.0°C 56.4°F13.6°C 97% 4.6 mph SE7.4 kmh SE 6.9 mph11.1 kmh 27.88 in944.1 mb - 0.00 in0.0 mm 0.21 in5.3 mm
09:44 AM 57.2°F14.0°C 56.4°F13.6°C 97% 3.5 mph E5.6 kmh E 4.6 mph7.4 kmh 27.88 in944.1 mb - 0.01 in0.3 mm 0.22 in5.6 mm
09:45 AM 57.2°F14.0°C 56.4°F13.6°C 97% 4.6 mph S7.4 kmh S 6.9 mph11.1 kmh 27.88 in944.1 mb - 0.01 in0.3 mm 0.22 in5.6 mm
09:46 AM 57.2°F14.0°C 56.4°F13.6°C 97% 3.5 mph SE5.6 kmh SE 8.1 mph13.0 kmh 27.88 in944.1 mb - 0.00 in0.0 mm 0.22 in5.6 mm
09:47 AM 57.2°F14.0°C 56.4°F13.6°C 97% 5.8 mph SSE9.3 kmh SSE 8.1 mph13.0 kmh 27.88 in944.1 mb - 0.01 in0.3 mm 0.23 in5.8 mm
09:48 AM 57.2°F14.0°C 56.4°F13.6°C 97% 4.6 mph SE7.4 kmh SE 5.8 mph9.3 kmh 27.88 in944.1 mb - 0.01 in0.3 mm 0.23 in5.8 mm
09:49 AM 57.2°F14.0°C 56.4°F13.6°C 97% 3.5 mph ESE5.6 kmh ESE 8.1 mph13.0 kmh 27.88 in944.1 mb - 0.00 in0.0 mm 0.23 in5.8 mm
09:50 AM 57.2°F14.0°C 56.4°F13.6°C 97% 4.6 mph SSE7.4 kmh SSE 3.5 mph5.6 kmh 27.88 in944.1 mb - 0.01 in0.3 mm 0.24 in6.1 mm
09:51 AM 57.2°F14.0°C 56.4°F13.6°C 97% 3.5 mph SSW5.6 kmh SSW 3.5 mph5.6 kmh 27.88 in944.1 mb - 0.01 in0.3 mm 0.24 in6.1 mm
09:52 AM 57.2°F14.0°C 56.4°F13.6°C 97% 2.3 mph SW3.7 kmh SW 3.5 mph5.6 kmh 27.88 in944.1 mb - 0.01 in0.3 mm 0.25 in6.4 mm
09:53 AM 57.2°F14.0°C 56.4°F13.6°C 97% 2.3 mph SW3.7 kmh SW 3.5 mph5.6 kmh 27.88 in944.1 mb - 0.03 in0.8 mm 0.27 in6.9 mm
09:54 AM 57.2°F14.0°C 56.4°F13.6°C 97% 3.5 mph SSW5.6 kmh SSW 3.5 mph5.6 kmh 27.88 in944.1 mb - 0.03 in0.8 mm 0.28 in7.1 mm
09:55 AM 57.2°F14.0°C 56.4°F13.6°C 97% 3.5 mph WSW5.6 kmh WSW 4.6 mph7.4 kmh 27.88 in944.1 mb - 0.02 in0.5 mm 0.29 in7.4 mm
09:56 AM 57.2°F14.0°C 56.4°F13.6°C 97% 3.5 mph WSW5.6 kmh WSW 4.6 mph7.4 kmh 27.88 in944.1 mb - 0.01 in0.3 mm 0.29 in7.4 mm
09:57 AM 57.2°F14.0°C 56.4°F13.6°C 97% 3.5 mph WSW5.6 kmh WSW 4.6 mph7.4 kmh 27.88 in944.1 mb - 0.00 in0.0 mm 0.29 in7.4 mm
09:58 AM 57.2°F14.0°C 56.4°F13.6°C 97% 4.6 mph SW7.4 kmh SW 4.6 mph7.4 kmh 27.88 in944.1 mb - 0.00 in0.0 mm 0.29 in7.4 mm
09:59 AM 57.2°F14.0°C 56.4°F13.6°C 97% 3.5 mph S5.6 kmh S 2.3 mph3.7 kmh 27.88 in944.1 mb - 0.01 in0.3 mm 0.30 in7.6 mm
10:00 AM 57.2°F14.0°C 56.3°F13.5°C 97% 2.3 mph WNW3.7 kmh WNW 3.5 mph5.6 kmh 27.88 in944.1 mb - 0.01 in0.3 mm 0.30 in7.6 mm
10:01 AM 57.0°F13.9°C 56.2°F13.4°C 97% 3.5 mph SSE5.6 kmh SSE 3.5 mph5.6 kmh 27.88 in944.1 mb - 0.00 in0.0 mm 0.30 in7.6 mm
10:02 AM 57.0°F13.9°C 56.2°F13.4°C 97% 2.3 mph SSE3.7 kmh SSE 2.3 mph3.7 kmh 27.89 in944.5 mb - 0.00 in0.0 mm 0.30 in7.6 mm
10:03 AM 56.9°F13.8°C 56.0°F13.3°C 97% 1.2 mph S1.9 kmh S 3.5 mph5.6 kmh 27.89 in944.5 mb - 0.00 in0.0 mm 0.30 in7.6 mm
10:04 AM 56.8°F13.8°C 56.0°F13.3°C 97% 1.2 mph SE1.9 kmh SE 3.5 mph5.6 kmh 27.89 in944.5 mb - 0.01 in0.3 mm 0.31 in7.9 mm
10:05 AM 56.8°F13.8°C 56.0°F13.3°C 97% 2.3 mph S3.7 kmh S 2.3 mph3.7 kmh 27.89 in944.5 mb - 0.01 in0.3 mm 0.31 in7.9 mm
10:06 AM 56.8°F13.8°C 56.0°F13.3°C 97% 1.2 mph SSW1.9 kmh SSW 3.5 mph5.6 kmh 27.89 in944.5 mb - 0.00 in0.0 mm 0.31 in7.9 mm
10:07 AM 56.8°F13.8°C 56.0°F13.3°C 97% 2.3 mph SSE3.7 kmh SSE 4.6 mph7.4 kmh 27.89 in944.5 mb - 0.00 in0.0 mm 0.31 in7.9 mm
10:08 AM 56.8°F13.8°C 56.0°F13.3°C 97% 3.5 mph SSW5.6 kmh SSW 4.6 mph7.4 kmh 27.89 in944.5 mb - 0.00 in0.0 mm 0.31 in7.9 mm
10:09 AM 56.8°F13.8°C 56.0°F13.3°C 97% 2.3 mph SSE3.7 kmh SSE 3.5 mph5.6 kmh 27.89 in944.5 mb - 0.00 in0.0 mm 0.31 in7.9 mm
10:10 AM 56.8°F13.8°C 56.0°F13.3°C 97% 1.2 mph S1.9 kmh S 2.3 mph3.7 kmh 27.89 in944.5 mb - 0.00 in0.0 mm 0.31 in7.9 mm
10:11 AM 56.8°F13.8°C 56.0°F13.3°C 97% 2.3 mph S3.7 kmh S 2.3 mph3.7 kmh 27.89 in944.5 mb - 0.01 in0.3 mm 0.32 in8.1 mm
10:12 AM 56.8°F13.8°C 56.0°F13.3°C 97% 2.3 mph SSW3.7 kmh SSW 2.3 mph3.7 kmh 27.89 in944.5 mb - 0.01 in0.3 mm 0.32 in8.1 mm
10:13 AM 56.8°F13.8°C 56.0°F13.3°C 97% 2.3 mph SE3.7 kmh SE 4.6 mph7.4 kmh 27.89 in944.5 mb - 0.00 in0.0 mm 0.32 in8.1 mm
10:14 AM 56.8°F13.8°C 55.9°F13.3°C 97% 2.3 mph SSW3.7 kmh SSW 4.6 mph7.4 kmh 27.90 in944.8 mb - 0.00 in0.0 mm 0.32 in8.1 mm
10:15 AM 56.7°F13.7°C 55.9°F13.3°C 97% 3.5 mph S5.6 kmh S 4.6 mph7.4 kmh 27.90 in944.8 mb - 0.00 in0.0 mm 0.32 in8.1 mm
10:16 AM 56.7°F13.7°C 55.9°F13.3°C 97% 3.5 mph S5.6 kmh S 3.5 mph5.6 kmh 27.90 in944.8 mb - 0.01 in0.3 mm 0.33 in8.4 mm
10:17 AM 56.6°F13.7°C 55.8°F13.2°C 97% 3.5 mph SSE5.6 kmh SSE 5.8 mph9.3 kmh 27.90 in944.8 mb - 0.01 in0.3 mm 0.33 in8.4 mm
10:18 AM 56.3°F13.5°C 55.5°F13.1°C 97% 4.6 mph S7.4 kmh S 4.6 mph7.4 kmh 27.90 in944.8 mb - 0.00 in0.0 mm 0.33 in8.4 mm
10:19 AM 56.3°F13.5°C 55.5°F13.1°C 97% 4.6 mph S7.4 kmh S 5.8 mph9.3 kmh 27.90 in944.8 mb - 0.00 in0.0 mm 0.33 in8.4 mm
10:20 AM 56.1°F13.4°C 55.2°F12.9°C 97% 3.5 mph S5.6 kmh S 5.8 mph9.3 kmh 27.90 in944.8 mb - 0.00 in0.0 mm 0.33 in8.4 mm
10:21 AM 55.9°F13.3°C 55.1°F12.8°C 97% 3.5 mph SSW5.6 kmh SSW 5.8 mph9.3 kmh 27.90 in944.8 mb - 0.00 in0.0 mm 0.33 in8.4 mm
10:22 AM 55.9°F13.3°C 55.0°F12.8°C 97% 3.5 mph S5.6 kmh S 5.8 mph9.3 kmh 27.90 in944.8 mb - 0.01 in0.3 mm 0.34 in8.6 mm
10:23 AM 55.8°F13.2°C 55.0°F12.8°C 97% 4.6 mph S7.4 kmh S 4.6 mph7.4 kmh 27.90 in944.8 mb - 0.01 in0.3 mm 0.34 in8.6 mm
10:24 AM 55.8°F13.2°C 54.7°F12.6°C 96% 3.5 mph S5.6 kmh S 5.8 mph9.3 kmh 27.90 in944.8 mb - 0.00 in0.0 mm 0.34 in8.6 mm
10:25 AM 55.5°F13.1°C 54.4°F12.4°C 96% 4.6 mph S7.4 kmh S 4.6 mph7.4 kmh 27.91 in945.1 mb - 0.00 in0.0 mm 0.34 in8.6 mm
10:26 AM 55.4°F13.0°C 54.3°F12.4°C 96% 4.6 mph SSE7.4 kmh SSE 4.6 mph7.4 kmh 27.91 in945.1 mb - 0.01 in0.3 mm 0.35 in8.9 mm
10:27 AM 55.4°F13.0°C 54.3°F12.4°C 96% 2.3 mph SSE3.7 kmh SSE 2.3 mph3.7 kmh 27.91 in945.1 mb - 0.01 in0.3 mm 0.35 in8.9 mm
10:28 AM 55.4°F13.0°C 54.3°F12.4°C 96% 2.3 mph SE3.7 kmh SE 2.3 mph3.7 kmh 27.91 in945.1 mb - 0.00 in0.0 mm 0.35 in8.9 mm
10:29 AM 55.4°F13.0°C 54.3°F12.4°C 96% 2.3 mph SE3.7 kmh SE 3.5 mph5.6 kmh 27.91 in945.1 mb - 0.01 in0.3 mm 0.36 in9.1 mm
10:30 AM 55.4°F13.0°C 54.3°F12.4°C 96% 3.5 mph SSE5.6 kmh SSE 3.5 mph5.6 kmh 27.91 in945.1 mb - 0.01 in0.3 mm 0.36 in9.1 mm
10:31 AM 55.4°F13.0°C 54.2°F12.3°C 96% 2.3 mph SE3.7 kmh SE 4.6 mph7.4 kmh 27.91 in945.1 mb - 0.00 in0.0 mm 0.36 in9.1 mm
10:32 AM 55.2°F12.9°C 54.1°F12.3°C 96% 3.5 mph SE5.6 kmh SE 3.5 mph5.6 kmh 27.91 in945.1 mb - 0.00 in0.0 mm 0.36 in9.1 mm
10:33 AM 55.2°F12.9°C 54.1°F12.3°C 96% 2.3 mph SE3.7 kmh SE 2.3 mph3.7 kmh 27.91 in945.1 mb - 0.01 in0.3 mm 0.37 in9.4 mm
10:34 AM 55.2°F12.9°C 54.1°F12.3°C 96% 1.2 mph S1.9 kmh S 2.3 mph3.7 kmh 27.91 in945.1 mb - 0.01 in0.3 mm 0.37 in9.4 mm
10:35 AM 55.2°F12.9°C 54.1°F12.3°C 96% 1.2 mph SE1.9 kmh SE 2.3 mph3.7 kmh 27.91 in945.1 mb - 0.00 in0.0 mm 0.37 in9.4 mm
10:36 AM 55.2°F12.9°C 54.1°F12.3°C 96% 2.3 mph ESE3.7 kmh ESE 2.3 mph3.7 kmh 27.91 in945.1 mb - 0.00 in0.0 mm 0.37 in9.4 mm
10:37 AM 55.2°F12.9°C 54.1°F12.3°C 96% 2.3 mph SE3.7 kmh SE 4.6 mph7.4 kmh 27.90 in944.8 mb - 0.00 in0.0 mm 0.37 in9.4 mm
10:38 AM 55.2°F12.9°C 54.1°F12.3°C 96% 3.5 mph E5.6 kmh E 4.6 mph7.4 kmh 27.90 in944.8 mb - 0.01 in0.3 mm 0.38 in9.7 mm
10:39 AM 55.2°F12.9°C 54.1°F12.3°C 96% 2.3 mph SE3.7 kmh SE 3.5 mph5.6 kmh 27.90 in944.8 mb - 0.01 in0.3 mm 0.38 in9.7 mm
10:40 AM 55.2°F12.9°C 54.1°F12.3°C 96% 2.3 mph SSE3.7 kmh SSE 3.5 mph5.6 kmh 27.90 in944.8 mb - 0.00 in0.0 mm 0.38 in9.7 mm
10:41 AM 55.0°F12.8°C 53.9°F12.2°C 96% 3.5 mph SSE5.6 kmh SSE 3.5 mph5.6 kmh 27.90 in944.8 mb - 0.00 in0.0 mm 0.38 in9.7 mm
10:42 AM 55.0°F12.8°C 53.9°F12.2°C 96% 3.5 mph SE5.6 kmh SE 3.5 mph5.6 kmh 27.90 in944.8 mb - 0.00 in0.0 mm 0.38 in9.7 mm
10:43 AM 55.0°F12.8°C 53.8°F12.1°C 96% 2.3 mph SSE3.7 kmh SSE 3.5 mph5.6 kmh 27.90 in944.8 mb - 0.01 in0.3 mm 0.39 in9.9 mm
10:44 AM 54.9°F12.7°C 53.8°F12.1°C 96% 3.5 mph S5.6 kmh S 4.6 mph7.4 kmh 27.90 in944.8 mb - 0.01 in0.3 mm 0.39 in9.9 mm
10:45 AM 54.9°F12.7°C 53.8°F12.1°C 96% 3.5 mph SE5.6 kmh SE 4.6 mph7.4 kmh 27.90 in944.8 mb - 0.00 in0.0 mm 0.39 in9.9 mm
10:46 AM 54.9°F12.7°C 53.8°F12.1°C 96% 3.5 mph SE5.6 kmh SE 3.5 mph5.6 kmh 27.90 in944.8 mb - 0.00 in0.0 mm 0.39 in9.9 mm
10:47 AM 54.9°F12.7°C 53.8°F12.1°C 96% 2.3 mph S3.7 kmh S 3.5 mph5.6 kmh 27.90 in944.8 mb - 0.00 in0.0 mm 0.39 in9.9 mm
10:48 AM 54.9°F12.7°C 53.8°F12.1°C 96% 2.3 mph ESE3.7 kmh ESE 3.5 mph5.6 kmh 27.90 in944.8 mb - 0.00 in0.0 mm 0.39 in9.9 mm
10:49 AM 54.7°F12.6°C 53.6°F12.0°C 96% 3.5 mph SE5.6 kmh SE 3.5 mph5.6 kmh 27.90 in944.8 mb - 0.01 in0.3 mm 0.40 in10.2 mm
10:50 AM 54.7°F12.6°C 53.6°F12.0°C 96% 2.3 mph SE3.7 kmh SE 2.3 mph3.7 kmh 27.90 in944.8 mb - 0.01 in0.3 mm 0.40 in10.2 mm
10:51 AM 54.7°F12.6°C 53.6°F12.0°C 96% 2.3 mph SE3.7 kmh SE 3.5 mph5.6 kmh 27.90 in944.8 mb - 0.00 in0.0 mm 0.40 in10.2 mm
10:52 AM 54.6°F12.6°C 53.5°F11.9°C 96% 3.5 mph SSE5.6 kmh SSE 4.6 mph7.4 kmh 27.90 in944.8 mb - 0.00 in0.0 mm 0.40 in10.2 mm
10:53 AM 54.5°F12.5°C 53.4°F11.9°C 96% 3.5 mph SE5.6 kmh SE 3.5 mph5.6 kmh 27.90 in944.8 mb - 0.00 in0.0 mm 0.40 in10.2 mm
10:54 AM 54.5°F12.5°C 53.4°F11.9°C 96% 3.5 mph SE5.6 kmh SE 5.8 mph9.3 kmh 27.90 in944.8 mb - 0.01 in0.3 mm 0.41 in10.4 mm
10:55 AM 54.3°F12.4°C 53.2°F11.8°C 96% 4.6 mph SSE7.4 kmh SSE 5.8 mph9.3 kmh 27.90 in944.8 mb - 0.01 in0.3 mm 0.41 in10.4 mm
10:56 AM 54.3°F12.4°C 53.2°F11.8°C 96% 3.5 mph SSE5.6 kmh SSE 5.8 mph9.3 kmh 27.90 in944.8 mb - 0.00 in0.0 mm 0.41 in10.4 mm
10:57 AM 54.3°F12.4°C 53.2°F11.8°C 96% 3.5 mph SE5.6 kmh SE 5.8 mph9.3 kmh 27.90 in944.8 mb - 0.00 in0.0 mm 0.41 in10.4 mm
10:58 AM 54.3°F12.4°C 53.2°F11.8°C 96% 3.5 mph S5.6 kmh S 4.6 mph7.4 kmh 27.90 in944.8 mb - 0.00 in0.0 mm 0.41 in10.4 mm
10:59 AM 54.3°F12.4°C 53.2°F11.8°C 96% 3.5 mph SSE5.6 kmh SSE 4.6 mph7.4 kmh 27.90 in944.8 mb - 0.01 in0.3 mm 0.42 in10.7 mm
11:00 AM 54.3°F12.4°C 53.2°F11.8°C 96% 2.3 mph SE3.7 kmh SE 4.6 mph7.4 kmh 27.90 in944.8 mb - 0.01 in0.3 mm 0.42 in10.7 mm
11:01 AM 54.3°F12.4°C 53.2°F11.8°C 96% 3.5 mph SSE5.6 kmh SSE 4.6 mph7.4 kmh 27.90 in944.8 mb - 0.00 in0.0 mm 0.42 in10.7 mm
11:02 AM 54.1°F12.3°C 53.0°F11.7°C 96% 3.5 mph SSE5.6 kmh SSE 4.6 mph7.4 kmh 27.90 in944.8 mb - 0.01 in0.3 mm 0.43 in10.9 mm
11:03 AM 54.1°F12.3°C 53.0°F11.7°C 96% 4.6 mph SE7.4 kmh SE 5.8 mph9.3 kmh 27.90 in944.8 mb - 0.01 in0.3 mm 0.43 in10.9 mm
11:04 AM 54.1°F12.3°C 53.0°F11.7°C 96% 4.6 mph SE7.4 kmh SE 5.8 mph9.3 kmh 27.90 in944.8 mb - 0.00 in0.0 mm 0.43 in10.9 mm
11:05 AM 54.1°F12.3°C 53.0°F11.7°C 96% 4.6 mph SE7.4 kmh SE 5.8 mph9.3 kmh 27.90 in944.8 mb - 0.01 in0.3 mm 0.44 in11.2 mm
11:06 AM 54.1°F12.3°C 53.0°F11.7°C 96% 3.5 mph SE5.6 kmh SE 4.6 mph7.4 kmh 27.90 in944.8 mb - 0.01 in0.3 mm 0.44 in11.2 mm
11:07 AM 54.0°F12.2°C 52.9°F11.6°C 96% 3.5 mph S5.6 kmh S 5.8 mph9.3 kmh 27.90 in944.8 mb - 0.00 in0.0 mm 0.44 in11.2 mm
11:08 AM 54.0°F12.2°C 52.9°F11.6°C 96% 4.6 mph SSE7.4 kmh SSE 6.9 mph11.1 kmh 27.90 in944.8 mb - 0.00 in0.0 mm 0.44 in11.2 mm
11:09 AM 54.0°F12.2°C 52.9°F11.6°C 96% 4.6 mph SSE7.4 kmh SSE 4.6 mph7.4 kmh 27.90 in944.8 mb - 0.01 in0.3 mm 0.45 in11.4 mm
11:10 AM 54.0°F12.2°C 52.9°F11.6°C 96% 3.5 mph SSE5.6 kmh SSE 4.6 mph7.4 kmh 27.90 in944.8 mb - 0.01 in0.3 mm 0.45 in11.4 mm
11:11 AM 54.0°F12.2°C 52.9°F11.6°C 96% 4.6 mph SSE7.4 kmh SSE 6.9 mph11.1 kmh 27.90 in944.8 mb - 0.00 in0.0 mm 0.45 in11.4 mm
11:12 AM 54.0°F12.2°C 52.9°F11.6°C 96% 5.8 mph SE9.3 kmh SE 4.6 mph7.4 kmh 27.90 in944.8 mb - 0.01 in0.3 mm 0.46 in11.7 mm
11:13 AM 54.0°F12.2°C 52.9°F11.6°C 96% 3.5 mph SE5.6 kmh SE 2.3 mph3.7 kmh 27.90 in944.8 mb - 0.01 in0.3 mm 0.46 in11.7 mm
11:14 AM 54.0°F12.2°C 52.9°F11.6°C 96% 2.3 mph SE3.7 kmh SE 3.5 mph5.6 kmh 27.90 in944.8 mb - 0.00 in0.0 mm 0.46 in11.7 mm
11:15 AM 54.0°F12.2°C 52.9°F11.6°C 96% 3.5 mph SE5.6 kmh SE 5.8 mph9.3 kmh 27.90 in944.8 mb - 0.00 in0.0 mm 0.46 in11.7 mm
11:16 AM 53.8°F12.1°C 52.7°F11.5°C 96% 4.6 mph S7.4 kmh S 5.8 mph9.3 kmh 27.90 in944.8 mb - 0.01 in0.3 mm 0.47 in11.9 mm
11:17 AM 53.8°F12.1°C 52.7°F11.5°C 96% 3.5 mph SSE5.6 kmh SSE 4.6 mph7.4 kmh 27.90 in944.8 mb - 0.01 in0.3 mm 0.47 in11.9 mm
11:18 AM 53.8°F12.1°C 52.7°F11.5°C 96% 3.5 mph SE5.6 kmh SE 3.5 mph5.6 kmh 27.90 in944.8 mb - 0.00 in0.0 mm 0.47 in11.9 mm
11:19 AM 53.8°F12.1°C 52.7°F11.5°C 96% 2.3 mph S3.7 kmh S 5.8 mph9.3 kmh 27.90 in944.8 mb - 0.00 in0.0 mm 0.47 in11.9 mm
11:20 AM 53.8°F12.1°C 52.7°F11.5°C 96% 3.5 mph SSE5.6 kmh SSE 5.8 mph9.3 kmh 27.90 in944.8 mb - 0.01 in0.3 mm 0.48 in12.2 mm
11:21 AM 53.6°F12.0°C 52.5°F11.4°C 96% 3.5 mph S5.6 kmh S 6.9 mph11.1 kmh 27.90 in944.8 mb - 0.01 in0.3 mm 0.48 in12.2 mm
11:22 AM 53.6°F12.0°C 52.5°F11.4°C 96% 4.6 mph SSE7.4 kmh SSE 5.8 mph9.3 kmh 27.90 in944.8 mb - 0.00 in0.0 mm 0.48 in12.2 mm
11:23 AM 53.6°F12.0°C 52.5°F11.4°C 96% 3.5 mph SE5.6 kmh SE 8.1 mph13.0 kmh 27.90 in944.8 mb - 0.00 in0.0 mm 0.48 in12.2 mm
11:24 AM 53.4°F11.9°C 52.3°F11.3°C 96% 6.9 mph SE11.1 kmh SE 6.9 mph11.1 kmh 27.90 in944.8 mb - 0.00 in0.0 mm 0.48 in12.2 mm
11:25 AM 53.4°F11.9°C 52.3°F11.3°C 96% 5.8 mph ESE9.3 kmh ESE 5.8 mph9.3 kmh 27.90 in944.8 mb - 0.00 in0.0 mm 0.48 in12.2 mm
11:26 AM 53.4°F11.9°C 52.3°F11.3°C 96% 4.6 mph SE7.4 kmh SE 5.8 mph9.3 kmh 27.90 in944.8 mb - 0.00 in0.0 mm 0.48 in12.2 mm
11:27 AM 53.4°F11.9°C 52.3°F11.3°C 96% 3.5 mph SSE5.6 kmh SSE 5.8 mph9.3 kmh 27.90 in944.8 mb - 0.01 in0.3 mm 0.49 in12.4 mm
11:28 AM 53.4°F11.9°C 52.3°F11.3°C 96% 3.5 mph SE5.6 kmh SE 5.8 mph9.3 kmh 27.90 in944.8 mb - 0.01 in0.3 mm 0.49 in12.4 mm
11:29 AM 53.4°F11.9°C 52.3°F11.3°C 96% 4.6 mph SSE7.4 kmh SSE 5.8 mph9.3 kmh 27.90 in944.8 mb - 0.00 in0.0 mm 0.49 in12.4 mm
11:30 AM 53.4°F11.9°C 52.3°F11.3°C 96% 4.6 mph S7.4 kmh S 5.8 mph9.3 kmh 27.90 in944.8 mb - 0.00 in0.0 mm 0.49 in12.4 mm
11:31 AM 53.4°F11.9°C 52.3°F11.3°C 96% 5.8 mph SSE9.3 kmh SSE 6.9 mph11.1 kmh 27.90 in944.8 mb - 0.00 in0.0 mm 0.49 in12.4 mm
11:32 AM 53.4°F11.9°C 52.3°F11.3°C 96% 5.8 mph SE9.3 kmh SE 5.8 mph9.3 kmh 27.90 in944.8 mb - 0.00 in0.0 mm 0.49 in12.4 mm
11:33 AM 53.4°F11.9°C 52.3°F11.3°C 96% 4.6 mph SE7.4 kmh SE 5.8 mph9.3 kmh 27.90 in944.8 mb - 0.00 in0.0 mm 0.49 in12.4 mm
11:34 AM 53.4°F11.9°C 52.3°F11.3°C 96% 4.6 mph SSE7.4 kmh SSE 4.6 mph7.4 kmh 27.90 in944.8 mb - 0.00 in0.0 mm 0.49 in12.4 mm
11:35 AM 53.4°F11.9°C 52.3°F11.3°C 96% 4.6 mph SSE7.4 kmh SSE 8.1 mph13.0 kmh 27.90 in944.8 mb - 0.00 in0.0 mm 0.49 in12.4 mm
11:36 AM 53.4°F11.9°C 52.3°F11.3°C 96% 4.6 mph SE7.4 kmh SE 8.1 mph13.0 kmh 27.90 in944.8 mb - 0.00 in0.0 mm 0.49 in12.4 mm
11:37 AM 53.4°F11.9°C 52.3°F11.3°C 96% 3.5 mph SE5.6 kmh SE 5.8 mph9.3 kmh 27.90 in944.8 mb - 0.00 in0.0 mm 0.49 in12.4 mm
11:38 AM 53.6°F12.0°C 52.5°F11.4°C 96% 5.8 mph SSE9.3 kmh SSE 6.9 mph11.1 kmh 27.88 in944.1 mb - 0.00 in0.0 mm 0.49 in12.4 mm
11:39 AM 53.6°F12.0°C 52.5°F11.4°C 96% 4.6 mph ESE7.4 kmh ESE 5.8 mph9.3 kmh 27.88 in944.1 mb - 0.00 in0.0 mm 0.49 in12.4 mm
11:40 AM 53.6°F12.0°C 52.5°F11.4°C 96% 4.6 mph SE7.4 kmh SE 6.9 mph11.1 kmh 27.88 in944.1 mb - 0.00 in0.0 mm 0.49 in12.4 mm
11:41 AM 53.6°F12.0°C 52.5°F11.4°C 96% 4.6 mph SSE7.4 kmh SSE 6.9 mph11.1 kmh 27.88 in944.1 mb - 0.00 in0.0 mm 0.49 in12.4 mm
11:42 AM 53.6°F12.0°C 52.5°F11.4°C 96% 4.6 mph SE7.4 kmh SE 8.1 mph13.0 kmh 27.88 in944.1 mb - 0.00 in0.0 mm 0.49 in12.4 mm
11:43 AM 53.7°F12.1°C 52.6°F11.4°C 96% 5.8 mph SE9.3 kmh SE 8.1 mph13.0 kmh 27.88 in944.1 mb - 0.00 in0.0 mm 0.49 in12.4 mm
11:44 AM 53.8°F12.1°C 52.7°F11.5°C 96% 3.5 mph SE5.6 kmh SE 3.5 mph5.6 kmh 27.88 in944.1 mb - 0.00 in0.0 mm 0.49 in12.4 mm
11:45 AM 53.8°F12.1°C 52.7°F11.5°C 96% 3.5 mph ESE5.6 kmh ESE 5.8 mph9.3 kmh 27.88 in944.1 mb - 0.00 in0.0 mm 0.49 in12.4 mm
11:46 AM 53.8°F12.1°C 52.7°F11.5°C 96% 4.6 mph S7.4 kmh S 5.8 mph9.3 kmh 27.88 in944.1 mb - 0.00 in0.0 mm 0.49 in12.4 mm
11:47 AM 53.8°F12.1°C 52.7°F11.5°C 96% 3.5 mph SSE5.6 kmh SSE 4.6 mph7.4 kmh 27.88 in944.1 mb - 0.00 in0.0 mm 0.49 in12.4 mm
11:48 AM 53.8°F12.1°C 52.7°F11.5°C 96% 4.6 mph ESE7.4 kmh ESE 6.9 mph11.1 kmh 27.88 in944.1 mb - 0.00 in0.0 mm 0.49 in12.4 mm
11:49 AM 53.8°F12.1°C 52.7°F11.5°C 96% 5.8 mph SE9.3 kmh SE 6.9 mph11.1 kmh 27.88 in944.1 mb - 0.00 in0.0 mm 0.49 in12.4 mm
11:50 AM 53.8°F12.1°C 52.7°F11.5°C 96% 3.5 mph SSE5.6 kmh SSE 5.8 mph9.3 kmh 27.87 in943.8 mb - 0.00 in0.0 mm 0.49 in12.4 mm
11:51 AM 53.8°F12.1°C 52.7°F11.5°C 96% 5.8 mph SW9.3 kmh SW 5.8 mph9.3 kmh 27.87 in943.8 mb - 0.01 in0.3 mm 0.50 in12.7 mm
11:52 AM 53.8°F12.1°C 52.7°F11.5°C 96% 4.6 mph ESE7.4 kmh ESE 9.2 mph14.8 kmh 27.87 in943.8 mb - 0.01 in0.3 mm 0.50 in12.7 mm
11:53 AM 53.8°F12.1°C 52.7°F11.5°C 96% 5.8 mph S9.3 kmh S 9.2 mph14.8 kmh 27.87 in943.8 mb - 0.00 in0.0 mm 0.50 in12.7 mm
11:54 AM 53.8°F12.1°C 52.7°F11.5°C 96% 5.8 mph ENE9.3 kmh ENE 8.1 mph13.0 kmh 27.87 in943.8 mb - 0.00 in0.0 mm 0.50 in12.7 mm
11:55 AM 53.8°F12.1°C 52.7°F11.5°C 96% 3.5 mph S5.6 kmh S 5.8 mph9.3 kmh 27.87 in943.8 mb - 0.00 in0.0 mm 0.50 in12.7 mm
11:56 AM 53.8°F12.1°C 52.7°F11.5°C 96% 4.6 mph SE7.4 kmh SE 5.8 mph9.3 kmh 27.87 in943.8 mb - 0.00 in0.0 mm 0.50 in12.7 mm
11:57 AM 53.8°F12.1°C 52.7°F11.5°C 96% 4.6 mph S7.4 kmh S 6.9 mph11.1 kmh 27.87 in943.8 mb - 0.00 in0.0 mm 0.50 in12.7 mm
11:58 AM 53.8°F12.1°C 52.7°F11.5°C 96% 5.8 mph SSE9.3 kmh SSE 5.8 mph9.3 kmh 27.87 in943.8 mb - 0.00 in0.0 mm 0.50 in12.7 mm
11:59 AM 53.8°F12.1°C 52.7°F11.5°C 96% 5.8 mph SSE9.3 kmh SSE 9.2 mph14.8 kmh 27.87 in943.8 mb - 0.00 in0.0 mm 0.50 in12.7 mm
12:00 PM 53.8°F12.1°C 52.7°F11.5°C 96% 5.8 mph SE9.3 kmh SE 5.8 mph9.3 kmh 27.87 in943.8 mb - 0.00 in0.0 mm 0.50 in12.7 mm
12:01 PM 53.8°F12.1°C 52.7°F11.5°C 96% 4.6 mph S7.4 kmh S 6.9 mph11.1 kmh 27.87 in943.8 mb - 0.00 in0.0 mm 0.50 in12.7 mm
12:02 PM 53.9°F12.2°C 52.8°F11.6°C 96% 4.6 mph SSE7.4 kmh SSE 4.6 mph7.4 kmh 27.86 in943.4 mb - 0.00 in0.0 mm 0.50 in12.7 mm
12:03 PM 54.0°F12.2°C 52.8°F11.6°C 96% 4.6 mph SE7.4 kmh SE 5.8 mph9.3 kmh 27.86 in943.4 mb - 0.00 in0.0 mm 0.50 in12.7 mm
12:04 PM 53.8°F12.1°C 52.7°F11.5°C 96% 4.6 mph SE7.4 kmh SE 4.6 mph7.4 kmh 27.86 in943.4 mb - 0.00 in0.0 mm 0.50 in12.7 mm
12:05 PM 54.0°F12.2°C 52.9°F11.6°C 96% 3.5 mph SE5.6 kmh SE 8.1 mph13.0 kmh 27.86 in943.4 mb - 0.00 in0.0 mm 0.50 in12.7 mm
12:06 PM 54.0°F12.2°C 52.9°F11.6°C 96% 5.8 mph ESE9.3 kmh ESE 8.1 mph13.0 kmh 27.86 in943.4 mb - 0.00 in0.0 mm 0.50 in12.7 mm
12:07 PM 54.0°F12.2°C 52.9°F11.6°C 96% 4.6 mph ESE7.4 kmh ESE 6.9 mph11.1 kmh 27.86 in943.4 mb - 0.00 in0.0 mm 0.50 in12.7 mm
12:08 PM 54.0°F12.2°C 52.9°F11.6°C 96% 4.6 mph SE7.4 kmh SE 6.9 mph11.1 kmh 27.86 in943.4 mb - 0.00 in0.0 mm 0.50 in12.7 mm
12:09 PM 54.1°F12.3°C 53.0°F11.7°C 96% 4.6 mph SE7.4 kmh SE 5.8 mph9.3 kmh 27.86 in943.4 mb - 0.00 in0.0 mm 0.50 in12.7 mm
12:10 PM 54.2°F12.3°C 53.1°F11.7°C 96% 3.5 mph SE5.6 kmh SE 5.8 mph9.3 kmh 27.86 in943.4 mb - 0.00 in0.0 mm 0.50 in12.7 mm
12:11 PM 54.3°F12.4°C 53.2°F11.8°C 96% 3.5 mph SE5.6 kmh SE 5.8 mph9.3 kmh 27.86 in943.4 mb - 0.00 in0.0 mm 0.50 in12.7 mm
12:12 PM 54.4°F12.4°C 53.3°F11.8°C 96% 3.5 mph SE5.6 kmh SE 3.5 mph5.6 kmh 27.86 in943.4 mb - 0.00 in0.0 mm 0.50 in12.7 mm
12:13 PM 54.8°F12.7°C 53.7°F12.1°C 96% 2.3 mph SSE3.7 kmh SSE 4.6 mph7.4 kmh 27.86 in943.4 mb - 0.00 in0.0 mm 0.50 in12.7 mm
12:14 PM 54.9°F12.7°C 53.8°F12.1°C 96% 3.5 mph ESE5.6 kmh ESE 4.6 mph7.4 kmh 27.84 in942.8 mb - 0.00 in0.0 mm 0.50 in12.7 mm
12:15 PM 55.0°F12.8°C 53.9°F12.2°C 96% 3.5 mph SE5.6 kmh SE 3.5 mph5.6 kmh 27.84 in942.8 mb - 0.00 in0.0 mm 0.50 in12.7 mm
12:16 PM 55.2°F12.9°C 54.1°F12.3°C 96% 3.5 mph SE5.6 kmh SE 4.6 mph7.4 kmh 27.84 in942.8 mb - 0.00 in0.0 mm 0.50 in12.7 mm
12:17 PM 55.4°F13.0°C 54.0°F12.2°C 95% 3.5 mph SE5.6 kmh SE 4.6 mph7.4 kmh 27.84 in942.8 mb - 0.00 in0.0 mm 0.50 in12.7 mm
12:18 PM 55.5°F13.1°C 54.1°F12.3°C 95% 3.5 mph SSE5.6 kmh SSE 8.1 mph13.0 kmh 27.84 in942.8 mb - 0.00 in0.0 mm 0.50 in12.7 mm
12:19 PM 55.6°F13.1°C 53.6°F12.0°C 93% 5.8 mph SE9.3 kmh SE 5.8 mph9.3 kmh 27.84 in942.8 mb - 0.00 in0.0 mm 0.50 in12.7 mm
12:20 PM 55.6°F13.1°C 53.6°F12.0°C 93% 4.6 mph SSE7.4 kmh SSE 4.6 mph7.4 kmh 27.84 in942.8 mb - 0.00 in0.0 mm 0.50 in12.7 mm
12:21 PM 55.8°F13.2°C 53.8°F12.1°C 93% 4.6 mph SE7.4 kmh SE 4.6 mph7.4 kmh 27.84 in942.8 mb - 0.00 in0.0 mm 0.50 in12.7 mm
12:22 PM 55.9°F13.3°C 53.9°F12.2°C 93% 3.5 mph SSE5.6 kmh SSE 4.6 mph7.4 kmh 27.84 in942.8 mb - 0.00 in0.0 mm 0.50 in12.7 mm
12:23 PM 55.9°F13.3°C 53.6°F12.0°C 92% 4.6 mph SSE7.4 kmh SSE 5.8 mph9.3 kmh 27.84 in942.8 mb - 0.00 in0.0 mm 0.50 in12.7 mm
12:24 PM 56.0°F13.3°C 54.0°F12.2°C 93% 4.6 mph SE7.4 kmh SE 5.8 mph9.3 kmh 27.84 in942.8 mb - 0.00 in0.0 mm 0.50 in12.7 mm
12:25 PM 56.2°F13.4°C 53.9°F12.2°C 92% 3.5 mph ESE5.6 kmh ESE 6.9 mph11.1 kmh 27.84 in942.8 mb - 0.00 in0.0 mm 0.50 in12.7 mm
12:26 PM 56.3°F13.5°C 54.0°F12.2°C 92% 4.6 mph SE7.4 kmh SE 6.9 mph11.1 kmh 27.83 in942.4 mb - 0.00 in0.0 mm 0.50 in12.7 mm
12:27 PM 56.5°F13.6°C 54.2°F12.3°C 92% 4.6 mph SE7.4 kmh SE 5.8 mph9.3 kmh 27.83 in942.4 mb - 0.00 in0.0 mm 0.50 in12.7 mm
12:28 PM 56.5°F13.6°C 54.2°F12.3°C 92% 4.6 mph SE7.4 kmh SE 5.8 mph9.3 kmh 27.83 in942.4 mb - 0.00 in0.0 mm 0.50 in12.7 mm
12:29 PM 56.7°F13.7°C 54.4°F12.4°C 92% 3.5 mph SE5.6 kmh SE 4.6 mph7.4 kmh 27.83 in942.4 mb - 0.00 in0.0 mm 0.50 in12.7 mm
12:30 PM 57.0°F13.9°C 54.7°F12.6°C 92% 3.5 mph SE5.6 kmh SE 5.8 mph9.3 kmh 27.83 in942.4 mb - 0.00 in0.0 mm 0.50 in12.7 mm
12:31 PM 57.0°F13.9°C 54.7°F12.6°C 92% 4.6 mph SE7.4 kmh SE 5.8 mph9.3 kmh 27.83 in942.4 mb - 0.00 in0.0 mm 0.50 in12.7 mm
12:32 PM 57.0°F13.9°C 54.7°F12.6°C 92% 3.5 mph S5.6 kmh S 3.5 mph5.6 kmh 27.83 in942.4 mb - 0.00 in0.0 mm 0.50 in12.7 mm
12:33 PM 57.3°F14.1°C 55.0°F12.8°C 92% 3.5 mph SE5.6 kmh SE 8.1 mph13.0 kmh 27.83 in942.4 mb - 0.00 in0.0 mm 0.50 in12.7 mm
12:34 PM 57.4°F14.1°C 54.8°F12.7°C 91% 5.8 mph SE9.3 kmh SE 8.1 mph13.0 kmh 27.83 in942.4 mb - 0.00 in0.0 mm 0.50 in12.7 mm
12:35 PM 57.6°F14.2°C 54.7°F12.6°C 90% 3.5 mph SE5.6 kmh SE 3.5 mph5.6 kmh 27.83 in942.4 mb - 0.00 in0.0 mm 0.50 in12.7 mm
12:36 PM 57.8°F14.3°C 55.2°F12.9°C 91% 2.3 mph SSW3.7 kmh SSW 5.8 mph9.3 kmh 27.83 in942.4 mb - 0.00 in0.0 mm 0.50 in12.7 mm
12:37 PM 58.0°F14.4°C 55.4°F13.0°C 91% 3.5 mph SSE5.6 kmh SSE 5.8 mph9.3 kmh 27.83 in942.4 mb - 0.00 in0.0 mm 0.50 in12.7 mm
12:38 PM 58.3°F14.6°C 55.7°F13.2°C 91% 3.5 mph ESE5.6 kmh ESE 4.6 mph7.4 kmh 27.82 in942.1 mb - 0.00 in0.0 mm 0.50 in12.7 mm
12:39 PM 58.3°F14.6°C 55.4°F13.0°C 90% 5.8 mph ESE9.3 kmh ESE 8.1 mph13.0 kmh 27.81 in941.8 mb - 0.00 in0.0 mm 0.50 in12.7 mm
12:40 PM 58.1°F14.5°C 54.9°F12.7°C 89% 5.8 mph SE9.3 kmh SE 5.8 mph9.3 kmh 27.81 in941.8 mb - 0.00 in0.0 mm 0.50 in12.7 mm
12:41 PM 57.9°F14.4°C 54.7°F12.6°C 89% 6.9 mph SE11.1 kmh SE 11.5 mph18.5 kmh 27.81 in941.8 mb - 0.00 in0.0 mm 0.50 in12.7 mm
12:42 PM 57.7°F14.3°C 54.1°F12.3°C 88% 6.9 mph SE11.1 kmh SE 6.9 mph11.1 kmh 27.81 in941.8 mb - 0.00 in0.0 mm 0.50 in12.7 mm
12:43 PM 57.6°F14.2°C 54.7°F12.6°C 90% 3.5 mph S5.6 kmh S 5.8 mph9.3 kmh 27.81 in941.8 mb - 0.00 in0.0 mm 0.50 in12.7 mm
12:44 PM 57.6°F14.2°C 54.7°F12.6°C 90% 5.8 mph S9.3 kmh S 6.9 mph11.1 kmh 27.81 in941.8 mb - 0.00 in0.0 mm 0.50 in12.7 mm
12:45 PM 57.3°F14.1°C 54.4°F12.4°C 90% 5.8 mph S9.3 kmh S 6.9 mph11.1 kmh 27.81 in941.8 mb - 0.00 in0.0 mm 0.50 in12.7 mm
12:46 PM 57.0°F13.9°C 54.1°F12.3°C 90% 4.6 mph SSE7.4 kmh SSE 8.1 mph13.0 kmh 27.81 in941.8 mb - 0.00 in0.0 mm 0.50 in12.7 mm
12:47 PM 56.9°F13.8°C 54.0°F12.2°C 90% 4.6 mph S7.4 kmh S 5.8 mph9.3 kmh 27.81 in941.8 mb - 0.00 in0.0 mm 0.50 in12.7 mm
12:48 PM 56.7°F13.7°C 54.1°F12.3°C 91% 3.5 mph SE5.6 kmh SE 4.6 mph7.4 kmh 27.81 in941.8 mb - 0.00 in0.0 mm 0.50 in12.7 mm
12:49 PM 56.7°F13.7°C 54.1°F12.3°C 91% 3.5 mph ESE5.6 kmh ESE 4.6 mph7.4 kmh 27.82 in942.1 mb - 0.00 in0.0 mm 0.50 in12.7 mm
12:50 PM 56.6°F13.7°C 54.0°F12.2°C 91% 3.5 mph SSE5.6 kmh SSE 5.8 mph9.3 kmh 27.82 in942.1 mb - 0.00 in0.0 mm 0.50 in12.7 mm
12:51 PM 56.5°F13.6°C 53.9°F12.2°C 91% 4.6 mph SE7.4 kmh SE 5.8 mph9.3 kmh 27.82 in942.1 mb - 0.00 in0.0 mm 0.50 in12.7 mm
12:52 PM 56.5°F13.6°C 53.9°F12.2°C 91% 4.6 mph SSE7.4 kmh SSE 6.9 mph11.1 kmh 27.82 in942.1 mb - 0.00 in0.0 mm 0.50 in12.7 mm
12:53 PM 56.5°F13.6°C 53.9°F12.2°C 91% 3.5 mph SE5.6 kmh SE 3.5 mph5.6 kmh 27.82 in942.1 mb - 0.00 in0.0 mm 0.50 in12.7 mm
12:54 PM 56.5°F13.6°C 54.2°F12.3°C 92% 3.5 mph SSW5.6 kmh SSW 3.5 mph5.6 kmh 27.82 in942.1 mb - 0.00 in0.0 mm 0.50 in12.7 mm
12:55 PM 56.4°F13.6°C 54.1°F12.3°C 92% 3.5 mph SSE5.6 kmh SSE 5.8 mph9.3 kmh 27.82 in942.1 mb - 0.00 in0.0 mm 0.50 in12.7 mm
12:56 PM 56.3°F13.5°C 54.0°F12.2°C 92% 4.6 mph ESE7.4 kmh ESE 5.8 mph9.3 kmh 27.82 in942.1 mb - 0.00 in0.0 mm 0.50 in12.7 mm
12:57 PM 56.3°F13.5°C 54.0°F12.2°C 92% 3.5 mph SE5.6 kmh SE 4.6 mph7.4 kmh 27.82 in942.1 mb - 0.00 in0.0 mm 0.50 in12.7 mm
12:58 PM 56.2°F13.4°C 53.9°F12.2°C 92% 5.8 mph SW9.3 kmh SW 13.8 mph22.2 kmh 27.82 in942.1 mb - 0.00 in0.0 mm 0.50 in12.7 mm
12:59 PM 56.1°F13.4°C 53.2°F11.8°C 90% 9.2 mph S14.8 kmh S 10.4 mph16.7 kmh 27.82 in942.1 mb - 0.00 in0.0 mm 0.50 in12.7 mm
01:00 PM 56.2°F13.4°C 52.7°F11.5°C 88% 6.9 mph SSE11.1 kmh SSE 8.1 mph13.0 kmh 27.82 in942.1 mb - 0.00 in0.0 mm 0.50 in12.7 mm
01:01 PM 56.3°F13.5°C 52.7°F11.5°C 88% 3.5 mph WSW5.6 kmh WSW 4.6 mph7.4 kmh 27.82 in942.1 mb - 0.00 in0.0 mm 0.50 in12.7 mm
01:02 PM 56.0°F13.3°C 53.1°F11.7°C 90% 4.6 mph S7.4 kmh S 9.2 mph14.8 kmh 27.82 in942.1 mb - 0.00 in0.0 mm 0.50 in12.7 mm
01:03 PM 55.9°F13.3°C 53.0°F11.7°C 90% 6.9 mph SE11.1 kmh SE 9.2 mph14.8 kmh 27.82 in942.1 mb - 0.00 in0.0 mm 0.50 in12.7 mm
01:04 PM 55.8°F13.2°C 52.9°F11.6°C 90% 5.8 mph S9.3 kmh S 9.2 mph14.8 kmh 27.82 in942.1 mb - 0.00 in0.0 mm 0.50 in12.7 mm
01:05 PM 55.8°F13.2°C 52.9°F11.6°C 90% 6.9 mph SE11.1 kmh SE 8.1 mph13.0 kmh 27.82 in942.1 mb - 0.00 in0.0 mm 0.50 in12.7 mm
01:06 PM 55.8°F13.2°C 52.6°F11.4°C 89% 6.9 mph SSE11.1 kmh SSE 8.1 mph13.0 kmh 27.82 in942.1 mb - 0.00 in0.0 mm 0.50 in12.7 mm
01:07 PM 55.8°F13.2°C 52.6°F11.4°C 89% 6.9 mph S11.1 kmh S 6.9 mph11.1 kmh 27.82 in942.1 mb - 0.00 in0.0 mm 0.50 in12.7 mm
01:08 PM 55.8°F13.2°C 52.6°F11.4°C 89% 4.6 mph S7.4 kmh S 4.6 mph7.4 kmh 27.82 in942.1 mb - 0.00 in0.0 mm 0.50 in12.7 mm
01:09 PM 55.6°F13.1°C 52.8°F11.6°C 90% 3.5 mph SE5.6 kmh SE 4.6 mph7.4 kmh 27.82 in942.1 mb - 0.00 in0.0 mm 0.50 in12.7 mm
01:10 PM 55.6°F13.1°C 52.7°F11.5°C 90% 3.5 mph SE5.6 kmh SE 4.6 mph7.4 kmh 27.82 in942.1 mb - 0.00 in0.0 mm 0.50 in12.7 mm
01:11 PM 55.5°F13.1°C 52.6°F11.4°C 90% 2.3 mph SE3.7 kmh SE 4.6 mph7.4 kmh 27.82 in942.1 mb - 0.00 in0.0 mm 0.50 in12.7 mm
01:12 PM 55.4°F13.0°C 52.8°F11.6°C 91% 3.5 mph SE5.6 kmh SE 4.6 mph7.4 kmh 27.82 in942.1 mb - 0.00 in0.0 mm 0.50 in12.7 mm
01:13 PM 55.4°F13.0°C 52.8°F11.6°C 91% 3.5 mph SE5.6 kmh SE 5.8 mph9.3 kmh 27.80 in941.4 mb - 0.00 in0.0 mm 0.50 in12.7 mm
01:14 PM 55.4°F13.0°C 52.8°F11.6°C 91% 4.6 mph ESE7.4 kmh ESE 5.8 mph9.3 kmh 27.80 in941.4 mb - 0.00 in0.0 mm 0.50 in12.7 mm
01:15 PM 55.4°F13.0°C 52.8°F11.6°C 91% 3.5 mph E5.6 kmh E 4.6 mph7.4 kmh 27.80 in941.4 mb - 0.00 in0.0 mm 0.50 in12.7 mm
01:16 PM 55.4°F13.0°C 52.8°F11.6°C 91% 3.5 mph SE5.6 kmh SE 6.9 mph11.1 kmh 27.80 in941.4 mb - 0.00 in0.0 mm 0.50 in12.7 mm
01:17 PM 55.2°F12.9°C 52.6°F11.4°C 91% 5.8 mph SSE9.3 kmh SSE 6.9 mph11.1 kmh 27.80 in941.4 mb - 0.00 in0.0 mm 0.50 in12.7 mm
01:18 PM 55.0°F12.8°C 52.4°F11.3°C 91% 5.8 mph S9.3 kmh S 6.9 mph11.1 kmh 27.80 in941.4 mb - 0.00 in0.0 mm 0.50 in12.7 mm
01:19 PM 55.0°F12.8°C 52.4°F11.3°C 91% 3.5 mph SE5.6 kmh SE 2.3 mph3.7 kmh 27.80 in941.4 mb - 0.00 in0.0 mm 0.50 in12.7 mm
01:20 PM 55.0°F12.8°C 52.4°F11.3°C 91% 3.5 mph SE5.6 kmh SE 4.6 mph7.4 kmh 27.80 in941.4 mb - 0.00 in0.0 mm 0.50 in12.7 mm
01:21 PM 54.9°F12.7°C 52.3°F11.3°C 91% 3.5 mph SE5.6 kmh SE 5.8 mph9.3 kmh 27.80 in941.4 mb - 0.00 in0.0 mm 0.50 in12.7 mm
01:22 PM 54.8°F12.7°C 52.5°F11.4°C 92% 4.6 mph ESE7.4 kmh ESE 5.8 mph9.3 kmh 27.80 in941.4 mb - 0.00 in0.0 mm 0.50 in12.7 mm
01:23 PM 54.7°F12.6°C 52.4°F11.3°C 92% 3.5 mph ESE5.6 kmh ESE 3.5 mph5.6 kmh 27.80 in941.4 mb - 0.00 in0.0 mm 0.50 in12.7 mm
01:24 PM 54.5°F12.5°C 52.2°F11.2°C 92% 3.5 mph ESE5.6 kmh ESE 3.5 mph5.6 kmh 27.80 in941.4 mb - 0.00 in0.0 mm 0.50 in12.7 mm
01:25 PM 54.5°F12.5°C 52.2°F11.2°C 92% 3.5 mph SSE5.6 kmh SSE 5.8 mph9.3 kmh 27.79 in941.1 mb - 0.00 in0.0 mm 0.50 in12.7 mm
01:26 PM 54.3°F12.4°C 52.0°F11.1°C 92% 4.6 mph SE7.4 kmh SE 5.8 mph9.3 kmh 27.78 in940.7 mb - 0.01 in0.3 mm 0.51 in13.0 mm
01:27 PM 54.2°F12.3°C 52.2°F11.2°C 93% 3.5 mph SE5.6 kmh SE 4.6 mph7.4 kmh 27.78 in940.7 mb - 0.01 in0.3 mm 0.51 in13.0 mm
01:28 PM 54.1°F12.3°C 52.1°F11.2°C 93% 3.5 mph ESE5.6 kmh ESE 2.3 mph3.7 kmh 27.78 in940.7 mb - 0.00 in0.0 mm 0.51 in13.0 mm
01:29 PM 54.1°F12.3°C 52.1°F11.2°C 93% 3.5 mph SSE5.6 kmh SSE 5.8 mph9.3 kmh 27.78 in940.7 mb - 0.00 in0.0 mm 0.51 in13.0 mm
01:30 PM 54.1°F12.3°C 52.1°F11.2°C 93% 3.5 mph S5.6 kmh S 4.6 mph7.4 kmh 27.78 in940.7 mb - 0.00 in0.0 mm 0.51 in13.0 mm
01:31 PM 54.0°F12.2°C 52.3°F11.3°C 94% 3.5 mph ESE5.6 kmh ESE 5.8 mph9.3 kmh 27.78 in940.7 mb - 0.00 in0.0 mm 0.51 in13.0 mm
01:32 PM 53.9°F12.2°C 52.2°F11.2°C 94% 4.6 mph S7.4 kmh S 5.8 mph9.3 kmh 27.78 in940.7 mb - 0.00 in0.0 mm 0.51 in13.0 mm
01:33 PM 53.8°F12.1°C 52.1°F11.2°C 94% 4.6 mph SE7.4 kmh SE 5.8 mph9.3 kmh 27.78 in940.7 mb - 0.00 in0.0 mm 0.51 in13.0 mm
01:34 PM 53.8°F12.1°C 52.1°F11.2°C 94% 5.8 mph SSE9.3 kmh SSE 9.2 mph14.8 kmh 27.78 in940.7 mb - 0.01 in0.3 mm 0.52 in13.2 mm
01:35 PM 53.8°F12.1°C 52.1°F11.2°C 94% 6.9 mph SE11.1 kmh SE 8.1 mph13.0 kmh 27.78 in940.7 mb - 0.01 in0.3 mm 0.52 in13.2 mm
01:36 PM 53.8°F12.1°C 52.1°F11.2°C 94% 4.6 mph S7.4 kmh S 6.9 mph11.1 kmh 27.78 in940.7 mb - 0.00 in0.0 mm 0.52 in13.2 mm
01:37 PM 53.8°F12.1°C 52.1°F11.2°C 94% 4.6 mph SSE7.4 kmh SSE 6.9 mph11.1 kmh 27.78 in940.7 mb - 0.00 in0.0 mm 0.52 in13.2 mm
01:38 PM 53.6°F12.0°C 51.9°F11.1°C 94% 4.6 mph SSE7.4 kmh SSE 4.6 mph7.4 kmh 27.78 in940.7 mb - 0.00 in0.0 mm 0.52 in13.2 mm
01:39 PM 53.6°F12.0°C 51.9°F11.1°C 94% 5.8 mph SE9.3 kmh SE 11.5 mph18.5 kmh 27.78 in940.7 mb - 0.00 in0.0 mm 0.52 in13.2 mm
01:40 PM 53.4°F11.9°C 51.7°F10.9°C 94% 8.1 mph WNW13.0 kmh WNW 11.5 mph18.5 kmh 27.78 in940.7 mb - 0.00 in0.0 mm 0.52 in13.2 mm
01:41 PM 53.4°F11.9°C 51.7°F10.9°C 94% 5.8 mph S9.3 kmh S 6.9 mph11.1 kmh 27.78 in940.7 mb - 0.00 in0.0 mm 0.52 in13.2 mm
01:42 PM 53.4°F11.9°C 52.0°F11.1°C 95% 4.6 mph SE7.4 kmh SE 12.7 mph20.4 kmh 27.78 in940.7 mb - 0.00 in0.0 mm 0.52 in13.2 mm
01:43 PM 53.2°F11.8°C 51.8°F11.0°C 95% 8.1 mph SE13.0 kmh SE 12.7 mph20.4 kmh 27.78 in940.7 mb - 0.00 in0.0 mm 0.52 in13.2 mm
01:44 PM 53.2°F11.8°C 51.8°F11.0°C 95% 4.6 mph SE7.4 kmh SE 4.6 mph7.4 kmh 27.78 in940.7 mb - 0.00 in0.0 mm 0.52 in13.2 mm
01:45 PM 53.4°F11.9°C 52.0°F11.1°C 95% 3.5 mph SSE5.6 kmh SSE 3.5 mph5.6 kmh 27.78 in940.7 mb - 0.00 in0.0 mm 0.52 in13.2 mm
01:46 PM 53.4°F11.9°C 52.0°F11.1°C 95% 3.5 mph SE5.6 kmh SE 4.6 mph7.4 kmh 27.78 in940.7 mb - 0.01 in0.3 mm 0.53 in13.5 mm
01:47 PM 53.3°F11.8°C 51.9°F11.1°C 95% 3.5 mph SSE5.6 kmh SSE 4.6 mph7.4 kmh 27.78 in940.7 mb - 0.01 in0.3 mm 0.53 in13.5 mm
01:48 PM 53.2°F11.8°C 51.8°F11.0°C 95% 3.5 mph SE5.6 kmh SE 4.6 mph7.4 kmh 27.78 in940.7 mb - 0.00 in0.0 mm 0.53 in13.5 mm
01:49 PM 53.2°F11.8°C 51.8°F11.0°C 95% 3.5 mph SE5.6 kmh SE 5.8 mph9.3 kmh 27.78 in940.7 mb - 0.00 in0.0 mm 0.53 in13.5 mm
01:50 PM 53.2°F11.8°C 51.8°F11.0°C 95% 4.6 mph S7.4 kmh S 5.8 mph9.3 kmh 27.78 in940.7 mb - 0.00 in0.0 mm 0.53 in13.5 mm
01:51 PM 53.2°F11.8°C 51.8°F11.0°C 95% 4.6 mph S7.4 kmh S 5.8 mph9.3 kmh 27.78 in940.7 mb - 0.00 in0.0 mm 0.53 in13.5 mm
01:52 PM 53.2°F11.8°C 51.8°F11.0°C 95% 3.5 mph SSE5.6 kmh SSE 4.6 mph7.4 kmh 27.78 in940.7 mb - 0.00 in0.0 mm 0.53 in13.5 mm
01:53 PM 53.1°F11.7°C 51.7°F10.9°C 95% 4.6 mph S7.4 kmh S 4.6 mph7.4 kmh 27.78 in940.7 mb - 0.00 in0.0 mm 0.53 in13.5 mm
01:54 PM 53.1°F11.7°C 51.7°F10.9°C 95% 4.6 mph SE7.4 kmh SE 5.8 mph9.3 kmh 27.78 in940.7 mb - 0.00 in0.0 mm 0.53 in13.5 mm
01:55 PM 53.1°F11.7°C 51.7°F10.9°C 95% 5.8 mph SE9.3 kmh SE 8.1 mph13.0 kmh 27.78 in940.7 mb - 0.00 in0.0 mm 0.53 in13.5 mm
01:56 PM 52.9°F11.6°C 51.5°F10.8°C 95% 4.6 mph SSE7.4 kmh SSE 5.8 mph9.3 kmh 27.78 in940.7 mb - 0.00 in0.0 mm 0.53 in13.5 mm
01:57 PM 52.9°F11.6°C 51.8°F11.0°C 96% 3.5 mph SE5.6 kmh SE 5.8 mph9.3 kmh 27.78 in940.7 mb - 0.00 in0.0 mm 0.53 in13.5 mm
01:58 PM 52.9°F11.6°C 51.8°F11.0°C 96% 3.5 mph SE5.6 kmh SE 4.6 mph7.4 kmh 27.78 in940.7 mb - 0.00 in0.0 mm 0.53 in13.5 mm
01:59 PM 52.9°F11.6°C 51.8°F11.0°C 96% 3.5 mph SE5.6 kmh SE 4.6 mph7.4 kmh 27.78 in940.7 mb - 0.00 in0.0 mm 0.53 in13.5 mm
02:00 PM 52.9°F11.6°C 51.8°F11.0°C 96% 3.5 mph SE5.6 kmh SE 6.9 mph11.1 kmh 27.78 in940.7 mb - 0.00 in0.0 mm 0.53 in13.5 mm
02:01 PM 52.9°F11.6°C 51.8°F11.0°C 96% 4.6 mph SE7.4 kmh SE 6.9 mph11.1 kmh 27.78 in940.7 mb - 0.00 in0.0 mm 0.53 in13.5 mm
02:02 PM 52.9°F11.6°C 51.8°F11.0°C 96% 4.6 mph S7.4 kmh S 4.6 mph7.4 kmh 27.79 in941.1 mb - 0.00 in0.0 mm 0.53 in13.5 mm
02:03 PM 52.9°F11.6°C 51.8°F11.0°C 96% 3.5 mph SE5.6 kmh SE 3.5 mph5.6 kmh 27.79 in941.1 mb - 0.00 in0.0 mm 0.53 in13.5 mm
02:04 PM 52.9°F11.6°C 51.8°F11.0°C 96% 3.5 mph S5.6 kmh S 3.5 mph5.6 kmh 27.79 in941.1 mb - 0.00 in0.0 mm 0.53 in13.5 mm
02:05 PM 52.9°F11.6°C 51.7°F10.9°C 96% 3.5 mph E5.6 kmh E 4.6 mph7.4 kmh 27.79 in941.1 mb - 0.00 in0.0 mm 0.53 in13.5 mm
02:06 PM 52.7°F11.5°C 51.6°F10.9°C 96% 3.5 mph SE5.6 kmh SE 4.6 mph7.4 kmh 27.79 in941.1 mb - 0.00 in0.0 mm 0.53 in13.5 mm
02:07 PM 52.7°F11.5°C 51.6°F10.9°C 96% 2.3 mph SE3.7 kmh SE 3.5 mph5.6 kmh 27.79 in941.1 mb - 0.00 in0.0 mm 0.53 in13.5 mm
02:08 PM 52.7°F11.5°C 51.6°F10.9°C 96% 2.3 mph SE3.7 kmh SE 3.5 mph5.6 kmh 27.79 in941.1 mb - 0.00 in0.0 mm 0.53 in13.5 mm
02:09 PM 52.7°F11.5°C 51.6°F10.9°C 96% 3.5 mph ESE5.6 kmh ESE 4.6 mph7.4 kmh 27.79 in941.1 mb - 0.00 in0.0 mm 0.53 in13.5 mm
02:10 PM 52.7°F11.5°C 51.6°F10.9°C 96% 3.5 mph ESE5.6 kmh ESE 4.6 mph7.4 kmh 27.79 in941.1 mb - 0.00 in0.0 mm 0.53 in13.5 mm
02:11 PM 52.7°F11.5°C 51.6°F10.9°C 96% Calm Calm 2.3 mph3.7 kmh 27.79 in941.1 mb - 0.00 in0.0 mm 0.53 in13.5 mm
02:12 PM 52.7°F11.5°C 51.6°F10.9°C 96% 2.3 mph SSE3.7 kmh SSE 2.3 mph3.7 kmh 27.79 in941.1 mb - 0.00 in0.0 mm 0.53 in13.5 mm
02:13 PM 52.7°F11.5°C 51.6°F10.9°C 96% 1.2 mph SSW1.9 kmh SSW 3.5 mph5.6 kmh 27.79 in941.1 mb - 0.00 in0.0 mm 0.53 in13.5 mm
02:14 PM 52.7°F11.5°C 51.6°F10.9°C 96% 2.3 mph SSW3.7 kmh SSW 3.5 mph5.6 kmh 27.75 in939.7 mb - 0.00 in0.0 mm 0.53 in13.5 mm
02:15 PM 52.7°F11.5°C 51.6°F10.9°C 96% 3.5 mph SSW5.6 kmh SSW 5.8 mph9.3 kmh 27.74 in939.4 mb - 0.00 in0.0 mm 0.53 in13.5 mm
02:16 PM 52.6°F11.4°C 51.5°F10.8°C 96% 4.6 mph SE7.4 kmh SE 6.9 mph11.1 kmh 27.74 in939.4 mb - 0.00 in0.0 mm 0.53 in13.5 mm
02:17 PM 52.5°F11.4°C 51.4°F10.8°C 96% 5.8 mph SE9.3 kmh SE 5.8 mph9.3 kmh 27.74 in939.4 mb - 0.00 in0.0 mm 0.53 in13.5 mm
02:18 PM 52.5°F11.4°C 51.4°F10.8°C 96% 4.6 mph SE7.4 kmh SE 4.6 mph7.4 kmh 27.74 in939.4 mb - 0.00 in0.0 mm 0.53 in13.5 mm
02:19 PM 52.5°F11.4°C 51.4°F10.8°C 96% 3.5 mph SSE5.6 kmh SSE 6.9 mph11.1 kmh 27.74 in939.4 mb - 0.00 in0.0 mm 0.53 in13.5 mm
02:20 PM 52.5°F11.4°C 51.4°F10.8°C 96% 3.5 mph SE5.6 kmh SE 4.6 mph7.4 kmh 27.74 in939.4 mb - 0.00 in0.0 mm 0.53 in13.5 mm
02:21 PM 52.5°F11.4°C 51.4°F10.8°C 96% 3.5 mph SE5.6 kmh SE 4.6 mph7.4 kmh 27.74 in939.4 mb - 0.00 in0.0 mm 0.53 in13.5 mm
02:22 PM 52.5°F11.4°C 51.4°F10.8°C 96% 3.5 mph SW5.6 kmh SW 3.5 mph5.6 kmh 27.74 in939.4 mb - 0.00 in0.0 mm 0.53 in13.5 mm
02:23 PM 52.5°F11.4°C 51.4°F10.8°C 96% 3.5 mph E5.6 kmh E 6.9 mph11.1 kmh 27.74 in939.4 mb - 0.00 in0.0 mm 0.53 in13.5 mm
02:24 PM 52.5°F11.4°C 51.4°F10.8°C 96% 5.8 mph S9.3 kmh S 6.9 mph11.1 kmh 27.74 in939.4 mb - 0.00 in0.0 mm 0.53 in13.5 mm
02:25 PM 52.5°F11.4°C 51.4°F10.8°C 96% 4.6 mph SE7.4 kmh SE 6.9 mph11.1 kmh 27.74 in939.4 mb - 0.00 in0.0 mm 0.53 in13.5 mm
02:26 PM 52.5°F11.4°C 51.4°F10.8°C 96% 3.5 mph S5.6 kmh S 5.8 mph9.3 kmh 27.78 in940.7 mb - 0.00 in0.0 mm 0.53 in13.5 mm
02:27 PM 52.5°F11.4°C 51.4°F10.8°C 96% 4.6 mph SE7.4 kmh SE 6.9 mph11.1 kmh 27.78 in940.7 mb - 0.00 in0.0 mm 0.53 in13.5 mm
02:28 PM 52.3°F11.3°C 51.2°F10.7°C 96% 5.8 mph SSE9.3 kmh SSE 5.8 mph9.3 kmh 27.78 in940.7 mb - 0.00 in0.0 mm 0.53 in13.5 mm
02:29 PM 52.3°F11.3°C 51.2°F10.7°C 96% 4.6 mph S7.4 kmh S 4.6 mph7.4 kmh 27.78 in940.7 mb - 0.00 in0.0 mm 0.53 in13.5 mm
02:30 PM 52.3°F11.3°C 51.2°F10.7°C 96% 3.5 mph SW5.6 kmh SW 5.8 mph9.3 kmh 27.78 in940.7 mb - 0.00 in0.0 mm 0.53 in13.5 mm
02:31 PM 52.3°F11.3°C 51.2°F10.7°C 96% 3.5 mph WSW5.6 kmh WSW 3.5 mph5.6 kmh 27.78 in940.7 mb - 0.00 in0.0 mm 0.53 in13.5 mm
02:32 PM 52.3°F11.3°C 51.2°F10.7°C 96% 3.5 mph SSE5.6 kmh SSE 3.5 mph5.6 kmh 27.78 in940.7 mb - 0.00 in0.0 mm 0.53 in13.5 mm
02:33 PM 52.3°F11.3°C 51.2°F10.7°C 96% 3.5 mph S5.6 kmh S 2.3 mph3.7 kmh 27.78 in940.7 mb - 0.00 in0.0 mm 0.53 in13.5 mm
02:34 PM 52.3°F11.3°C 51.2°F10.7°C 96% 3.5 mph SSE5.6 kmh SSE 5.8 mph9.3 kmh 27.78 in940.7 mb - 0.00 in0.0 mm 0.53 in13.5 mm
02:35 PM 52.3°F11.3°C 51.2°F10.7°C 96% 4.6 mph SSE7.4 kmh SSE 4.6 mph7.4 kmh 27.78 in940.7 mb - 0.00 in0.0 mm 0.53 in13.5 mm
02:36 PM 52.3°F11.3°C 51.2°F10.7°C 96% 4.6 mph SE7.4 kmh SE 5.8 mph9.3 kmh 27.78 in940.7 mb - 0.00 in0.0 mm 0.53 in13.5 mm
02:37 PM 52.3°F11.3°C 51.2°F10.7°C 96% 3.5 mph SE5.6 kmh SE 5.8 mph9.3 kmh 27.78 in940.7 mb - 0.00 in0.0 mm 0.53 in13.5 mm
02:38 PM 52.3°F11.3°C 51.2°F10.7°C 96% 4.6 mph SE7.4 kmh SE 5.8 mph9.3 kmh 27.76 in940.1 mb - 0.00 in0.0 mm 0.53 in13.5 mm
02:39 PM 52.3°F11.3°C 51.2°F10.7°C 96% 4.6 mph S7.4 kmh S 10.4 mph16.7 kmh 27.76 in940.1 mb - 0.00 in0.0 mm 0.53 in13.5 mm
02:40 PM 52.3°F11.3°C 51.2°F10.7°C 96% 6.9 mph SE11.1 kmh SE 10.4 mph16.7 kmh 27.76 in940.1 mb - 0.00 in0.0 mm 0.53 in13.5 mm
02:41 PM 52.3°F11.3°C 51.2°F10.7°C 96% 5.8 mph SSE9.3 kmh SSE 6.9 mph11.1 kmh 27.76 in940.1 mb - 0.00 in0.0 mm 0.53 in13.5 mm
02:42 PM 52.3°F11.3°C 51.2°F10.7°C 96% 4.6 mph S7.4 kmh S 4.6 mph7.4 kmh 27.76 in940.1 mb - 0.00 in0.0 mm 0.53 in13.5 mm
02:43 PM 52.3°F11.3°C 51.2°F10.7°C 96% 4.6 mph SSE7.4 kmh SSE 5.8 mph9.3 kmh 27.76 in940.1 mb - 0.00 in0.0 mm 0.53 in13.5 mm
02:44 PM 52.3°F11.3°C 51.2°F10.7°C 96% 5.8 mph S9.3 kmh S 5.8 mph9.3 kmh 27.76 in940.1 mb - 0.00 in0.0 mm 0.53 in13.5 mm
02:45 PM 52.3°F11.3°C 51.2°F10.7°C 96% 4.6 mph ENE7.4 kmh ENE 5.8 mph9.3 kmh 27.76 in940.1 mb - 0.00 in0.0 mm 0.53 in13.5 mm
02:46 PM 52.5°F11.4°C 51.4°F10.8°C 96% 4.6 mph S7.4 kmh S 5.8 mph9.3 kmh 27.76 in940.1 mb - 0.00 in0.0 mm 0.53 in13.5 mm
02:47 PM 52.5°F11.4°C 51.4°F10.8°C 96% 4.6 mph S7.4 kmh S 6.9 mph11.1 kmh 27.76 in940.1 mb - 0.00 in0.0 mm 0.53 in13.5 mm
02:48 PM 52.5°F11.4°C 51.4°F10.8°C 96% 5.8 mph SSE9.3 kmh SSE 6.9 mph11.1 kmh 27.76 in940.1 mb - 0.00 in0.0 mm 0.53 in13.5 mm
02:49 PM 52.5°F11.4°C 51.4°F10.8°C 96% 3.5 mph SSE5.6 kmh SSE 4.6 mph7.4 kmh 27.76 in940.1 mb - 0.00 in0.0 mm 0.53 in13.5 mm
02:50 PM 52.5°F11.4°C 51.4°F10.8°C 96% 4.6 mph SSE7.4 kmh SSE 5.8 mph9.3 kmh 27.77 in940.4 mb - 0.00 in0.0 mm 0.53 in13.5 mm
02:51 PM 52.5°F11.4°C 51.4°F10.8°C 96% 3.5 mph SE5.6 kmh SE 4.6 mph7.4 kmh 27.77 in940.4 mb - 0.00 in0.0 mm 0.53 in13.5 mm
02:52 PM 52.5°F11.4°C 51.4°F10.8°C 96% 3.5 mph SE5.6 kmh SE 3.5 mph5.6 kmh 27.77 in940.4 mb - 0.00 in0.0 mm 0.53 in13.5 mm
02:53 PM 52.5°F11.4°C 51.4°F10.8°C 96% 3.5 mph SE5.6 kmh SE 4.6 mph7.4 kmh 27.77 in940.4 mb - 0.00 in0.0 mm 0.53 in13.5 mm
02:54 PM 52.5°F11.4°C 51.4°F10.8°C 96% 3.5 mph SSE5.6 kmh SSE 3.5 mph5.6 kmh 27.77 in940.4 mb - 0.00 in0.0 mm 0.53 in13.5 mm
02:55 PM 52.5°F11.4°C 51.4°F10.8°C 96% 3.5 mph S5.6 kmh S 4.6 mph7.4 kmh 27.77 in940.4 mb - 0.00 in0.0 mm 0.53 in13.5 mm
02:56 PM 52.5°F11.4°C 51.4°F10.8°C 96% 3.5 mph SE5.6 kmh SE 5.8 mph9.3 kmh 27.77 in940.4 mb - 0.00 in0.0 mm 0.53 in13.5 mm
02:57 PM 52.5°F11.4°C 51.4°F10.8°C 96% 4.6 mph SSE7.4 kmh SSE 5.8 mph9.3 kmh 27.77 in940.4 mb - 0.00 in0.0 mm 0.53 in13.5 mm
02:58 PM 52.5°F11.4°C 51.4°F10.8°C 96% 3.5 mph S5.6 kmh S 4.6 mph7.4 kmh 27.77 in940.4 mb - 0.00 in0.0 mm 0.53 in13.5 mm
02:59 PM 52.5°F11.4°C 51.4°F10.8°C 96% 3.5 mph SSE5.6 kmh SSE 4.6 mph7.4 kmh 27.77 in940.4 mb - 0.00 in0.0 mm 0.53 in13.5 mm
03:00 PM 52.5°F11.4°C 51.4°F10.8°C 96% 3.5 mph ESE5.6 kmh ESE 4.6 mph7.4 kmh 27.77 in940.4 mb - 0.00 in0.0 mm 0.53 in13.5 mm
03:01 PM 52.5°F11.4°C 51.4°F10.8°C 96% 3.5 mph SE5.6 kmh SE 4.6 mph7.4 kmh 27.77 in940.4 mb - 0.00 in0.0 mm 0.53 in13.5 mm
03:02 PM 52.5°F11.4°C 51.4°F10.8°C 96% 4.6 mph SW7.4 kmh SW 4.6 mph7.4 kmh 27.77 in940.4 mb - 0.00 in0.0 mm 0.53 in13.5 mm
03:03 PM 52.5°F11.4°C 51.4°F10.8°C 96% 3.5 mph SW5.6 kmh SW 4.6 mph7.4 kmh 27.77 in940.4 mb - 0.00 in0.0 mm 0.53 in13.5 mm
03:04 PM 52.5°F11.4°C 51.4°F10.8°C 96% 4.6 mph S7.4 kmh S 5.8 mph9.3 kmh 27.77 in940.4 mb - 0.00 in0.0 mm 0.53 in13.5 mm
03:05 PM 52.5°F11.4°C 51.4°F10.8°C 96% 4.6 mph S7.4 kmh S 6.9 mph11.1 kmh 27.77 in940.4 mb - 0.00 in0.0 mm 0.53 in13.5 mm
03:06 PM 52.5°F11.4°C 51.4°F10.8°C 96% 5.8 mph S9.3 kmh S 5.8 mph9.3 kmh 27.77 in940.4 mb - 0.00 in0.0 mm 0.53 in13.5 mm
03:07 PM 52.5°F11.4°C 51.4°F10.8°C 96% 4.6 mph SW7.4 kmh SW 5.8 mph9.3 kmh 27.77 in940.4 mb - 0.00 in0.0 mm 0.53 in13.5 mm
03:08 PM 52.5°F11.4°C 51.4°F10.8°C 96% 3.5 mph SSE5.6 kmh SSE 5.8 mph9.3 kmh 27.77 in940.4 mb - 0.00 in0.0 mm 0.53 in13.5 mm
03:09 PM 52.5°F11.4°C 51.4°F10.8°C 96% 3.5 mph SSW5.6 kmh SSW 4.6 mph7.4 kmh 27.77 in940.4 mb - 0.00 in0.0 mm 0.53 in13.5 mm
03:10 PM 52.5°F11.4°C 51.4°F10.8°C 96% 3.5 mph S5.6 kmh S 3.5 mph5.6 kmh 27.77 in940.4 mb - 0.00 in0.0 mm 0.53 in13.5 mm
03:11 PM 52.5°F11.4°C 51.4°F10.8°C 96% 2.3 mph WSW3.7 kmh WSW 3.5 mph5.6 kmh 27.77 in940.4 mb - 0.00 in0.0 mm 0.53 in13.5 mm
03:12 PM 52.5°F11.4°C 51.4°F10.8°C 96% 2.3 mph S3.7 kmh S 3.5 mph5.6 kmh 27.77 in940.4 mb - 0.00 in0.0 mm 0.53 in13.5 mm
03:13 PM 52.5°F11.4°C 51.4°F10.8°C 96% 3.5 mph SSW5.6 kmh SSW 4.6 mph7.4 kmh 27.76 in940.1 mb - 0.00 in0.0 mm 0.53 in13.5 mm
03:14 PM 52.5°F11.4°C 51.4°F10.8°C 96% 3.5 mph S5.6 kmh S 4.6 mph7.4 kmh 27.76 in940.1 mb - 0.00 in0.0 mm 0.53 in13.5 mm
03:15 PM 52.5°F11.4°C 51.4°F10.8°C 96% 2.3 mph S3.7 kmh S 5.8 mph9.3 kmh 27.76 in940.1 mb - 0.00 in0.0 mm 0.53 in13.5 mm
03:16 PM 52.5°F11.4°C 51.4°F10.8°C 96% 3.5 mph SSE5.6 kmh SSE 5.8 mph9.3 kmh 27.76 in940.1 mb - 0.00 in0.0 mm 0.53 in13.5 mm
03:17 PM 52.5°F11.4°C 51.4°F10.8°C 96% 2.3 mph SSW3.7 kmh SSW 5.8 mph9.3 kmh 27.76 in940.1 mb - 0.00 in0.0 mm 0.53 in13.5 mm
03:18 PM 52.5°F11.4°C 51.4°F10.8°C 96% 3.5 mph S5.6 kmh S 5.8 mph9.3 kmh 27.76 in940.1 mb - 0.01 in0.3 mm 0.54 in13.7 mm
03:19 PM 52.5°F11.4°C 51.4°F10.8°C 96% 2.3 mph SW3.7 kmh SW 3.5 mph5.6 kmh 27.76 in940.1 mb - 0.01 in0.3 mm 0.54 in13.7 mm
03:20 PM 52.5°F11.4°C 51.4°F10.8°C 96% 2.3 mph SW3.7 kmh SW 3.5 mph5.6 kmh 27.76 in940.1 mb - 0.01 in0.3 mm 0.55 in14.0 mm
03:21 PM 52.5°F11.4°C 51.4°F10.8°C 96% 2.3 mph W3.7 kmh W 3.5 mph5.6 kmh 27.76 in940.1 mb - 0.01 in0.3 mm 0.55 in14.0 mm
03:22 PM 52.5°F11.4°C 51.4°F10.8°C 96% 2.3 mph SSE3.7 kmh SSE 3.5 mph5.6 kmh 27.76 in940.1 mb - 0.01 in0.3 mm 0.56 in14.2 mm
03:23 PM 52.5°F11.4°C 51.4°F10.8°C 96% 2.3 mph SSW3.7 kmh SSW 3.5 mph5.6 kmh 27.76 in940.1 mb - 0.01 in0.3 mm 0.56 in14.2 mm
03:24 PM 52.6°F11.4°C 51.7°F10.9°C 97% 2.3 mph SW3.7 kmh SW 2.3 mph3.7 kmh 27.76 in940.1 mb - 0.00 in0.0 mm 0.56 in14.2 mm
03:25 PM 52.7°F11.5°C 51.9°F11.1°C 97% Calm Calm 1.2 mph1.9 kmh 27.76 in940.1 mb - 0.00 in0.0 mm 0.56 in14.2 mm
03:26 PM 52.7°F11.5°C 51.9°F11.1°C 97% 1.2 mph SW1.9 kmh SW 3.5 mph5.6 kmh 27.76 in940.1 mb - 0.00 in0.0 mm 0.56 in14.2 mm
03:27 PM 52.7°F11.5°C 51.9°F11.1°C 97% 3.5 mph SSE5.6 kmh SSE 3.5 mph5.6 kmh 27.76 in940.1 mb - 0.00 in0.0 mm 0.56 in14.2 mm
03:28 PM 52.7°F11.5°C 51.9°F11.1°C 97% 3.5 mph SE5.6 kmh SE 4.6 mph7.4 kmh 27.76 in940.1 mb - 0.00 in0.0 mm 0.56 in14.2 mm
03:29 PM 52.7°F11.5°C 51.9°F11.1°C 97% 2.3 mph SE3.7 kmh SE 2.3 mph3.7 kmh 27.76 in940.1 mb - 0.00 in0.0 mm 0.56 in14.2 mm
03:30 PM 52.7°F11.5°C 51.9°F11.1°C 97% 1.2 mph SW1.9 kmh SW 3.5 mph5.6 kmh 27.76 in940.1 mb - 0.00 in0.0 mm 0.56 in14.2 mm
03:31 PM 52.7°F11.5°C 51.9°F11.1°C 97% 2.3 mph S3.7 kmh S 3.5 mph5.6 kmh 27.76 in940.1 mb - 0.00 in0.0 mm 0.56 in14.2 mm
03:32 PM 52.8°F11.6°C 51.9°F11.1°C 97% 2.3 mph SE3.7 kmh SE 1.2 mph1.9 kmh 27.76 in940.1 mb - 0.00 in0.0 mm 0.56 in14.2 mm
03:33 PM 52.9°F11.6°C 52.1°F11.2°C 97% Calm Calm -- 27.76 in940.1 mb - 0.00 in0.0 mm 0.56 in14.2 mm
03:34 PM 52.9°F11.6°C 52.1°F11.2°C 97% Calm Calm -- 27.76 in940.1 mb - 0.00 in0.0 mm 0.56 in14.2 mm
03:35 PM 52.9°F11.6°C 52.1°F11.2°C 97% Calm Calm -- 27.76 in940.1 mb - 0.00 in0.0 mm 0.56 in14.2 mm
03:36 PM 52.9°F11.6°C 52.1°F11.2°C 97% Calm Calm -- 27.76 in940.1 mb - 0.00 in0.0 mm 0.56 in14.2 mm
03:37 PM 53.0°F11.7°C 52.1°F11.2°C 97% Calm Calm -- 27.77 in940.4 mb - 0.00 in0.0 mm 0.56 in14.2 mm
03:38 PM 53.1°F11.7°C 52.3°F11.3°C 97% Calm Calm 5.8 mph9.3 kmh 27.77 in940.4 mb - 0.00 in0.0 mm 0.56 in14.2 mm
03:39 PM 53.2°F11.8°C 52.4°F11.3°C 97% 2.3 mph ESE3.7 kmh ESE 5.8 mph9.3 kmh 27.77 in940.4 mb - 0.00 in0.0 mm 0.56 in14.2 mm
03:40 PM 53.4°F11.9°C 52.6°F11.4°C 97% 2.3 mph ESE3.7 kmh ESE 1.2 mph1.9 kmh 27.77 in940.4 mb - 0.00 in0.0 mm 0.56 in14.2 mm
03:41 PM 53.5°F11.9°C 53.0°F11.7°C 98% 1.2 mph SE1.9 kmh SE 1.2 mph1.9 kmh 27.77 in940.4 mb - 0.00 in0.0 mm 0.56 in14.2 mm
03:42 PM 53.6°F12.0°C 53.0°F11.7°C 98% 1.2 mph SSE1.9 kmh SSE 2.3 mph3.7 kmh 27.77 in940.4 mb - 0.00 in0.0 mm 0.56 in14.2 mm
03:43 PM 53.4°F11.9°C 52.9°F11.6°C 98% 1.2 mph ESE1.9 kmh ESE 2.3 mph3.7 kmh 27.77 in940.4 mb - 0.00 in0.0 mm 0.56 in14.2 mm
03:44 PM 53.4°F11.9°C 52.8°F11.6°C 98% 2.3 mph ESE3.7 kmh ESE 2.3 mph3.7 kmh 27.77 in940.4 mb - 0.00 in0.0 mm 0.56 in14.2 mm
03:45 PM 53.5°F11.9°C 52.9°F11.6°C 98% 2.3 mph SSE3.7 kmh SSE 2.3 mph3.7 kmh 27.77 in940.4 mb - 0.00 in0.0 mm 0.56 in14.2 mm
03:46 PM 53.6°F12.0°C 53.0°F11.7°C 98% 1.2 mph SE1.9 kmh SE 3.5 mph5.6 kmh 27.77 in940.4 mb - 0.00 in0.0 mm 0.56 in14.2 mm
03:47 PM 53.6°F12.0°C 53.0°F11.7°C 98% 1.2 mph S1.9 kmh S 3.5 mph5.6 kmh 27.77 in940.4 mb - 0.00 in0.0 mm 0.56 in14.2 mm
03:48 PM 53.6°F12.0°C 53.0°F11.7°C 98% 2.3 mph WSW3.7 kmh WSW 3.5 mph5.6 kmh 27.77 in940.4 mb - 0.00 in0.0 mm 0.56 in14.2 mm
03:49 PM 53.6°F12.0°C 53.0°F11.7°C 98% 3.5 mph S5.6 kmh S 3.5 mph5.6 kmh 27.77 in940.4 mb - 0.00 in0.0 mm 0.56 in14.2 mm
03:50 PM 53.4°F11.9°C 52.8°F11.6°C 98% 3.5 mph S5.6 kmh S 2.3 mph3.7 kmh 27.77 in940.4 mb - 0.00 in0.0 mm 0.56 in14.2 mm
03:51 PM 53.4°F11.9°C 52.8°F11.6°C 98% 2.3 mph SW3.7 kmh SW 2.3 mph3.7 kmh 27.77 in940.4 mb - 0.00 in0.0 mm 0.56 in14.2 mm
03:52 PM 53.4°F11.9°C 52.8°F11.6°C 98% 1.2 mph S1.9 kmh S 2.3 mph3.7 kmh 27.77 in940.4 mb - 0.00 in0.0 mm 0.56 in14.2 mm
03:53 PM 53.4°F11.9°C 52.8°F11.6°C 98% 2.3 mph S3.7 kmh S 2.3 mph3.7 kmh 27.77 in940.4 mb - 0.00 in0.0 mm 0.56 in14.2 mm
03:54 PM 53.4°F11.9°C 52.8°F11.6°C 98% 2.3 mph S3.7 kmh S 2.3 mph3.7 kmh 27.77 in940.4 mb - 0.00 in0.0 mm 0.56 in14.2 mm
03:55 PM 53.4°F11.9°C 52.8°F11.6°C 98% 2.3 mph SW3.7 kmh SW 4.6 mph7.4 kmh 27.77 in940.4 mb - 0.00 in0.0 mm 0.56 in14.2 mm
03:56 PM 53.4°F11.9°C 52.8°F11.6°C 98% 3.5 mph W5.6 kmh W 4.6 mph7.4 kmh 27.77 in940.4 mb - 0.00 in0.0 mm 0.56 in14.2 mm
03:57 PM 53.4°F11.9°C 52.8°F11.6°C 98% 5.8 mph NW9.3 kmh NW 9.2 mph14.8 kmh 27.77 in940.4 mb - 0.00 in0.0 mm 0.56 in14.2 mm
03:58 PM 53.3°F11.8°C 52.4°F11.3°C 97% 8.1 mph NW13.0 kmh NW 10.4 mph16.7 kmh 27.77 in940.4 mb - 0.00 in0.0 mm 0.56 in14.2 mm
03:59 PM 52.9°F11.6°C 52.1°F11.2°C 97% 6.9 mph WNW11.1 kmh WNW 10.4 mph16.7 kmh 27.77 in940.4 mb - 0.00 in0.0 mm 0.56 in14.2 mm
04:00 PM 52.5°F11.4°C 51.7°F10.9°C 97% 6.9 mph WSW11.1 kmh WSW 6.9 mph11.1 kmh 27.77 in940.4 mb - 0.00 in0.0 mm 0.56 in14.2 mm
04:01 PM 52.2°F11.2°C 51.1°F10.6°C 96% 6.9 mph WSW11.1 kmh WSW 9.2 mph14.8 kmh 27.77 in940.4 mb - 0.00 in0.0 mm 0.56 in14.2 mm
04:02 PM 52.0°F11.1°C 50.9°F10.5°C 96% 4.6 mph W7.4 kmh W 8.1 mph13.0 kmh 27.77 in940.4 mb - 0.00 in0.0 mm 0.56 in14.2 mm
04:03 PM 51.8°F11.0°C 50.7°F10.4°C 96% 4.6 mph WSW7.4 kmh WSW 5.8 mph9.3 kmh 27.77 in940.4 mb - 0.00 in0.0 mm 0.56 in14.2 mm
04:04 PM 51.7°F10.9°C 50.6°F10.3°C 96% 4.6 mph W7.4 kmh W 5.8 mph9.3 kmh 27.77 in940.4 mb - 0.00 in0.0 mm 0.56 in14.2 mm
04:05 PM 51.4°F10.8°C 50.3°F10.2°C 96% 5.8 mph WSW9.3 kmh WSW 5.8 mph9.3 kmh 27.77 in940.4 mb - 0.00 in0.0 mm 0.56 in14.2 mm
04:06 PM 51.4°F10.8°C 50.3°F10.2°C 96% 3.5 mph WNW5.6 kmh WNW 5.8 mph9.3 kmh 27.77 in940.4 mb - 0.00 in0.0 mm 0.56 in14.2 mm
04:07 PM 51.3°F10.7°C 50.2°F10.1°C 96% 4.6 mph SW7.4 kmh SW 5.8 mph9.3 kmh 27.77 in940.4 mb - 0.00 in0.0 mm 0.56 in14.2 mm
04:08 PM 51.1°F10.6°C 50.0°F10.0°C 96% 4.6 mph NW7.4 kmh NW 4.6 mph7.4 kmh 27.77 in940.4 mb - 0.00 in0.0 mm 0.56 in14.2 mm
04:09 PM 51.0°F10.6°C 49.9°F9.9°C 96% 5.8 mph NNW9.3 kmh NNW 10.4 mph16.7 kmh 27.77 in940.4 mb - 0.00 in0.0 mm 0.56 in14.2 mm
04:10 PM 50.9°F10.5°C 49.8°F9.9°C 96% 6.9 mph NE11.1 kmh NE 6.9 mph11.1 kmh 27.77 in940.4 mb - 0.00 in0.0 mm 0.56 in14.2 mm
04:11 PM 50.7°F10.4°C 49.6°F9.8°C 96% 6.9 mph NW11.1 kmh NW 9.2 mph14.8 kmh 27.77 in940.4 mb - 0.00 in0.0 mm 0.56 in14.2 mm
04:12 PM 50.5°F10.3°C 49.4°F9.7°C 96% 5.8 mph W9.3 kmh W 6.9 mph11.1 kmh 27.77 in940.4 mb - 0.00 in0.0 mm 0.56 in14.2 mm
04:13 PM 50.5°F10.3°C 49.4°F9.7°C 96% 5.8 mph W9.3 kmh W 6.9 mph11.1 kmh 27.77 in940.4 mb - 0.00 in0.0 mm 0.56 in14.2 mm
04:14 PM 50.4°F10.2°C 49.3°F9.6°C 96% 5.8 mph NW9.3 kmh NW 5.8 mph9.3 kmh 27.78 in940.7 mb - 0.01 in0.3 mm 0.57 in14.5 mm
04:15 PM 50.2°F10.1°C 49.1°F9.5°C 96% 5.8 mph WSW9.3 kmh WSW 6.9 mph11.1 kmh 27.78 in940.7 mb - 0.01 in0.3 mm 0.57 in14.5 mm
04:16 PM 50.2°F10.1°C 49.1°F9.5°C 96% 4.6 mph WNW7.4 kmh WNW 6.9 mph11.1 kmh 27.78 in940.7 mb - 0.00 in0.0 mm 0.57 in14.5 mm
04:17 PM 50.2°F10.1°C 49.1°F9.5°C 96% 5.8 mph NW9.3 kmh NW 6.9 mph11.1 kmh 27.78 in940.7 mb - 0.00 in0.0 mm 0.57 in14.5 mm
04:18 PM 50.0°F10.0°C 48.9°F9.4°C 96% 5.8 mph NE9.3 kmh NE 5.8 mph9.3 kmh 27.78 in940.7 mb - 0.00 in0.0 mm 0.57 in14.5 mm
04:19 PM 50.0°F10.0°C 48.9°F9.4°C 96% 4.6 mph W7.4 kmh W 5.8 mph9.3 kmh 27.78 in940.7 mb - 0.00 in0.0 mm 0.57 in14.5 mm
04:20 PM 50.0°F10.0°C 48.9°F9.4°C 96% 3.5 mph NW5.6 kmh NW 3.5 mph5.6 kmh 27.78 in940.7 mb - 0.00 in0.0 mm 0.57 in14.5 mm
04:21 PM 50.0°F10.0°C 48.9°F9.4°C 96% 3.5 mph W5.6 kmh W 6.9 mph11.1 kmh 27.78 in940.7 mb - 0.00 in0.0 mm 0.57 in14.5 mm
04:22 PM 50.0°F10.0°C 48.9°F9.4°C 96% 5.8 mph WNW9.3 kmh WNW 6.9 mph11.1 kmh 27.78 in940.7 mb - 0.00 in0.0 mm 0.57 in14.5 mm
04:23 PM 50.0°F10.0°C 48.9°F9.4°C 96% 3.5 mph NNW5.6 kmh NNW 5.8 mph9.3 kmh 27.78 in940.7 mb - 0.00 in0.0 mm 0.57 in14.5 mm
04:24 PM 50.0°F10.0°C 48.9°F9.4°C 96% 5.8 mph WNW9.3 kmh WNW 10.4 mph16.7 kmh 27.78 in940.7 mb - 0.00 in0.0 mm 0.57 in14.5 mm
04:25 PM 49.8°F9.9°C 48.7°F9.3°C 96% 5.8 mph WSW9.3 kmh WSW 5.8 mph9.3 kmh 27.78 in940.7 mb - 0.00 in0.0 mm 0.57 in14.5 mm
04:26 PM 49.8°F9.9°C 48.7°F9.3°C 96% 4.6 mph NW7.4 kmh NW 5.8 mph9.3 kmh 27.79 in941.1 mb - 0.00 in0.0 mm 0.57 in14.5 mm
04:27 PM 49.8°F9.9°C 48.7°F9.3°C 96% 5.8 mph N9.3 kmh N 6.9 mph11.1 kmh 27.79 in941.1 mb - 0.00 in0.0 mm 0.57 in14.5 mm
04:28 PM 49.6°F9.8°C 48.5°F9.2°C 96% 5.8 mph W9.3 kmh W 6.9 mph11.1 kmh 27.79 in941.1 mb - 0.00 in0.0 mm 0.57 in14.5 mm
04:29 PM 49.5°F9.7°C 48.5°F9.2°C 96% 5.8 mph NW9.3 kmh NW 6.9 mph11.1 kmh 27.79 in941.1 mb - 0.00 in0.0 mm 0.57 in14.5 mm
04:30 PM 49.5°F9.7°C 48.4°F9.1°C 96% 5.8 mph W9.3 kmh W 6.9 mph11.1 kmh 27.79 in941.1 mb - 0.00 in0.0 mm 0.57 in14.5 mm
04:31 PM 49.5°F9.7°C 48.4°F9.1°C 96% 4.6 mph WNW7.4 kmh WNW 4.6 mph7.4 kmh 27.79 in941.1 mb - 0.00 in0.0 mm 0.57 in14.5 mm
04:32 PM 49.5°F9.7°C 48.4°F9.1°C 96% 3.5 mph SW5.6 kmh SW 3.5 mph5.6 kmh 27.79 in941.1 mb - 0.00 in0.0 mm 0.57 in14.5 mm
04:33 PM 49.5°F9.7°C 48.4°F9.1°C 96% 2.3 mph NW3.7 kmh NW 2.3 mph3.7 kmh 27.79 in941.1 mb - 0.00 in0.0 mm 0.57 in14.5 mm
04:34 PM 49.5°F9.7°C 48.4°F9.1°C 96% 2.3 mph WSW3.7 kmh WSW 5.8 mph9.3 kmh 27.79 in941.1 mb - 0.00 in0.0 mm 0.57 in14.5 mm
04:35 PM 49.4°F9.7°C 48.4°F9.1°C 96% 4.6 mph WNW7.4 kmh WNW 5.8 mph9.3 kmh 27.79 in941.1 mb - 0.00 in0.0 mm 0.57 in14.5 mm
04:36 PM 49.3°F9.6°C 48.2°F9.0°C 96% 4.6 mph NNW7.4 kmh NNW 5.8 mph9.3 kmh 27.79 in941.1 mb - 0.00 in0.0 mm 0.57 in14.5 mm
04:37 PM 49.2°F9.6°C 48.1°F8.9°C 96% 5.8 mph SW9.3 kmh SW 6.9 mph11.1 kmh 27.79 in941.1 mb - 0.00 in0.0 mm 0.57 in14.5 mm
04:38 PM 49.1°F9.5°C 47.7°F8.7°C 95% 4.6 mph WSW7.4 kmh WSW 4.6 mph7.4 kmh 27.80 in941.4 mb - 0.00 in0.0 mm 0.57 in14.5 mm
04:39 PM 49.1°F9.5°C 47.7°F8.7°C 95% 3.5 mph WNW5.6 kmh WNW 4.6 mph7.4 kmh 27.80 in941.4 mb - 0.00 in0.0 mm 0.57 in14.5 mm
04:40 PM 49.1°F9.5°C 47.7°F8.7°C 95% 3.5 mph NW5.6 kmh NW 5.8 mph9.3 kmh 27.80 in941.4 mb - 0.00 in0.0 mm 0.57 in14.5 mm
04:41 PM 49.1°F9.5°C 47.7°F8.7°C 95% 5.8 mph NNW9.3 kmh NNW 6.9 mph11.1 kmh 27.80 in941.4 mb - 0.00 in0.0 mm 0.57 in14.5 mm
04:42 PM 49.1°F9.5°C 47.7°F8.7°C 95% 3.5 mph W5.6 kmh W 3.5 mph5.6 kmh 27.80 in941.4 mb - 0.00 in0.0 mm 0.57 in14.5 mm
04:43 PM 49.1°F9.5°C 47.7°F8.7°C 95% 3.5 mph NW5.6 kmh NW 5.8 mph9.3 kmh 27.80 in941.4 mb - 0.00 in0.0 mm 0.57 in14.5 mm
04:44 PM 48.8°F9.3°C 47.4°F8.6°C 95% 4.6 mph W7.4 kmh W 5.8 mph9.3 kmh 27.80 in941.4 mb - 0.00 in0.0 mm 0.57 in14.5 mm
04:45 PM 48.7°F9.3°C 47.3°F8.5°C 95% 4.6 mph W7.4 kmh W 5.8 mph9.3 kmh 27.80 in941.4 mb - 0.00 in0.0 mm 0.57 in14.5 mm
04:46 PM 48.7°F9.3°C 47.3°F8.5°C 95% 3.5 mph NW5.6 kmh NW 2.3 mph3.7 kmh 27.80 in941.4 mb - 0.00 in0.0 mm 0.57 in14.5 mm
04:47 PM 48.7°F9.3°C 47.3°F8.5°C 95% 2.3 mph W3.7 kmh W 3.5 mph5.6 kmh 27.80 in941.4 mb - 0.00 in0.0 mm 0.57 in14.5 mm
04:48 PM 48.7°F9.3°C 47.3°F8.5°C 95% 3.5 mph NNW5.6 kmh NNW 8.1 mph13.0 kmh 27.80 in941.4 mb - 0.00 in0.0 mm 0.57 in14.5 mm
04:49 PM 48.6°F9.2°C 47.2°F8.4°C 95% 4.6 mph NW7.4 kmh NW 5.8 mph9.3 kmh 27.80 in941.4 mb - 0.00 in0.0 mm 0.57 in14.5 mm
04:50 PM 48.4°F9.1°C 47.0°F8.3°C 95% 3.5 mph W5.6 kmh W 3.5 mph5.6 kmh 27.80 in941.4 mb - 0.00 in0.0 mm 0.57 in14.5 mm
04:51 PM 48.4°F9.1°C 47.0°F8.3°C 95% 2.3 mph NNW3.7 kmh NNW 4.6 mph7.4 kmh 27.80 in941.4 mb - 0.00 in0.0 mm 0.57 in14.5 mm
04:52 PM 48.4°F9.1°C 47.0°F8.3°C 95% 3.5 mph NW5.6 kmh NW 6.9 mph11.1 kmh 27.80 in941.4 mb - 0.00 in0.0 mm 0.57 in14.5 mm
04:53 PM 48.2°F9.0°C 46.8°F8.2°C 95% 5.8 mph NNW9.3 kmh NNW 6.9 mph11.1 kmh 27.80 in941.4 mb - 0.00 in0.0 mm 0.57 in14.5 mm
04:54 PM 47.9°F8.8°C 46.5°F8.1°C 95% 5.8 mph NNW9.3 kmh NNW 8.1 mph13.0 kmh 27.80 in941.4 mb - 0.00 in0.0 mm 0.57 in14.5 mm
04:55 PM 47.8°F8.8°C 46.4°F8.0°C 95% 5.8 mph NW9.3 kmh NW 8.1 mph13.0 kmh 27.80 in941.4 mb - 0.00 in0.0 mm 0.57 in14.5 mm
04:56 PM 47.7°F8.7°C 46.3°F7.9°C 95% 4.6 mph W7.4 kmh W 4.6 mph7.4 kmh 27.80 in941.4 mb - 0.00 in0.0 mm 0.57 in14.5 mm
04:57 PM 47.7°F8.7°C 46.3°F7.9°C 95% 4.6 mph NW7.4 kmh NW 6.9 mph11.1 kmh 27.80 in941.4 mb - 0.00 in0.0 mm 0.57 in14.5 mm
04:58 PM 47.5°F8.6°C 46.1°F7.8°C 95% 5.8 mph WNW9.3 kmh WNW 6.9 mph11.1 kmh 27.80 in941.4 mb - 0.00 in0.0 mm 0.57 in14.5 mm
04:59 PM 47.4°F8.6°C 46.1°F7.8°C 95% 5.8 mph W9.3 kmh W 9.2 mph14.8 kmh 27.80 in941.4 mb - 0.00 in0.0 mm 0.57 in14.5 mm
05:00 PM 47.3°F8.5°C 45.9°F7.7°C 95% 6.9 mph WSW11.1 kmh WSW 9.2 mph14.8 kmh 27.80 in941.4 mb - 0.00 in0.0 mm 0.57 in14.5 mm
05:01 PM 47.2°F8.4°C 45.8°F7.7°C 95% 5.8 mph SW9.3 kmh SW 5.8 mph9.3 kmh 27.80 in941.4 mb - 0.00 in0.0 mm 0.57 in14.5 mm
05:02 PM 47.1°F8.4°C 46.0°F7.8°C 96% 3.5 mph WNW5.6 kmh WNW 10.4 mph16.7 kmh 27.80 in941.4 mb - 0.00 in0.0 mm 0.57 in14.5 mm
05:03 PM 47.0°F8.3°C 45.9°F7.7°C 96% 6.9 mph N11.1 kmh N 10.4 mph16.7 kmh 27.80 in941.4 mb - 0.00 in0.0 mm 0.57 in14.5 mm
05:04 PM 46.9°F8.3°C 45.8°F7.7°C 96% 4.6 mph NW7.4 kmh NW 5.8 mph9.3 kmh 27.80 in941.4 mb - 0.00 in0.0 mm 0.57 in14.5 mm
05:05 PM 46.9°F8.3°C 45.8°F7.7°C 96% 4.6 mph NNW7.4 kmh NNW 6.9 mph11.1 kmh 27.80 in941.4 mb - 0.00 in0.0 mm 0.57 in14.5 mm
05:06 PM 46.8°F8.2°C 45.7°F7.6°C 96% 5.8 mph W9.3 kmh W 6.9 mph11.1 kmh 27.80 in941.4 mb - 0.00 in0.0 mm 0.57 in14.5 mm
05:07 PM 46.8°F8.2°C 45.7°F7.6°C 96% 5.8 mph W9.3 kmh W 5.8 mph9.3 kmh 27.80 in941.4 mb - 0.00 in0.0 mm 0.57 in14.5 mm
05:08 PM 46.6°F8.1°C 45.6°F7.6°C 96% 6.9 mph W11.1 kmh W 10.4 mph16.7 kmh 27.80 in941.4 mb - 0.00 in0.0 mm 0.57 in14.5 mm
05:09 PM 46.4°F8.0°C 45.3°F7.4°C 96% 8.1 mph WNW13.0 kmh WNW 10.4 mph16.7 kmh 27.80 in941.4 mb - 0.00 in0.0 mm 0.57 in14.5 mm
05:10 PM 46.2°F7.9°C 45.1°F7.3°C 96% 6.9 mph WNW11.1 kmh WNW 10.4 mph16.7 kmh 27.80 in941.4 mb - 0.00 in0.0 mm 0.57 in14.5 mm
05:11 PM 46.1°F7.8°C 45.0°F7.2°C 96% 5.8 mph WNW9.3 kmh WNW 6.9 mph11.1 kmh 27.80 in941.4 mb - 0.00 in0.0 mm 0.57 in14.5 mm
05:12 PM 46.0°F7.8°C 44.9°F7.2°C 96% 6.9 mph NNW11.1 kmh NNW 9.2 mph14.8 kmh 27.80 in941.4 mb - 0.00 in0.0 mm 0.57 in14.5 mm
05:13 PM 45.9°F7.7°C 44.8°F7.1°C 96% 6.9 mph NNW11.1 kmh NNW 9.2 mph14.8 kmh 27.80 in941.4 mb - 0.00 in0.0 mm 0.57 in14.5 mm
05:14 PM 45.6°F7.6°C 44.5°F6.9°C 96% 9.2 mph WNW14.8 kmh WNW 11.5 mph18.5 kmh 27.81 in941.8 mb - 0.00 in0.0 mm 0.57 in14.5 mm
05:15 PM 45.3°F7.4°C 44.2°F6.8°C 96% 10.4 mph W16.7 kmh W 13.8 mph22.2 kmh 27.81 in941.8 mb - 0.00 in0.0 mm 0.57 in14.5 mm
05:16 PM 45.3°F7.4°C 44.2°F6.8°C 96% 8.1 mph W13.0 kmh W 9.2 mph14.8 kmh 27.81 in941.8 mb - 0.00 in0.0 mm 0.57 in14.5 mm
05:17 PM 45.0°F7.2°C 43.9°F6.6°C 96% 5.8 mph WSW9.3 kmh WSW 6.9 mph11.1 kmh 27.81 in941.8 mb - 0.00 in0.0 mm 0.57 in14.5 mm
05:18 PM 44.9°F7.2°C 43.9°F6.6°C 96% 6.9 mph NW11.1 kmh NW 10.4 mph16.7 kmh 27.81 in941.8 mb - 0.00 in0.0 mm 0.57 in14.5 mm
05:19 PM 44.8°F7.1°C 43.7°F6.5°C 96% 8.1 mph WNW13.0 kmh WNW 9.2 mph14.8 kmh 27.81 in941.8 mb - 0.00 in0.0 mm 0.57 in14.5 mm
05:20 PM 44.6°F7.0°C 43.6°F6.4°C 96% 9.2 mph WNW14.8 kmh WNW 15.0 mph24.1 kmh 27.81 in941.8 mb - 0.00 in0.0 mm 0.57 in14.5 mm
05:21 PM 43.9°F6.6°C 42.9°F6.1°C 96% 8.1 mph WSW13.0 kmh WSW 10.4 mph16.7 kmh 27.81 in941.8 mb - 0.00 in0.0 mm 0.57 in14.5 mm
05:22 PM 43.6°F6.4°C 42.5°F5.8°C 96% 9.2 mph WSW14.8 kmh WSW 11.5 mph18.5 kmh 27.81 in941.8 mb - 0.00 in0.0 mm 0.57 in14.5 mm
05:23 PM 43.3°F6.3°C 42.3°F5.7°C 96% 6.9 mph SW11.1 kmh SW 10.4 mph16.7 kmh 27.81 in941.8 mb - 0.00 in0.0 mm 0.57 in14.5 mm
05:24 PM 43.2°F6.2°C 42.1°F5.6°C 96% 9.2 mph W14.8 kmh W 16.1 mph25.9 kmh 27.81 in941.8 mb - 0.00 in0.0 mm 0.57 in14.5 mm
05:25 PM 42.8°F6.0°C 41.7°F5.4°C 96% 10.4 mph W16.7 kmh W 13.8 mph22.2 kmh 27.84 in942.8 mb - 0.00 in0.0 mm 0.57 in14.5 mm
05:26 PM 42.2°F5.7°C 41.2°F5.1°C 96% 11.5 mph NW18.5 kmh NW 13.8 mph22.2 kmh 27.84 in942.8 mb - 0.00 in0.0 mm 0.57 in14.5 mm
05:27 PM 41.7°F5.4°C 40.7°F4.8°C 96% 12.7 mph NNW20.4 kmh NNW 16.1 mph25.9 kmh 27.84 in942.8 mb - 0.00 in0.0 mm 0.57 in14.5 mm
05:28 PM 41.4°F5.2°C 40.3°F4.6°C 96% 12.7 mph WNW20.4 kmh WNW 11.5 mph18.5 kmh 27.84 in942.8 mb - 0.00 in0.0 mm 0.57 in14.5 mm
05:29 PM 41.0°F5.0°C 40.0°F4.4°C 96% 10.4 mph WSW16.7 kmh WSW 12.7 mph20.4 kmh 27.84 in942.8 mb - 0.00 in0.0 mm 0.57 in14.5 mm
05:30 PM 40.6°F4.8°C 39.5°F4.2°C 96% 10.4 mph W16.7 kmh W 13.8 mph22.2 kmh 27.84 in942.8 mb - 0.00 in0.0 mm 0.57 in14.5 mm
05:31 PM 40.2°F4.6°C 39.2°F4.0°C 96% 12.7 mph W20.4 kmh W 21.9 mph35.2 kmh 27.84 in942.8 mb - 0.00 in0.0 mm 0.57 in14.5 mm
05:32 PM 39.8°F4.3°C 38.7°F3.7°C 96% 13.8 mph WNW22.2 kmh WNW 17.3 mph27.8 kmh 27.84 in942.8 mb - 0.00 in0.0 mm 0.57 in14.5 mm
05:33 PM 39.6°F4.2°C 38.6°F3.7°C 96% 10.4 mph NW16.7 kmh NW 12.7 mph20.4 kmh 27.84 in942.8 mb - 0.00 in0.0 mm 0.57 in14.5 mm
05:34 PM 39.4°F4.1°C 38.4°F3.6°C 96% 10.4 mph NW16.7 kmh NW 19.6 mph31.5 kmh 27.84 in942.8 mb - 0.00 in0.0 mm 0.57 in14.5 mm
05:35 PM 39.1°F3.9°C 38.1°F3.4°C 96% 13.8 mph NW22.2 kmh NW 19.6 mph31.5 kmh 27.84 in942.8 mb - 0.00 in0.0 mm 0.57 in14.5 mm
05:36 PM 38.9°F3.8°C 37.8°F3.2°C 96% 11.5 mph SW18.5 kmh SW 16.1 mph25.9 kmh 27.84 in942.8 mb - 0.00 in0.0 mm 0.57 in14.5 mm
05:37 PM 38.6°F3.7°C 37.6°F3.1°C 96% 13.8 mph W22.2 kmh W 17.3 mph27.8 kmh 27.85 in943.1 mb - 0.00 in0.0 mm 0.57 in14.5 mm
05:38 PM 38.5°F3.6°C 37.5°F3.1°C 96% 11.5 mph WNW18.5 kmh WNW 18.4 mph29.6 kmh 27.85 in943.1 mb - 0.00 in0.0 mm 0.57 in14.5 mm
05:39 PM 38.4°F3.6°C 37.3°F2.9°C 96% 15.0 mph W24.1 kmh W 18.4 mph29.6 kmh 27.85 in943.1 mb - 0.00 in0.0 mm 0.57 in14.5 mm
05:40 PM 38.3°F3.5°C 37.2°F2.9°C 96% 8.1 mph NW13.0 kmh NW 10.4 mph16.7 kmh 27.85 in943.1 mb - 0.00 in0.0 mm 0.57 in14.5 mm
05:41 PM 38.1°F3.4°C 37.1°F2.8°C 96% 10.4 mph NW16.7 kmh NW 11.5 mph18.5 kmh 27.85 in943.1 mb - 0.00 in0.0 mm 0.57 in14.5 mm
05:42 PM 38.0°F3.3°C 37.0°F2.8°C 96% 10.4 mph WNW16.7 kmh WNW 15.0 mph24.1 kmh 27.85 in943.1 mb - 0.00 in0.0 mm 0.57 in14.5 mm
05:43 PM 37.9°F3.3°C 36.8°F2.7°C 96% 13.8 mph NNW22.2 kmh NNW 15.0 mph24.1 kmh 27.85 in943.1 mb - 0.00 in0.0 mm 0.57 in14.5 mm
05:44 PM 37.8°F3.2°C 36.8°F2.7°C 96% 12.7 mph W20.4 kmh W 13.8 mph22.2 kmh 27.85 in943.1 mb - 0.00 in0.0 mm 0.57 in14.5 mm
05:45 PM 37.8°F3.2°C 36.8°F2.7°C 96% 10.4 mph W16.7 kmh W 9.2 mph14.8 kmh 27.85 in943.1 mb - 0.00 in0.0 mm 0.57 in14.5 mm
05:46 PM 37.6°F3.1°C 36.6°F2.6°C 96% 11.5 mph W18.5 kmh W 20.7 mph33.3 kmh 27.85 in943.1 mb - 0.00 in0.0 mm 0.57 in14.5 mm
05:47 PM 37.4°F3.0°C 36.4°F2.4°C 96% 15.0 mph W24.1 kmh W 19.6 mph31.5 kmh 27.85 in943.1 mb - 0.00 in0.0 mm 0.57 in14.5 mm
05:48 PM 37.2°F2.9°C 36.2°F2.3°C 96% 15.0 mph WNW24.1 kmh WNW 15.0 mph24.1 kmh 27.85 in943.1 mb - 0.00 in0.0 mm 0.57 in14.5 mm
05:49 PM 37.1°F2.8°C 36.0°F2.2°C 96% 10.4 mph WNW16.7 kmh WNW 12.7 mph20.4 kmh 27.86 in943.4 mb - 0.00 in0.0 mm 0.57 in14.5 mm
05:50 PM 37.0°F2.8°C 36.0°F2.2°C 96% 11.5 mph WNW18.5 kmh WNW 13.8 mph22.2 kmh 27.86 in943.4 mb - 0.00 in0.0 mm 0.57 in14.5 mm
05:51 PM 37.0°F2.8°C 36.0°F2.2°C 96% 11.5 mph WNW18.5 kmh WNW 15.0 mph24.1 kmh 27.86 in943.4 mb - 0.00 in0.0 mm 0.57 in14.5 mm
05:52 PM 36.9°F2.7°C 35.9°F2.2°C 96% 11.5 mph WNW18.5 kmh WNW 9.2 mph14.8 kmh 27.86 in943.4 mb - 0.00 in0.0 mm 0.57 in14.5 mm
05:53 PM 36.9°F2.7°C 35.9°F2.2°C 96% 10.4 mph WNW16.7 kmh WNW 15.0 mph24.1 kmh 27.86 in943.4 mb - 0.00 in0.0 mm 0.57 in14.5 mm
05:54 PM 36.7°F2.6°C 35.7°F2.1°C 96% 10.4 mph WSW16.7 kmh WSW 15.0 mph24.1 kmh 27.86 in943.4 mb - 0.00 in0.0 mm 0.57 in14.5 mm
05:55 PM 36.7°F2.6°C 35.7°F2.1°C 96% 9.2 mph W14.8 kmh W 11.5 mph18.5 kmh 27.86 in943.4 mb - 0.00 in0.0 mm 0.57 in14.5 mm
05:56 PM 36.6°F2.6°C 35.5°F1.9°C 96% 8.1 mph WNW13.0 kmh WNW 9.2 mph14.8 kmh 27.86 in943.4 mb - 0.00 in0.0 mm 0.57 in14.5 mm
05:57 PM 36.5°F2.5°C 35.5°F1.9°C 96% 6.9 mph WSW11.1 kmh WSW 6.9 mph11.1 kmh 27.86 in943.4 mb - 0.00 in0.0 mm 0.57 in14.5 mm
05:58 PM 36.4°F2.4°C 35.4°F1.9°C 96% 8.1 mph NW13.0 kmh NW 12.7 mph20.4 kmh 27.86 in943.4 mb - 0.00 in0.0 mm 0.57 in14.5 mm
05:59 PM 36.3°F2.4°C 35.3°F1.8°C 96% 8.1 mph W13.0 kmh W 11.5 mph18.5 kmh 27.86 in943.4 mb - 0.00 in0.0 mm 0.57 in14.5 mm
06:00 PM 36.3°F2.4°C 35.3°F1.8°C 96% 9.2 mph NW14.8 kmh NW 9.2 mph14.8 kmh 27.86 in943.4 mb - 0.00 in0.0 mm 0.57 in14.5 mm
06:01 PM 36.2°F2.3°C 35.2°F1.8°C 96% 10.4 mph N16.7 kmh N 13.8 mph22.2 kmh 27.86 in943.4 mb - 0.00 in0.0 mm 0.57 in14.5 mm
06:02 PM 36.1°F2.3°C 35.1°F1.7°C 96% 6.9 mph W11.1 kmh W 8.1 mph13.0 kmh 27.87 in943.8 mb - 0.00 in0.0 mm 0.57 in14.5 mm
06:03 PM 36.1°F2.3°C 35.0°F1.7°C 96% 6.9 mph WNW11.1 kmh WNW 8.1 mph13.0 kmh 27.87 in943.8 mb - 0.00 in0.0 mm 0.57 in14.5 mm
06:04 PM 36.0°F2.2°C 35.0°F1.7°C 96% 6.9 mph WNW11.1 kmh WNW 6.9 mph11.1 kmh 27.87 in943.8 mb - 0.00 in0.0 mm 0.57 in14.5 mm
06:05 PM 36.0°F2.2°C 35.0°F1.7°C 96% 6.9 mph NNW11.1 kmh NNW 8.1 mph13.0 kmh 27.87 in943.8 mb - 0.00 in0.0 mm 0.57 in14.5 mm
06:06 PM 35.9°F2.2°C 34.9°F1.6°C 96% 6.9 mph W11.1 kmh W 8.1 mph13.0 kmh 27.87 in943.8 mb - 0.00 in0.0 mm 0.57 in14.5 mm
06:07 PM 35.8°F2.1°C 34.8°F1.6°C 96% 6.9 mph W11.1 kmh W 9.2 mph14.8 kmh 27.87 in943.8 mb - 0.00 in0.0 mm 0.57 in14.5 mm
06:08 PM 35.7°F2.1°C 34.7°F1.5°C 96% 8.1 mph W13.0 kmh W 10.4 mph16.7 kmh 27.87 in943.8 mb - 0.00 in0.0 mm 0.57 in14.5 mm
06:09 PM 35.6°F2.0°C 34.5°F1.4°C 96% 10.4 mph W16.7 kmh W 10.4 mph16.7 kmh 27.87 in943.8 mb - 0.00 in0.0 mm 0.57 in14.5 mm
06:10 PM 35.3°F1.8°C 34.3°F1.3°C 96% 9.2 mph N14.8 kmh N 16.1 mph25.9 kmh 27.87 in943.8 mb - 0.00 in0.0 mm 0.57 in14.5 mm
06:11 PM 35.1°F1.7°C 34.1°F1.2°C 96% 8.1 mph NW13.0 kmh NW 12.7 mph20.4 kmh 27.87 in943.8 mb - 0.00 in0.0 mm 0.57 in14.5 mm
06:12 PM 34.9°F1.6°C 33.9°F1.1°C 96% 9.2 mph N14.8 kmh N 12.7 mph20.4 kmh 27.87 in943.8 mb - 0.00 in0.0 mm 0.57 in14.5 mm
06:13 PM 34.8°F1.6°C 33.8°F1.0°C 96% 8.1 mph NW13.0 kmh NW 10.4 mph16.7 kmh 27.87 in943.8 mb - 0.00 in0.0 mm 0.57 in14.5 mm
06:14 PM 34.5°F1.4°C 33.5°F0.8°C 96% 9.2 mph NNW14.8 kmh NNW 11.5 mph18.5 kmh 27.89 in944.5 mb - 0.00 in0.0 mm 0.57 in14.5 mm
06:15 PM 34.5°F1.4°C 33.5°F0.8°C 96% 9.2 mph N14.8 kmh N 10.4 mph16.7 kmh 27.89 in944.5 mb - 0.00 in0.0 mm 0.57 in14.5 mm
06:16 PM 34.4°F1.3°C 33.4°F0.8°C 96% 8.1 mph NNW13.0 kmh NNW 10.4 mph16.7 kmh 27.89 in944.5 mb - 0.00 in0.0 mm 0.57 in14.5 mm
06:17 PM 34.3°F1.3°C 33.3°F0.7°C 96% 8.1 mph WNW13.0 kmh WNW 8.1 mph13.0 kmh 27.89 in944.5 mb - 0.00 in0.0 mm 0.57 in14.5 mm
06:18 PM 34.3°F1.3°C 33.3°F0.7°C 96% 5.8 mph NW9.3 kmh NW 12.7 mph20.4 kmh 27.89 in944.5 mb - 0.00 in0.0 mm 0.57 in14.5 mm
06:19 PM 34.2°F1.2°C 33.2°F0.7°C 96% 9.2 mph NW14.8 kmh NW 10.4 mph16.7 kmh 27.89 in944.5 mb - 0.00 in0.0 mm 0.57 in14.5 mm
06:20 PM 34.2°F1.2°C 33.2°F0.7°C 96% 6.9 mph N11.1 kmh N 10.4 mph16.7 kmh 27.89 in944.5 mb - 0.00 in0.0 mm 0.57 in14.5 mm
06:21 PM 34.2°F1.2°C 33.2°F0.7°C 96% 6.9 mph NW11.1 kmh NW 9.2 mph14.8 kmh 27.89 in944.5 mb - 0.00 in0.0 mm 0.57 in14.5 mm
06:22 PM 34.0°F1.1°C 33.0°F0.6°C 96% 5.8 mph N9.3 kmh N 9.2 mph14.8 kmh 27.89 in944.5 mb - 0.00 in0.0 mm 0.57 in14.5 mm
06:23 PM 34.0°F1.1°C 33.0°F0.6°C 96% 4.6 mph N7.4 kmh N 11.5 mph18.5 kmh 27.89 in944.5 mb - 0.00 in0.0 mm 0.57 in14.5 mm
06:24 PM 33.9°F1.1°C 32.9°F0.5°C 96% 9.2 mph WNW14.8 kmh WNW 16.1 mph25.9 kmh 27.89 in944.5 mb - 0.00 in0.0 mm 0.57 in14.5 mm
06:25 PM 33.8°F1.0°C 32.8°F0.4°C 96% 10.4 mph NNW16.7 kmh NNW 9.2 mph14.8 kmh 27.89 in944.5 mb - 0.00 in0.0 mm 0.57 in14.5 mm
06:26 PM 33.7°F0.9°C 32.7°F0.4°C 96% 8.1 mph SSW13.0 kmh SSW 11.5 mph18.5 kmh 27.91 in945.1 mb - 0.00 in0.0 mm 0.57 in14.5 mm
06:27 PM 33.6°F0.9°C 32.6°F0.3°C 96% 6.9 mph WNW11.1 kmh WNW 10.4 mph16.7 kmh 27.91 in945.1 mb - 0.00 in0.0 mm 0.57 in14.5 mm
06:28 PM 33.6°F0.9°C 32.6°F0.3°C 96% 5.8 mph N9.3 kmh N 10.4 mph16.7 kmh 27.91 in945.1 mb - 0.00 in0.0 mm 0.57 in14.5 mm
06:29 PM 33.6°F0.9°C 32.6°F0.3°C 96% 5.8 mph WNW9.3 kmh WNW 6.9 mph11.1 kmh 27.91 in945.1 mb - 0.00 in0.0 mm 0.57 in14.5 mm
06:30 PM 33.6°F0.9°C 32.6°F0.3°C 96% 6.9 mph WNW11.1 kmh WNW 6.9 mph11.1 kmh 27.91 in945.1 mb - 0.00 in0.0 mm 0.57 in14.5 mm
06:31 PM 33.5°F0.8°C 32.4°F0.2°C 96% 6.9 mph W11.1 kmh W 6.9 mph11.1 kmh 27.91 in945.1 mb - 0.00 in0.0 mm 0.57 in14.5 mm
06:32 PM 33.4°F0.8°C 32.4°F0.2°C 96% 9.2 mph NW14.8 kmh NW 11.5 mph18.5 kmh 27.91 in945.1 mb - 0.00 in0.0 mm 0.57 in14.5 mm
06:33 PM 33.3°F0.7°C 32.3°F0.2°C 96% 9.2 mph NW14.8 kmh NW 10.4 mph16.7 kmh 27.91 in945.1 mb - 0.00 in0.0 mm 0.57 in14.5 mm
06:34 PM 33.3°F0.7°C 32.3°F0.2°C 96% 6.9 mph N11.1 kmh N 9.2 mph14.8 kmh 27.91 in945.1 mb - 0.00 in0.0 mm 0.57 in14.5 mm
06:35 PM 33.3°F0.7°C 32.3°F0.2°C 96% 6.9 mph WNW11.1 kmh WNW 8.1 mph13.0 kmh 27.91 in945.1 mb - 0.00 in0.0 mm 0.57 in14.5 mm
06:36 PM 33.3°F0.7°C 32.3°F0.2°C 96% 6.9 mph E11.1 kmh E 8.1 mph13.0 kmh 27.91 in945.1 mb - 0.00 in0.0 mm 0.57 in14.5 mm
06:37 PM 33.1°F0.6°C 32.1°F0.1°C 96% 8.1 mph W13.0 kmh W 11.5 mph18.5 kmh 27.91 in945.1 mb - 0.00 in0.0 mm 0.57 in14.5 mm
06:38 PM 33.0°F0.6°C 31.9°F-0.1°C 96% 9.2 mph W14.8 kmh W 11.5 mph18.5 kmh 27.91 in945.1 mb - 0.00 in0.0 mm 0.57 in14.5 mm
06:39 PM 32.9°F0.5°C 31.9°F-0.1°C 96% 6.9 mph WNW11.1 kmh WNW 5.8 mph9.3 kmh 27.91 in945.1 mb - 0.00 in0.0 mm 0.57 in14.5 mm
06:40 PM 32.9°F0.5°C 31.9°F-0.1°C 96% 5.8 mph WNW9.3 kmh WNW 9.2 mph14.8 kmh 27.91 in945.1 mb - 0.00 in0.0 mm 0.57 in14.5 mm
06:41 PM 32.9°F0.5°C 31.8°F-0.1°C 96% 8.1 mph N13.0 kmh N 9.2 mph14.8 kmh 27.91 in945.1 mb - 0.00 in0.0 mm 0.57 in14.5 mm
06:42 PM 32.7°F0.4°C 31.7°F-0.2°C 96% 6.9 mph NW11.1 kmh NW 8.1 mph13.0 kmh 27.91 in945.1 mb - 0.00 in0.0 mm 0.57 in14.5 mm
06:43 PM 32.6°F0.3°C 31.6°F-0.2°C 96% 6.9 mph N11.1 kmh N 10.4 mph16.7 kmh 27.91 in945.1 mb - 0.00 in0.0 mm 0.57 in14.5 mm
06:44 PM 32.4°F0.2°C 31.4°F-0.3°C 96% 8.1 mph NE13.0 kmh NE 8.1 mph13.0 kmh 27.91 in945.1 mb - 0.00 in0.0 mm 0.57 in14.5 mm
06:45 PM 32.4°F0.2°C 31.4°F-0.3°C 96% 5.8 mph N9.3 kmh N 5.8 mph9.3 kmh 27.91 in945.1 mb - 0.00 in0.0 mm 0.57 in14.5 mm
06:46 PM 32.4°F0.2°C 31.4°F-0.3°C 96% 6.9 mph NW11.1 kmh NW 10.4 mph16.7 kmh 27.91 in945.1 mb - 0.00 in0.0 mm 0.57 in14.5 mm
06:47 PM 32.4°F0.2°C 31.4°F-0.3°C 96% 9.2 mph NW14.8 kmh NW 11.5 mph18.5 kmh 27.91 in945.1 mb - 0.00 in0.0 mm 0.57 in14.5 mm
06:48 PM 32.1°F0.1°C 31.1°F-0.5°C 96% 10.4 mph WNW16.7 kmh WNW 11.5 mph18.5 kmh 27.91 in945.1 mb - 0.00 in0.0 mm 0.57 in14.5 mm
06:49 PM 32.0°F0.0°C 31.0°F-0.6°C 96% 5.8 mph NW9.3 kmh NW 5.8 mph9.3 kmh 27.91 in945.1 mb - 0.00 in0.0 mm 0.57 in14.5 mm
06:50 PM 32.0°F0.0°C 31.0°F-0.6°C 96% 5.8 mph N9.3 kmh N 11.5 mph18.5 kmh 27.92 in945.5 mb - 0.00 in0.0 mm 0.57 in14.5 mm
06:51 PM 31.8°F-0.1°C 30.8°F-0.7°C 96% 9.2 mph N14.8 kmh N 9.2 mph14.8 kmh 27.92 in945.5 mb - 0.00 in0.0 mm 0.57 in14.5 mm
06:52 PM 31.8°F-0.1°C 30.8°F-0.7°C 96% 4.6 mph NNE7.4 kmh NNE 4.6 mph7.4 kmh 27.92 in945.5 mb - 0.00 in0.0 mm 0.57 in14.5 mm
06:53 PM 31.8°F-0.1°C 30.8°F-0.7°C 96% 3.5 mph WNW5.6 kmh WNW 4.6 mph7.4 kmh 27.92 in945.5 mb - 0.00 in0.0 mm 0.57 in14.5 mm
06:54 PM 32.0°F0.0°C 31.0°F-0.6°C 96% 3.5 mph WNW5.6 kmh WNW 5.8 mph9.3 kmh 27.92 in945.5 mb - 0.00 in0.0 mm 0.57 in14.5 mm
06:55 PM 32.0°F0.0°C 31.0°F-0.6°C 96% 3.5 mph ESE5.6 kmh ESE 5.8 mph9.3 kmh 27.92 in945.5 mb - 0.00 in0.0 mm 0.57 in14.5 mm
06:56 PM 32.0°F0.0°C 31.0°F-0.6°C 96% 4.6 mph WNW7.4 kmh WNW 8.1 mph13.0 kmh 27.92 in945.5 mb - 0.00 in0.0 mm 0.57 in14.5 mm
06:57 PM 31.8°F-0.1°C 30.8°F-0.7°C 96% 6.9 mph NW11.1 kmh NW 10.4 mph16.7 kmh 27.92 in945.5 mb - 0.00 in0.0 mm 0.57 in14.5 mm
06:58 PM 31.6°F-0.2°C 30.6°F-0.8°C 96% 8.1 mph NW13.0 kmh NW 10.4 mph16.7 kmh 27.92 in945.5 mb - 0.00 in0.0 mm 0.57 in14.5 mm
06:59 PM 31.6°F-0.2°C 30.6°F-0.8°C 96% 6.9 mph NW11.1 kmh NW 15.0 mph24.1 kmh 27.92 in945.5 mb - 0.00 in0.0 mm 0.57 in14.5 mm
07:00 PM 31.5°F-0.3°C 30.5°F-0.8°C 96% 9.2 mph NNW14.8 kmh NNW 15.0 mph24.1 kmh 27.92 in945.5 mb - 0.00 in0.0 mm 0.57 in14.5 mm
07:01 PM 31.4°F-0.3°C 30.4°F-0.9°C 96% 8.1 mph WNW13.0 kmh WNW 10.4 mph16.7 kmh 27.92 in945.5 mb - 0.00 in0.0 mm 0.57 in14.5 mm
07:02 PM 31.3°F-0.4°C 30.3°F-0.9°C 96% 8.1 mph WSW13.0 kmh WSW 10.4 mph16.7 kmh 27.93 in945.8 mb - 0.00 in0.0 mm 0.57 in14.5 mm
07:03 PM 31.3°F-0.4°C 30.3°F-0.9°C 96% 9.2 mph WNW14.8 kmh WNW 10.4 mph16.7 kmh 27.93 in945.8 mb - 0.00 in0.0 mm 0.57 in14.5 mm
07:04 PM 31.2°F-0.4°C 30.2°F-1.0°C 96% 8.1 mph WNW13.0 kmh WNW 11.5 mph18.5 kmh 27.93 in945.8 mb - 0.00 in0.0 mm 0.57 in14.5 mm
07:05 PM 31.1°F-0.5°C 30.1°F-1.1°C 96% 9.2 mph NNW14.8 kmh NNW 11.5 mph18.5 kmh 27.93 in945.8 mb - 0.00 in0.0 mm 0.57 in14.5 mm
07:06 PM 31.0°F-0.6°C 30.0°F-1.1°C 96% 9.2 mph NW14.8 kmh NW 12.7 mph20.4 kmh 27.93 in945.8 mb - 0.00 in0.0 mm 0.57 in14.5 mm
07:07 PM 30.7°F-0.7°C 29.7°F-1.3°C 96% 10.4 mph N16.7 kmh N 11.5 mph18.5 kmh 27.93 in945.8 mb - 0.00 in0.0 mm 0.57 in14.5 mm
07:08 PM 30.6°F-0.8°C 29.6°F-1.3°C 96% 11.5 mph W18.5 kmh W 13.8 mph22.2 kmh 27.93 in945.8 mb - 0.00 in0.0 mm 0.57 in14.5 mm
07:09 PM 30.6°F-0.8°C 29.6°F-1.3°C 96% 8.1 mph NW13.0 kmh NW 11.5 mph18.5 kmh 27.93 in945.8 mb - 0.00 in0.0 mm 0.57 in14.5 mm
07:10 PM 30.6°F-0.8°C 29.6°F-1.3°C 96% 8.1 mph NW13.0 kmh NW 11.5 mph18.5 kmh 27.93 in945.8 mb - 0.00 in0.0 mm 0.57 in14.5 mm
07:11 PM 30.6°F-0.8°C 29.6°F-1.3°C 96% 10.4 mph NW16.7 kmh NW 15.0 mph24.1 kmh 27.93 in945.8 mb - 0.00 in0.0 mm 0.57 in14.5 mm
07:12 PM 30.5°F-0.8°C 29.5°F-1.4°C 96% 6.9 mph WNW11.1 kmh WNW 8.1 mph13.0 kmh 27.93 in945.8 mb - 0.00 in0.0 mm 0.57 in14.5 mm
07:13 PM 30.4°F-0.9°C 29.4°F-1.4°C 96% 6.9 mph N11.1 kmh N 9.2 mph14.8 kmh 27.93 in945.8 mb - 0.00 in0.0 mm 0.57 in14.5 mm
07:14 PM 30.4°F-0.9°C 29.4°F-1.4°C 96% 9.2 mph NW14.8 kmh NW 11.5 mph18.5 kmh 27.94 in946.2 mb - 0.00 in0.0 mm 0.57 in14.5 mm
07:15 PM 30.2°F-1.0°C 29.2°F-1.6°C 96% 8.1 mph N13.0 kmh N 10.4 mph16.7 kmh 27.94 in946.2 mb - 0.00 in0.0 mm 0.57 in14.5 mm
07:16 PM 30.2°F-1.0°C 29.2°F-1.6°C 96% 6.9 mph WNW11.1 kmh WNW 8.1 mph13.0 kmh 27.94 in946.2 mb - 0.00 in0.0 mm 0.57 in14.5 mm
07:17 PM 30.2°F-1.0°C 29.2°F-1.6°C 96% 6.9 mph WNW11.1 kmh WNW 6.9 mph11.1 kmh 27.94 in946.2 mb - 0.00 in0.0 mm 0.57 in14.5 mm
07:18 PM 30.2°F-1.0°C 29.2°F-1.6°C 96% 6.9 mph NW11.1 kmh NW 10.4 mph16.7 kmh 27.94 in946.2 mb - 0.00 in0.0 mm 0.57 in14.5 mm
07:19 PM 30.0°F-1.1°C 29.0°F-1.7°C 96% 8.1 mph N13.0 kmh N 10.4 mph16.7 kmh 27.94 in946.2 mb - 0.00 in0.0 mm 0.57 in14.5 mm
07:20 PM 29.9°F-1.2°C 28.9°F-1.7°C 96% 10.4 mph NW16.7 kmh NW 12.7 mph20.4 kmh 27.94 in946.2 mb - 0.00 in0.0 mm 0.57 in14.5 mm
07:21 PM 29.8°F-1.2°C 28.8°F-1.8°C 96% 8.1 mph NNW13.0 kmh NNW 6.9 mph11.1 kmh 27.94 in946.2 mb - 0.00 in0.0 mm 0.57 in14.5 mm
07:22 PM 29.8°F-1.2°C 28.8°F-1.8°C 96% 5.8 mph NW9.3 kmh NW 10.4 mph16.7 kmh 27.94 in946.2 mb - 0.00 in0.0 mm 0.57 in14.5 mm
07:23 PM 29.8°F-1.2°C 28.8°F-1.8°C 96% 8.1 mph W13.0 kmh W 6.9 mph11.1 kmh 27.94 in946.2 mb - 0.00 in0.0 mm 0.57 in14.5 mm
07:24 PM 29.8°F-1.2°C 28.8°F-1.8°C 96% 4.6 mph N7.4 kmh N 5.8 mph9.3 kmh 27.94 in946.2 mb - 0.00 in0.0 mm 0.57 in14.5 mm
07:25 PM 29.8°F-1.2°C 28.8°F-1.8°C 96% 5.8 mph NNE9.3 kmh NNE 9.2 mph14.8 kmh 27.95 in946.5 mb - 0.00 in0.0 mm 0.57 in14.5 mm
07:26 PM 29.8°F-1.2°C 28.8°F-1.8°C 96% 6.9 mph NW11.1 kmh NW 6.9 mph11.1 kmh 27.95 in946.5 mb - 0.00 in0.0 mm 0.57 in14.5 mm
07:27 PM 29.8°F-1.2°C 28.8°F-1.8°C 96% 6.9 mph NW11.1 kmh NW 9.2 mph14.8 kmh 27.95 in946.5 mb - 0.00 in0.0 mm 0.57 in14.5 mm
07:28 PM 29.8°F-1.2°C 28.8°F-1.8°C 96% 5.8 mph N9.3 kmh N 8.1 mph13.0 kmh 27.95 in946.5 mb - 0.00 in0.0 mm 0.57 in14.5 mm
07:29 PM 29.8°F-1.2°C 28.8°F-1.8°C 96% 6.9 mph NW11.1 kmh NW 10.4 mph16.7 kmh 27.95 in946.5 mb - 0.00 in0.0 mm 0.57 in14.5 mm
07:30 PM 29.6°F-1.3°C 28.6°F-1.9°C 96% 9.2 mph W14.8 kmh W 10.4 mph16.7 kmh 27.95 in946.5 mb - 0.00 in0.0 mm 0.57 in14.5 mm
07:31 PM 29.5°F-1.4°C 28.5°F-1.9°C 96% 9.2 mph WNW14.8 kmh WNW 10.4 mph16.7 kmh 27.95 in946.5 mb - 0.00 in0.0 mm 0.57 in14.5 mm
07:32 PM 29.4°F-1.4°C 28.4°F-2.0°C 96% 9.2 mph W14.8 kmh W 15.0 mph24.1 kmh 27.95 in946.5 mb - 0.00 in0.0 mm 0.57 in14.5 mm
07:33 PM 29.3°F-1.5°C 28.3°F-2.1°C 96% 11.5 mph NW18.5 kmh NW 15.0 mph24.1 kmh 27.95 in946.5 mb - 0.00 in0.0 mm 0.57 in14.5 mm
07:34 PM 29.3°F-1.5°C 28.3°F-2.1°C 96% 8.1 mph NNE13.0 kmh NNE 8.1 mph13.0 kmh 27.95 in946.5 mb - 0.00 in0.0 mm 0.57 in14.5 mm
07:35 PM 29.3°F-1.5°C 28.3°F-2.1°C 96% 6.9 mph NE11.1 kmh NE 8.1 mph13.0 kmh 27.95 in946.5 mb - 0.00 in0.0 mm 0.57 in14.5 mm
07:36 PM 29.3°F-1.5°C 28.3°F-2.1°C 96% 6.9 mph NW11.1 kmh NW 10.4 mph16.7 kmh 27.95 in946.5 mb - 0.00 in0.0 mm 0.57 in14.5 mm
07:37 PM 29.3°F-1.5°C 28.3°F-2.1°C 96% 8.1 mph N13.0 kmh N 8.1 mph13.0 kmh 27.96 in946.8 mb - 0.00 in0.0 mm 0.57 in14.5 mm
07:38 PM 29.1°F-1.6°C 28.1°F-2.2°C 96% 8.1 mph NW13.0 kmh NW 12.7 mph20.4 kmh 27.96 in946.8 mb - 0.00 in0.0 mm 0.57 in14.5 mm
07:39 PM 29.1°F-1.6°C 28.1°F-2.2°C 96% 8.1 mph WSW13.0 kmh WSW 8.1 mph13.0 kmh 27.96 in946.8 mb - 0.00 in0.0 mm 0.57 in14.5 mm
07:40 PM 29.1°F-1.6°C 28.1°F-2.2°C 96% 5.8 mph NW9.3 kmh NW 6.9 mph11.1 kmh 27.96 in946.8 mb - 0.00 in0.0 mm 0.57 in14.5 mm
07:41 PM 29.1°F-1.6°C 28.1°F-2.2°C 96% 6.9 mph WNW11.1 kmh WNW 10.4 mph16.7 kmh 27.96 in946.8 mb - 0.00 in0.0 mm 0.57 in14.5 mm
07:42 PM 29.1°F-1.6°C 28.1°F-2.2°C 96% 6.9 mph NW11.1 kmh NW 9.2 mph14.8 kmh 27.96 in946.8 mb - 0.00 in0.0 mm 0.57 in14.5 mm
07:43 PM 28.9°F-1.7°C 27.9°F-2.3°C 96% 8.1 mph NW13.0 kmh NW 10.4 mph16.7 kmh 27.96 in946.8 mb - 0.00 in0.0 mm 0.57 in14.5 mm
07:44 PM 28.9°F-1.7°C 27.9°F-2.3°C 96% 6.9 mph WSW11.1 kmh WSW 10.4 mph16.7 kmh 27.96 in946.8 mb - 0.00 in0.0 mm 0.57 in14.5 mm
07:45 PM 28.8°F-1.8°C 27.8°F-2.3°C 96% 9.2 mph NW14.8 kmh NW 10.4 mph16.7 kmh 27.96 in946.8 mb - 0.00 in0.0 mm 0.57 in14.5 mm
07:46 PM 28.8°F-1.8°C 27.8°F-2.3°C 96% 8.1 mph NNW13.0 kmh NNW 9.2 mph14.8 kmh 27.96 in946.8 mb - 0.00 in0.0 mm 0.57 in14.5 mm
07:47 PM 28.8°F-1.8°C 27.8°F-2.3°C 96% 6.9 mph NW11.1 kmh NW 9.2 mph14.8 kmh 27.96 in946.8 mb - 0.00 in0.0 mm 0.57 in14.5 mm
07:48 PM 28.8°F-1.8°C 27.8°F-2.3°C 96% 6.9 mph WNW11.1 kmh WNW 12.7 mph20.4 kmh 27.96 in946.8 mb - 0.00 in0.0 mm 0.57 in14.5 mm
07:49 PM 28.7°F-1.8°C 27.7°F-2.4°C 96% 9.2 mph NW14.8 kmh NW 10.4 mph16.7 kmh 27.96 in946.8 mb - 0.00 in0.0 mm 0.57 in14.5 mm
07:50 PM 28.6°F-1.9°C 27.6°F-2.4°C 96% 6.9 mph NW11.1 kmh NW 8.1 mph13.0 kmh 27.96 in946.8 mb - 0.00 in0.0 mm 0.57 in14.5 mm
07:51 PM 28.6°F-1.9°C 27.6°F-2.4°C 96% 8.1 mph WSW13.0 kmh WSW 10.4 mph16.7 kmh 27.96 in946.8 mb - 0.00 in0.0 mm 0.57 in14.5 mm
07:52 PM 28.5°F-1.9°C 27.5°F